<?xml version="1.0" encoding="UTF-8" standalone="no" ?>
<gpx xmlns="http://www.topografix.com/GPX/1/1" xmlns:xsi="http://www.w3.org/2001/XMLSchema-instance" xsi:schemaLocation="http://www.topografix.com/GPX/1/1 http://www.topografix.com/GPX/1/1/gpx.xsd" version="1.1" creator="VisuGPX - https://www.visugpx.com">
  <metadata>
    <name>Parcours voiture algarve 1</name>
    <desc><![CDATA[Parcours voiture algarve 1]]></desc>
  </metadata>
  <trk>
    <name><![CDATA[ACTIVE LOG094705]]></name>
    <trkseg>
      <trkpt lat="37.01716" lon="-7.93295">
        <ele>-0.359</ele>
        <time>2011-08-05T07:47:05Z</time>
      </trkpt>
      <trkpt lat="37.01721" lon="-7.93296">
        <ele>11.041</ele>
        <time>2011-08-05T07:47:50Z</time>
      </trkpt>
      <trkpt lat="37.01722" lon="-7.93295">
        <ele>13.648</ele>
        <time>2011-08-05T07:49:13Z</time>
      </trkpt>
      <trkpt lat="37.01718" lon="-7.93297">
        <ele>16.154</ele>
        <time>2011-08-05T07:49:29Z</time>
      </trkpt>
      <trkpt lat="37.01718" lon="-7.93296">
        <ele>13.187</ele>
        <time>2011-08-05T07:50:40Z</time>
      </trkpt>
      <trkpt lat="37.01714" lon="-7.93296">
        <ele>12.568</ele>
        <time>2011-08-05T07:51:14Z</time>
      </trkpt>
      <trkpt lat="37.01728" lon="-7.93289">
        <ele>14.864</ele>
        <time>2011-08-05T07:55:48Z</time>
      </trkpt>
      <trkpt lat="37.01732" lon="-7.93293">
        <ele>20.477</ele>
        <time>2011-08-05T07:56:48Z</time>
      </trkpt>
      <trkpt lat="37.01725" lon="-7.93288">
        <ele>24.836</ele>
        <time>2011-08-05T07:58:03Z</time>
      </trkpt>
    </trkseg>
  </trk>
  <trk>
    <name><![CDATA[ACTIVE LOG115257]]></name>
    <trkseg>
      <trkpt lat="37.02127" lon="-7.96546">
        <ele>15.184</ele>
        <time>2011-08-05T09:52:57Z</time>
      </trkpt>
      <trkpt lat="37.02123" lon="-7.96546">
        <ele>16.114</ele>
        <time>2011-08-05T09:53:14Z</time>
      </trkpt>
      <trkpt lat="37.02123" lon="-7.96543">
        <ele>16.324</ele>
        <time>2011-08-05T09:53:50Z</time>
      </trkpt>
      <trkpt lat="37.02129" lon="-7.96545">
        <ele>15.05</ele>
        <time>2011-08-05T09:55:57Z</time>
      </trkpt>
      <trkpt lat="37.02133" lon="-7.96539">
        <ele>14.235</ele>
        <time>2011-08-05T09:56:01Z</time>
      </trkpt>
      <trkpt lat="37.02168" lon="-7.96506">
        <ele>11.503</ele>
        <time>2011-08-05T09:56:18Z</time>
      </trkpt>
      <trkpt lat="37.02178" lon="-7.96505">
        <ele>9.057</ele>
        <time>2011-08-05T09:56:30Z</time>
      </trkpt>
      <trkpt lat="37.02179" lon="-7.96505">
        <ele>8.832</ele>
        <time>2011-08-05T09:56:31Z</time>
      </trkpt>
      <trkpt lat="37.02182" lon="-7.96522">
        <ele>8.522</ele>
        <time>2011-08-05T09:56:36Z</time>
      </trkpt>
      <trkpt lat="37.02196" lon="-7.96596">
        <ele>10.427</ele>
        <time>2011-08-05T09:56:48Z</time>
      </trkpt>
      <trkpt lat="37.02197" lon="-7.96606">
        <ele>10.383</ele>
        <time>2011-08-05T09:56:57Z</time>
      </trkpt>
      <trkpt lat="37.02199" lon="-7.9662">
        <ele>10.799</ele>
        <time>2011-08-05T09:57:11Z</time>
      </trkpt>
      <trkpt lat="37.02202" lon="-7.96641">
        <ele>10.995</ele>
        <time>2011-08-05T09:57:20Z</time>
      </trkpt>
      <trkpt lat="37.02203" lon="-7.96644">
        <ele>11.025</ele>
        <time>2011-08-05T09:57:28Z</time>
      </trkpt>
      <trkpt lat="37.02204" lon="-7.96644">
        <ele>11.175</ele>
        <time>2011-08-05T09:57:30Z</time>
      </trkpt>
      <trkpt lat="37.02201" lon="-7.96632">
        <ele>11.86</ele>
        <time>2011-08-05T09:57:34Z</time>
      </trkpt>
      <trkpt lat="37.02198" lon="-7.96611">
        <ele>11.15</ele>
        <time>2011-08-05T09:57:38Z</time>
      </trkpt>
      <trkpt lat="37.02169" lon="-7.96543">
        <ele>11.572</ele>
        <time>2011-08-05T09:57:42Z</time>
      </trkpt>
      <trkpt lat="37.02142" lon="-7.96607">
        <ele>12.567</ele>
        <time>2011-08-05T09:57:49Z</time>
      </trkpt>
      <trkpt lat="37.02131" lon="-7.96637">
        <ele>11.772</ele>
        <time>2011-08-05T09:57:56Z</time>
      </trkpt>
      <trkpt lat="37.0214" lon="-7.96765">
        <ele>10.171</ele>
        <time>2011-08-05T09:58:11Z</time>
      </trkpt>
      <trkpt lat="37.02154" lon="-7.96796">
        <ele>10.919</ele>
        <time>2011-08-05T09:58:21Z</time>
      </trkpt>
      <trkpt lat="37.02165" lon="-7.96875">
        <ele>11.131</ele>
        <time>2011-08-05T09:58:33Z</time>
      </trkpt>
      <trkpt lat="37.02168" lon="-7.96897">
        <ele>13.024</ele>
        <time>2011-08-05T09:58:45Z</time>
      </trkpt>
      <trkpt lat="37.02173" lon="-7.96932">
        <ele>13.882</ele>
        <time>2011-08-05T09:58:51Z</time>
      </trkpt>
      <trkpt lat="37.02182" lon="-7.96987">
        <ele>15.305</ele>
        <time>2011-08-05T09:58:57Z</time>
      </trkpt>
      <trkpt lat="37.02218" lon="-7.97026">
        <ele>17.601</ele>
        <time>2011-08-05T09:59:06Z</time>
      </trkpt>
      <trkpt lat="37.02254" lon="-7.9702">
        <ele>19.652</ele>
        <time>2011-08-05T09:59:11Z</time>
      </trkpt>
      <trkpt lat="37.02284" lon="-7.97015">
        <ele>19.304</ele>
        <time>2011-08-05T09:59:16Z</time>
      </trkpt>
      <trkpt lat="37.02328" lon="-7.9701">
        <ele>17.374</ele>
        <time>2011-08-05T09:59:21Z</time>
      </trkpt>
      <trkpt lat="37.02378" lon="-7.97005">
        <ele>16.265</ele>
        <time>2011-08-05T09:59:26Z</time>
      </trkpt>
      <trkpt lat="37.02533" lon="-7.96972">
        <ele>19.219</ele>
        <time>2011-08-05T09:59:37Z</time>
      </trkpt>
      <trkpt lat="37.02796" lon="-7.96915">
        <ele>15.081</ele>
        <time>2011-08-05T09:59:52Z</time>
      </trkpt>
      <trkpt lat="37.03014" lon="-7.96836">
        <ele>15.582</ele>
        <time>2011-08-05T10:00:05Z</time>
      </trkpt>
      <trkpt lat="37.0314" lon="-7.96723">
        <ele>17.846</ele>
        <time>2011-08-05T10:00:14Z</time>
      </trkpt>
      <trkpt lat="37.03253" lon="-7.96533">
        <ele>20.662</ele>
        <time>2011-08-05T10:00:25Z</time>
      </trkpt>
      <trkpt lat="37.03501" lon="-7.96082">
        <ele>22.503</ele>
        <time>2011-08-05T10:00:50Z</time>
      </trkpt>
      <trkpt lat="37.03616" lon="-7.95877">
        <ele>19.816</ele>
        <time>2011-08-05T10:01:01Z</time>
      </trkpt>
      <trkpt lat="37.03694" lon="-7.95662">
        <ele>16.971</ele>
        <time>2011-08-05T10:01:11Z</time>
      </trkpt>
      <trkpt lat="37.03798" lon="-7.95356">
        <ele>10.715</ele>
        <time>2011-08-05T10:01:25Z</time>
      </trkpt>
      <trkpt lat="37.03916" lon="-7.95098">
        <ele>12.228</ele>
        <time>2011-08-05T10:01:38Z</time>
      </trkpt>
      <trkpt lat="37.03986" lon="-7.9498">
        <ele>13.048</ele>
        <time>2011-08-05T10:01:46Z</time>
      </trkpt>
      <trkpt lat="37.03985" lon="-7.94917">
        <ele>12.241</ele>
        <time>2011-08-05T10:01:52Z</time>
      </trkpt>
      <trkpt lat="37.03949" lon="-7.94907">
        <ele>13.73</ele>
        <time>2011-08-05T10:01:56Z</time>
      </trkpt>
      <trkpt lat="37.03922" lon="-7.94954">
        <ele>15.291</ele>
        <time>2011-08-05T10:02:00Z</time>
      </trkpt>
      <trkpt lat="37.03944" lon="-7.94986">
        <ele>15.214</ele>
        <time>2011-08-05T10:02:04Z</time>
      </trkpt>
      <trkpt lat="37.0396" lon="-7.94998">
        <ele>16.014</ele>
        <time>2011-08-05T10:02:07Z</time>
      </trkpt>
      <trkpt lat="37.04054" lon="-7.95044">
        <ele>12.857</ele>
        <time>2011-08-05T10:02:15Z</time>
      </trkpt>
      <trkpt lat="37.04231" lon="-7.95135">
        <ele>12.767</ele>
        <time>2011-08-05T10:02:26Z</time>
      </trkpt>
      <trkpt lat="37.04383" lon="-7.95202">
        <ele>12.031</ele>
        <time>2011-08-05T10:02:37Z</time>
      </trkpt>
      <trkpt lat="37.0464" lon="-7.9527">
        <ele>10.1</ele>
        <time>2011-08-05T10:02:53Z</time>
      </trkpt>
      <trkpt lat="37.04797" lon="-7.95285">
        <ele>10.309</ele>
        <time>2011-08-05T10:03:05Z</time>
      </trkpt>
      <trkpt lat="37.04982" lon="-7.95302">
        <ele>11.313</ele>
        <time>2011-08-05T10:03:19Z</time>
      </trkpt>
      <trkpt lat="37.05069" lon="-7.95329">
        <ele>12.718</ele>
        <time>2011-08-05T10:03:27Z</time>
      </trkpt>
      <trkpt lat="37.05073" lon="-7.95331">
        <ele>12.908</ele>
        <time>2011-08-05T10:03:33Z</time>
      </trkpt>
      <trkpt lat="37.05097" lon="-7.95343">
        <ele>13.759</ele>
        <time>2011-08-05T10:04:00Z</time>
      </trkpt>
      <trkpt lat="37.05166" lon="-7.95384">
        <ele>16.155</ele>
        <time>2011-08-05T10:04:08Z</time>
      </trkpt>
      <trkpt lat="37.05286" lon="-7.95459">
        <ele>18.154</ele>
        <time>2011-08-05T10:04:17Z</time>
      </trkpt>
      <trkpt lat="37.05388" lon="-7.95569">
        <ele>20.06</ele>
        <time>2011-08-05T10:04:25Z</time>
      </trkpt>
      <trkpt lat="37.05609" lon="-7.95887">
        <ele>25.182</ele>
        <time>2011-08-05T10:04:44Z</time>
      </trkpt>
      <trkpt lat="37.05786" lon="-7.96157">
        <ele>27.628</ele>
        <time>2011-08-05T10:05:00Z</time>
      </trkpt>
      <trkpt lat="37.05912" lon="-7.96361">
        <ele>28.29</ele>
        <time>2011-08-05T10:05:13Z</time>
      </trkpt>
      <trkpt lat="37.06088" lon="-7.96645">
        <ele>30.916</ele>
        <time>2011-08-05T10:05:32Z</time>
      </trkpt>
      <trkpt lat="37.06113" lon="-7.96687">
        <ele>31.885</ele>
        <time>2011-08-05T10:05:37Z</time>
      </trkpt>
      <trkpt lat="37.06113" lon="-7.96687">
        <ele>32.162</ele>
        <time>2011-08-05T10:05:59Z</time>
      </trkpt>
      <trkpt lat="37.06131" lon="-7.96716">
        <ele>32.179</ele>
        <time>2011-08-05T10:06:20Z</time>
      </trkpt>
      <trkpt lat="37.06195" lon="-7.96823">
        <ele>33.683</ele>
        <time>2011-08-05T10:06:29Z</time>
      </trkpt>
      <trkpt lat="37.06293" lon="-7.96973">
        <ele>34.153</ele>
        <time>2011-08-05T10:06:38Z</time>
      </trkpt>
      <trkpt lat="37.06443" lon="-7.97173">
        <ele>35.239</ele>
        <time>2011-08-05T10:06:51Z</time>
      </trkpt>
      <trkpt lat="37.06695" lon="-7.97478">
        <ele>38.397</ele>
        <time>2011-08-05T10:07:12Z</time>
      </trkpt>
      <trkpt lat="37.06865" lon="-7.97621">
        <ele>36.798</ele>
        <time>2011-08-05T10:07:25Z</time>
      </trkpt>
      <trkpt lat="37.07042" lon="-7.97702">
        <ele>32.528</ele>
        <time>2011-08-05T10:07:37Z</time>
      </trkpt>
      <trkpt lat="37.07057" lon="-7.97705">
        <ele>32.354</ele>
        <time>2011-08-05T10:07:38Z</time>
      </trkpt>
      <trkpt lat="37.07116" lon="-7.97708">
        <ele>32.494</ele>
        <time>2011-08-05T10:07:42Z</time>
      </trkpt>
      <trkpt lat="37.07191" lon="-7.97703">
        <ele>33.487</ele>
        <time>2011-08-05T10:07:47Z</time>
      </trkpt>
      <trkpt lat="37.07233" lon="-7.97709">
        <ele>35.103</ele>
        <time>2011-08-05T10:07:50Z</time>
      </trkpt>
      <trkpt lat="37.07311" lon="-7.97779">
        <ele>38.027</ele>
        <time>2011-08-05T10:07:57Z</time>
      </trkpt>
      <trkpt lat="37.07328" lon="-7.97811">
        <ele>38.516</ele>
        <time>2011-08-05T10:07:59Z</time>
      </trkpt>
      <trkpt lat="37.07476" lon="-7.98196">
        <ele>50.307</ele>
        <time>2011-08-05T10:08:20Z</time>
      </trkpt>
      <trkpt lat="37.0759" lon="-7.98404">
        <ele>54.24</ele>
        <time>2011-08-05T10:08:32Z</time>
      </trkpt>
      <trkpt lat="37.07676" lon="-7.98546">
        <ele>56.49</ele>
        <time>2011-08-05T10:08:42Z</time>
      </trkpt>
      <trkpt lat="37.07681" lon="-7.98559">
        <ele>56.677</ele>
        <time>2011-08-05T10:08:43Z</time>
      </trkpt>
      <trkpt lat="37.07695" lon="-7.9877">
        <ele>54.114</ele>
        <time>2011-08-05T10:08:58Z</time>
      </trkpt>
      <trkpt lat="37.07729" lon="-7.98912">
        <ele>54.187</ele>
        <time>2011-08-05T10:09:08Z</time>
      </trkpt>
      <trkpt lat="37.07829" lon="-7.99088">
        <ele>59.808</ele>
        <time>2011-08-05T10:09:21Z</time>
      </trkpt>
      <trkpt lat="37.0786" lon="-7.9914">
        <ele>61.66</ele>
        <time>2011-08-05T10:09:25Z</time>
      </trkpt>
      <trkpt lat="37.07929" lon="-7.99367">
        <ele>57.822</ele>
        <time>2011-08-05T10:09:40Z</time>
      </trkpt>
      <trkpt lat="37.07979" lon="-7.99657">
        <ele>46.052</ele>
        <time>2011-08-05T10:09:57Z</time>
      </trkpt>
      <trkpt lat="37.08029" lon="-7.99958">
        <ele>40.855</ele>
        <time>2011-08-05T10:10:15Z</time>
      </trkpt>
      <trkpt lat="37.08098" lon="-8.00276">
        <ele>49.253</ele>
        <time>2011-08-05T10:10:34Z</time>
      </trkpt>
      <trkpt lat="37.08112" lon="-8.00438">
        <ele>45.414</ele>
        <time>2011-08-05T10:10:44Z</time>
      </trkpt>
      <trkpt lat="37.08115" lon="-8.0073">
        <ele>38.149</ele>
        <time>2011-08-05T10:11:00Z</time>
      </trkpt>
      <trkpt lat="37.08137" lon="-8.00868">
        <ele>39.455</ele>
        <time>2011-08-05T10:11:09Z</time>
      </trkpt>
      <trkpt lat="37.08178" lon="-8.01007">
        <ele>42.841</ele>
        <time>2011-08-05T10:11:20Z</time>
      </trkpt>
      <trkpt lat="37.08183" lon="-8.01021">
        <ele>45.497</ele>
        <time>2011-08-05T10:11:27Z</time>
      </trkpt>
      <trkpt lat="37.08182" lon="-8.01019">
        <ele>45.338</ele>
        <time>2011-08-05T10:11:28Z</time>
      </trkpt>
      <trkpt lat="37.08215" lon="-8.00952">
        <ele>49.52</ele>
        <time>2011-08-05T10:11:39Z</time>
      </trkpt>
      <trkpt lat="37.08225" lon="-8.00897">
        <ele>52.599</ele>
        <time>2011-08-05T10:11:50Z</time>
      </trkpt>
      <trkpt lat="37.08226" lon="-8.0089">
        <ele>51.841</ele>
        <time>2011-08-05T10:11:53Z</time>
      </trkpt>
      <trkpt lat="37.08228" lon="-8.00877">
        <ele>49.499</ele>
        <time>2011-08-05T10:11:58Z</time>
      </trkpt>
      <trkpt lat="37.08229" lon="-8.00875">
        <ele>48.939</ele>
        <time>2011-08-05T10:12:11Z</time>
      </trkpt>
    </trkseg>
  </trk>
  <trk>
    <name><![CDATA[ACTIVE LOG124025]]></name>
    <trkseg>
      <trkpt lat="37.082" lon="-8.00869">
        <ele>50.911</ele>
        <time>2011-08-05T10:40:25Z</time>
      </trkpt>
      <trkpt lat="37.08211" lon="-8.00869">
        <ele>48.271</ele>
        <time>2011-08-05T10:40:45Z</time>
      </trkpt>
      <trkpt lat="37.08223" lon="-8.00872">
        <ele>45.253</ele>
        <time>2011-08-05T10:40:57Z</time>
      </trkpt>
      <trkpt lat="37.08224" lon="-8.00877">
        <ele>45.853</ele>
        <time>2011-08-05T10:41:03Z</time>
      </trkpt>
      <trkpt lat="37.08223" lon="-8.00892">
        <ele>42.356</ele>
        <time>2011-08-05T10:41:19Z</time>
      </trkpt>
      <trkpt lat="37.08225" lon="-8.00906">
        <ele>42.781</ele>
        <time>2011-08-05T10:41:31Z</time>
      </trkpt>
      <trkpt lat="37.08225" lon="-8.0091">
        <ele>42.893</ele>
        <time>2011-08-05T10:41:33Z</time>
      </trkpt>
      <trkpt lat="37.08225" lon="-8.00914">
        <ele>42.721</ele>
        <time>2011-08-05T10:41:36Z</time>
      </trkpt>
      <trkpt lat="37.08227" lon="-8.00918">
        <ele>43.778</ele>
        <time>2011-08-05T10:41:39Z</time>
      </trkpt>
      <trkpt lat="37.08226" lon="-8.00921">
        <ele>48.037</ele>
        <time>2011-08-05T10:41:50Z</time>
      </trkpt>
      <trkpt lat="37.08226" lon="-8.00919">
        <ele>46.694</ele>
        <time>2011-08-05T10:42:10Z</time>
      </trkpt>
    </trkseg>
  </trk>
  <trk>
    <name><![CDATA[ACTIVE LOG125108]]></name>
    <trkseg>
      <trkpt lat="37.08226" lon="-8.0087">
        <ele>35.736</ele>
        <time>2011-08-05T10:51:08Z</time>
      </trkpt>
      <trkpt lat="37.08229" lon="-8.00864">
        <ele>43</ele>
        <time>2011-08-05T10:55:48Z</time>
      </trkpt>
      <trkpt lat="37.08229" lon="-8.00876">
        <ele>43.87</ele>
        <time>2011-08-05T10:55:53Z</time>
      </trkpt>
      <trkpt lat="37.08225" lon="-8.00895">
        <ele>44.037</ele>
        <time>2011-08-05T10:55:57Z</time>
      </trkpt>
      <trkpt lat="37.08214" lon="-8.00953">
        <ele>37.321</ele>
        <time>2011-08-05T10:56:12Z</time>
      </trkpt>
      <trkpt lat="37.08197" lon="-8.01017">
        <ele>29.569</ele>
        <time>2011-08-05T10:56:28Z</time>
      </trkpt>
      <trkpt lat="37.08192" lon="-8.01024">
        <ele>32.581</ele>
        <time>2011-08-05T10:56:37Z</time>
      </trkpt>
      <trkpt lat="37.08188" lon="-8.01036">
        <ele>33.329</ele>
        <time>2011-08-05T10:56:38Z</time>
      </trkpt>
      <trkpt lat="37.08217" lon="-8.01105">
        <ele>37.774</ele>
        <time>2011-08-05T10:56:47Z</time>
      </trkpt>
      <trkpt lat="37.08297" lon="-8.01188">
        <ele>40.206</ele>
        <time>2011-08-05T10:56:58Z</time>
      </trkpt>
      <trkpt lat="37.0838" lon="-8.01351">
        <ele>43.5</ele>
        <time>2011-08-05T10:57:08Z</time>
      </trkpt>
      <trkpt lat="37.08512" lon="-8.01412">
        <ele>51.074</ele>
        <time>2011-08-05T10:57:18Z</time>
      </trkpt>
      <trkpt lat="37.08747" lon="-8.01463">
        <ele>67.382</ele>
        <time>2011-08-05T10:57:35Z</time>
      </trkpt>
      <trkpt lat="37.08959" lon="-8.01517">
        <ele>75.238</ele>
        <time>2011-08-05T10:57:51Z</time>
      </trkpt>
      <trkpt lat="37.09076" lon="-8.01612">
        <ele>77.615</ele>
        <time>2011-08-05T10:58:00Z</time>
      </trkpt>
      <trkpt lat="37.09152" lon="-8.0175">
        <ele>77.034</ele>
        <time>2011-08-05T10:58:08Z</time>
      </trkpt>
      <trkpt lat="37.0919" lon="-8.01914">
        <ele>75.092</ele>
        <time>2011-08-05T10:58:16Z</time>
      </trkpt>
      <trkpt lat="37.09188" lon="-8.02133">
        <ele>70.529</ele>
        <time>2011-08-05T10:58:25Z</time>
      </trkpt>
      <trkpt lat="37.09208" lon="-8.0242">
        <ele>67.672</ele>
        <time>2011-08-05T10:58:36Z</time>
      </trkpt>
      <trkpt lat="37.09282" lon="-8.02605">
        <ele>68.878</ele>
        <time>2011-08-05T10:58:44Z</time>
      </trkpt>
      <trkpt lat="37.09349" lon="-8.02834">
        <ele>69.037</ele>
        <time>2011-08-05T10:58:54Z</time>
      </trkpt>
      <trkpt lat="37.09349" lon="-8.03057">
        <ele>68.393</ele>
        <time>2011-08-05T10:59:03Z</time>
      </trkpt>
      <trkpt lat="37.09334" lon="-8.03559">
        <ele>61.151</ele>
        <time>2011-08-05T10:59:23Z</time>
      </trkpt>
      <trkpt lat="37.09366" lon="-8.0372">
        <ele>56.89</ele>
        <time>2011-08-05T10:59:30Z</time>
      </trkpt>
      <trkpt lat="37.09437" lon="-8.03864">
        <ele>53.885</ele>
        <time>2011-08-05T10:59:37Z</time>
      </trkpt>
      <trkpt lat="37.09519" lon="-8.04071">
        <ele>53.226</ele>
        <time>2011-08-05T10:59:47Z</time>
      </trkpt>
      <trkpt lat="37.09559" lon="-8.04332">
        <ele>51.417</ele>
        <time>2011-08-05T10:59:59Z</time>
      </trkpt>
      <trkpt lat="37.09643" lon="-8.04595">
        <ele>45.953</ele>
        <time>2011-08-05T11:00:12Z</time>
      </trkpt>
      <trkpt lat="37.09763" lon="-8.04842">
        <ele>38.01</ele>
        <time>2011-08-05T11:00:26Z</time>
      </trkpt>
      <trkpt lat="37.09841" lon="-8.05026">
        <ele>39.591</ele>
        <time>2011-08-05T11:00:37Z</time>
      </trkpt>
      <trkpt lat="37.09847" lon="-8.05045">
        <ele>40.599</ele>
        <time>2011-08-05T11:00:39Z</time>
      </trkpt>
      <trkpt lat="37.09879" lon="-8.05066">
        <ele>41.023</ele>
        <time>2011-08-05T11:00:44Z</time>
      </trkpt>
      <trkpt lat="37.09875" lon="-8.05123">
        <ele>41.669</ele>
        <time>2011-08-05T11:00:50Z</time>
      </trkpt>
      <trkpt lat="37.09821" lon="-8.05141">
        <ele>43.556</ele>
        <time>2011-08-05T11:00:55Z</time>
      </trkpt>
      <trkpt lat="37.09688" lon="-8.05208">
        <ele>44.915</ele>
        <time>2011-08-05T11:01:06Z</time>
      </trkpt>
      <trkpt lat="37.09516" lon="-8.05393">
        <ele>44.477</ele>
        <time>2011-08-05T11:01:18Z</time>
      </trkpt>
      <trkpt lat="37.0948" lon="-8.05475">
        <ele>45.154</ele>
        <time>2011-08-05T11:01:23Z</time>
      </trkpt>
      <trkpt lat="37.09399" lon="-8.05788">
        <ele>43.568</ele>
        <time>2011-08-05T11:01:38Z</time>
      </trkpt>
      <trkpt lat="37.09362" lon="-8.05983">
        <ele>43.208</ele>
        <time>2011-08-05T11:01:49Z</time>
      </trkpt>
      <trkpt lat="37.09362" lon="-8.06029">
        <ele>42.023</ele>
        <time>2011-08-05T11:01:53Z</time>
      </trkpt>
      <trkpt lat="37.09356" lon="-8.06066">
        <ele>42.166</ele>
        <time>2011-08-05T11:01:56Z</time>
      </trkpt>
      <trkpt lat="37.094" lon="-8.06172">
        <ele>44.008</ele>
        <time>2011-08-05T11:02:04Z</time>
      </trkpt>
      <trkpt lat="37.09497" lon="-8.0639">
        <ele>47.713</ele>
        <time>2011-08-05T11:02:17Z</time>
      </trkpt>
      <trkpt lat="37.09558" lon="-8.0659">
        <ele>51.326</ele>
        <time>2011-08-05T11:02:29Z</time>
      </trkpt>
      <trkpt lat="37.09549" lon="-8.06702">
        <ele>50.118</ele>
        <time>2011-08-05T11:02:35Z</time>
      </trkpt>
      <trkpt lat="37.09483" lon="-8.06848">
        <ele>46.059</ele>
        <time>2011-08-05T11:02:44Z</time>
      </trkpt>
      <trkpt lat="37.09402" lon="-8.07003">
        <ele>39.849</ele>
        <time>2011-08-05T11:02:55Z</time>
      </trkpt>
      <trkpt lat="37.09288" lon="-8.07128">
        <ele>35.534</ele>
        <time>2011-08-05T11:03:08Z</time>
      </trkpt>
      <trkpt lat="37.09186" lon="-8.07239">
        <ele>37.912</ele>
        <time>2011-08-05T11:03:21Z</time>
      </trkpt>
      <trkpt lat="37.09043" lon="-8.07414">
        <ele>40.67</ele>
        <time>2011-08-05T11:03:39Z</time>
      </trkpt>
      <trkpt lat="37.08957" lon="-8.07557">
        <ele>41.385</ele>
        <time>2011-08-05T11:03:52Z</time>
      </trkpt>
      <trkpt lat="37.08939" lon="-8.07589">
        <ele>40.39</ele>
        <time>2011-08-05T11:04:00Z</time>
      </trkpt>
      <trkpt lat="37.08915" lon="-8.07631">
        <ele>38.617</ele>
        <time>2011-08-05T11:04:11Z</time>
      </trkpt>
      <trkpt lat="37.08872" lon="-8.07706">
        <ele>36.847</ele>
        <time>2011-08-05T11:04:22Z</time>
      </trkpt>
      <trkpt lat="37.0883" lon="-8.07779">
        <ele>35.559</ele>
        <time>2011-08-05T11:04:32Z</time>
      </trkpt>
      <trkpt lat="37.08814" lon="-8.07807">
        <ele>33.507</ele>
        <time>2011-08-05T11:04:37Z</time>
      </trkpt>
      <trkpt lat="37.0875" lon="-8.07917">
        <ele>29.96</ele>
        <time>2011-08-05T11:04:50Z</time>
      </trkpt>
      <trkpt lat="37.08672" lon="-8.08044">
        <ele>32.784</ele>
        <time>2011-08-05T11:05:02Z</time>
      </trkpt>
      <trkpt lat="37.08584" lon="-8.08159">
        <ele>29.609</ele>
        <time>2011-08-05T11:05:14Z</time>
      </trkpt>
      <trkpt lat="37.08475" lon="-8.08274">
        <ele>29.479</ele>
        <time>2011-08-05T11:05:28Z</time>
      </trkpt>
      <trkpt lat="37.08456" lon="-8.08293">
        <ele>29.432</ele>
        <time>2011-08-05T11:05:31Z</time>
      </trkpt>
      <trkpt lat="37.08425" lon="-8.08345">
        <ele>27.517</ele>
        <time>2011-08-05T11:05:39Z</time>
      </trkpt>
      <trkpt lat="37.08392" lon="-8.0836">
        <ele>25.046</ele>
        <time>2011-08-05T11:05:44Z</time>
      </trkpt>
      <trkpt lat="37.08287" lon="-8.0846">
        <ele>23.28</ele>
        <time>2011-08-05T11:05:55Z</time>
      </trkpt>
      <trkpt lat="37.08201" lon="-8.08551">
        <ele>24.606</ele>
        <time>2011-08-05T11:06:03Z</time>
      </trkpt>
      <trkpt lat="37.08089" lon="-8.08743">
        <ele>30.363</ele>
        <time>2011-08-05T11:06:16Z</time>
      </trkpt>
      <trkpt lat="37.07993" lon="-8.08916">
        <ele>32.299</ele>
        <time>2011-08-05T11:06:28Z</time>
      </trkpt>
      <trkpt lat="37.07874" lon="-8.09138">
        <ele>28.314</ele>
        <time>2011-08-05T11:06:44Z</time>
      </trkpt>
      <trkpt lat="37.07851" lon="-8.09182">
        <ele>25.328</ele>
        <time>2011-08-05T11:06:50Z</time>
      </trkpt>
      <trkpt lat="37.07851" lon="-8.09182">
        <ele>23.877</ele>
        <time>2011-08-05T11:07:02Z</time>
      </trkpt>
      <trkpt lat="37.07834" lon="-8.09214">
        <ele>24.895</ele>
        <time>2011-08-05T11:07:12Z</time>
      </trkpt>
      <trkpt lat="37.0779" lon="-8.09296">
        <ele>25.993</ele>
        <time>2011-08-05T11:07:22Z</time>
      </trkpt>
      <trkpt lat="37.07714" lon="-8.09436">
        <ele>25.751</ele>
        <time>2011-08-05T11:07:36Z</time>
      </trkpt>
      <trkpt lat="37.07662" lon="-8.09544">
        <ele>27.015</ele>
        <time>2011-08-05T11:07:47Z</time>
      </trkpt>
      <trkpt lat="37.07668" lon="-8.09583">
        <ele>25.97</ele>
        <time>2011-08-05T11:07:53Z</time>
      </trkpt>
      <trkpt lat="37.07643" lon="-8.09619">
        <ele>26.403</ele>
        <time>2011-08-05T11:08:00Z</time>
      </trkpt>
      <trkpt lat="37.07627" lon="-8.09603">
        <ele>25.955</ele>
        <time>2011-08-05T11:08:03Z</time>
      </trkpt>
      <trkpt lat="37.07619" lon="-8.09587">
        <ele>26.405</ele>
        <time>2011-08-05T11:08:05Z</time>
      </trkpt>
      <trkpt lat="37.07537" lon="-8.09544">
        <ele>26.689</ele>
        <time>2011-08-05T11:08:14Z</time>
      </trkpt>
      <trkpt lat="37.07415" lon="-8.09486">
        <ele>28.477</ele>
        <time>2011-08-05T11:08:24Z</time>
      </trkpt>
      <trkpt lat="37.07347" lon="-8.09517">
        <ele>30.427</ele>
        <time>2011-08-05T11:08:30Z</time>
      </trkpt>
      <trkpt lat="37.07339" lon="-8.09528">
        <ele>30.723</ele>
        <time>2011-08-05T11:08:31Z</time>
      </trkpt>
      <trkpt lat="37.07213" lon="-8.09695">
        <ele>28.222</ele>
        <time>2011-08-05T11:08:47Z</time>
      </trkpt>
      <trkpt lat="37.07155" lon="-8.09772">
        <ele>24.186</ele>
        <time>2011-08-05T11:08:57Z</time>
      </trkpt>
      <trkpt lat="37.07155" lon="-8.09772">
        <ele>25.236</ele>
        <time>2011-08-05T11:09:19Z</time>
      </trkpt>
      <trkpt lat="37.07139" lon="-8.09792">
        <ele>23.888</ele>
        <time>2011-08-05T11:09:39Z</time>
      </trkpt>
      <trkpt lat="37.07077" lon="-8.09859">
        <ele>24.088</ele>
        <time>2011-08-05T11:09:47Z</time>
      </trkpt>
      <trkpt lat="37.06992" lon="-8.09908">
        <ele>30.499</ele>
        <time>2011-08-05T11:09:56Z</time>
      </trkpt>
      <trkpt lat="37.06956" lon="-8.09918">
        <ele>31.086</ele>
        <time>2011-08-05T11:10:00Z</time>
      </trkpt>
      <trkpt lat="37.06839" lon="-8.09941">
        <ele>27.118</ele>
        <time>2011-08-05T11:10:12Z</time>
      </trkpt>
      <trkpt lat="37.06794" lon="-8.09953">
        <ele>24.891</ele>
        <time>2011-08-05T11:10:17Z</time>
      </trkpt>
      <trkpt lat="37.0677" lon="-8.0996">
        <ele>23.987</ele>
        <time>2011-08-05T11:10:20Z</time>
      </trkpt>
      <trkpt lat="37.06757" lon="-8.09964">
        <ele>19.692</ele>
        <time>2011-08-05T11:10:23Z</time>
      </trkpt>
      <trkpt lat="37.0675" lon="-8.09989">
        <ele>17.374</ele>
        <time>2011-08-05T11:10:29Z</time>
      </trkpt>
      <trkpt lat="37.06787" lon="-8.10088">
        <ele>16.359</ele>
        <time>2011-08-05T11:10:42Z</time>
      </trkpt>
    </trkseg>
  </trk>
  <trk>
    <name><![CDATA[ACTIVE LOG131146]]></name>
    <trkseg>
      <trkpt lat="37.06857" lon="-8.10253">
        <ele>5.273</ele>
        <time>2011-08-05T11:11:46Z</time>
      </trkpt>
      <trkpt lat="37.06863" lon="-8.10258">
        <ele>4.09</ele>
        <time>2011-08-05T11:11:48Z</time>
      </trkpt>
      <trkpt lat="37.06873" lon="-8.10265">
        <ele>14.772</ele>
        <time>2011-08-05T11:12:00Z</time>
      </trkpt>
      <trkpt lat="37.06882" lon="-8.10289">
        <ele>13.563</ele>
        <time>2011-08-05T11:12:11Z</time>
      </trkpt>
      <trkpt lat="37.06891" lon="-8.10306">
        <ele>14.422</ele>
        <time>2011-08-05T11:12:15Z</time>
      </trkpt>
      <trkpt lat="37.0693" lon="-8.10347">
        <ele>17.939</ele>
        <time>2011-08-05T11:12:25Z</time>
      </trkpt>
      <trkpt lat="37.06938" lon="-8.10356">
        <ele>19.859</ele>
        <time>2011-08-05T11:12:34Z</time>
      </trkpt>
      <trkpt lat="37.06951" lon="-8.10369">
        <ele>16.878</ele>
        <time>2011-08-05T11:12:38Z</time>
      </trkpt>
      <trkpt lat="37.06999" lon="-8.10419">
        <ele>14.214</ele>
        <time>2011-08-05T11:12:49Z</time>
      </trkpt>
      <trkpt lat="37.07032" lon="-8.10444">
        <ele>15.422</ele>
        <time>2011-08-05T11:12:56Z</time>
      </trkpt>
      <trkpt lat="37.07045" lon="-8.10452">
        <ele>16.554</ele>
        <time>2011-08-05T11:13:00Z</time>
      </trkpt>
      <trkpt lat="37.07092" lon="-8.10514">
        <ele>12.64</ele>
        <time>2011-08-05T11:13:10Z</time>
      </trkpt>
      <trkpt lat="37.07126" lon="-8.10581">
        <ele>11.102</ele>
        <time>2011-08-05T11:13:19Z</time>
      </trkpt>
      <trkpt lat="37.07138" lon="-8.10625">
        <ele>11.629</ele>
        <time>2011-08-05T11:13:29Z</time>
      </trkpt>
      <trkpt lat="37.07147" lon="-8.10655">
        <ele>8.897</ele>
        <time>2011-08-05T11:13:48Z</time>
      </trkpt>
      <trkpt lat="37.07151" lon="-8.10668">
        <ele>8.6</ele>
        <time>2011-08-05T11:13:50Z</time>
      </trkpt>
      <trkpt lat="37.07164" lon="-8.10705">
        <ele>10.068</ele>
        <time>2011-08-05T11:13:54Z</time>
      </trkpt>
      <trkpt lat="37.07172" lon="-8.10726">
        <ele>7.723</ele>
        <time>2011-08-05T11:14:00Z</time>
      </trkpt>
      <trkpt lat="37.07173" lon="-8.10731">
        <ele>6.889</ele>
        <time>2011-08-05T11:14:02Z</time>
      </trkpt>
      <trkpt lat="37.07204" lon="-8.10751">
        <ele>5.675</ele>
        <time>2011-08-05T11:14:06Z</time>
      </trkpt>
      <trkpt lat="37.07284" lon="-8.10768">
        <ele>7.078</ele>
        <time>2011-08-05T11:14:16Z</time>
      </trkpt>
      <trkpt lat="37.0733" lon="-8.10778">
        <ele>9.66</ele>
        <time>2011-08-05T11:14:22Z</time>
      </trkpt>
      <trkpt lat="37.07356" lon="-8.10784">
        <ele>7.486</ele>
        <time>2011-08-05T11:14:25Z</time>
      </trkpt>
      <trkpt lat="37.07387" lon="-8.10791">
        <ele>6.34</ele>
        <time>2011-08-05T11:14:29Z</time>
      </trkpt>
      <trkpt lat="37.07492" lon="-8.10813">
        <ele>8.626</ele>
        <time>2011-08-05T11:14:39Z</time>
      </trkpt>
      <trkpt lat="37.0754" lon="-8.10805">
        <ele>10.314</ele>
        <time>2011-08-05T11:14:44Z</time>
      </trkpt>
      <trkpt lat="37.07555" lon="-8.10794">
        <ele>12.177</ele>
        <time>2011-08-05T11:14:51Z</time>
      </trkpt>
      <trkpt lat="37.07576" lon="-8.10771">
        <ele>13.33</ele>
        <time>2011-08-05T11:15:19Z</time>
      </trkpt>
      <trkpt lat="37.0758" lon="-8.10766">
        <ele>13.622</ele>
        <time>2011-08-05T11:15:20Z</time>
      </trkpt>
      <trkpt lat="37.076" lon="-8.10781">
        <ele>12.592</ele>
        <time>2011-08-05T11:15:24Z</time>
      </trkpt>
      <trkpt lat="37.07706" lon="-8.10849">
        <ele>10.593</ele>
        <time>2011-08-05T11:15:34Z</time>
      </trkpt>
      <trkpt lat="37.07792" lon="-8.10902">
        <ele>14.11</ele>
        <time>2011-08-05T11:15:44Z</time>
      </trkpt>
      <trkpt lat="37.07862" lon="-8.10939">
        <ele>13.979</ele>
        <time>2011-08-05T11:15:51Z</time>
      </trkpt>
      <trkpt lat="37.07907" lon="-8.11012">
        <ele>9.46</ele>
        <time>2011-08-05T11:15:58Z</time>
      </trkpt>
      <trkpt lat="37.07915" lon="-8.11033">
        <ele>8.588</ele>
        <time>2011-08-05T11:16:00Z</time>
      </trkpt>
      <trkpt lat="37.0792" lon="-8.11044">
        <ele>7.937</ele>
        <time>2011-08-05T11:16:04Z</time>
      </trkpt>
      <trkpt lat="37.07914" lon="-8.111">
        <ele>9.173</ele>
        <time>2011-08-05T11:16:10Z</time>
      </trkpt>
      <trkpt lat="37.079" lon="-8.111">
        <ele>9.377</ele>
        <time>2011-08-05T11:16:12Z</time>
      </trkpt>
      <trkpt lat="37.0787" lon="-8.11116">
        <ele>9.547</ele>
        <time>2011-08-05T11:16:16Z</time>
      </trkpt>
      <trkpt lat="37.07846" lon="-8.11184">
        <ele>8.831</ele>
        <time>2011-08-05T11:16:23Z</time>
      </trkpt>
      <trkpt lat="37.07839" lon="-8.11303">
        <ele>4.678</ele>
        <time>2011-08-05T11:16:33Z</time>
      </trkpt>
      <trkpt lat="37.0785" lon="-8.1136">
        <ele>3.626</ele>
        <time>2011-08-05T11:16:38Z</time>
      </trkpt>
      <trkpt lat="37.07867" lon="-8.11402">
        <ele>3.414</ele>
        <time>2011-08-05T11:16:42Z</time>
      </trkpt>
      <trkpt lat="37.07859" lon="-8.11468">
        <ele>3.572</ele>
        <time>2011-08-05T11:16:49Z</time>
      </trkpt>
      <trkpt lat="37.07852" lon="-8.11486">
        <ele>4.072</ele>
        <time>2011-08-05T11:16:53Z</time>
      </trkpt>
      <trkpt lat="37.07829" lon="-8.11542">
        <ele>8.95</ele>
        <time>2011-08-05T11:17:07Z</time>
      </trkpt>
      <trkpt lat="37.07827" lon="-8.11548">
        <ele>9.165</ele>
        <time>2011-08-05T11:17:21Z</time>
      </trkpt>
      <trkpt lat="37.07814" lon="-8.11544">
        <ele>9.089</ele>
        <time>2011-08-05T11:17:26Z</time>
      </trkpt>
      <trkpt lat="37.07795" lon="-8.11561">
        <ele>9.684</ele>
        <time>2011-08-05T11:17:32Z</time>
      </trkpt>
      <trkpt lat="37.07771" lon="-8.11618">
        <ele>9.969</ele>
        <time>2011-08-05T11:17:45Z</time>
      </trkpt>
      <trkpt lat="37.07743" lon="-8.11671">
        <ele>10.12</ele>
        <time>2011-08-05T11:17:57Z</time>
      </trkpt>
      <trkpt lat="37.0774" lon="-8.11675">
        <ele>10.852</ele>
        <time>2011-08-05T11:17:58Z</time>
      </trkpt>
      <trkpt lat="37.07686" lon="-8.11735">
        <ele>11.669</ele>
        <time>2011-08-05T11:18:09Z</time>
      </trkpt>
      <trkpt lat="37.07662" lon="-8.11762">
        <ele>12.405</ele>
        <time>2011-08-05T11:18:14Z</time>
      </trkpt>
      <trkpt lat="37.07614" lon="-8.11825">
        <ele>13.865</ele>
        <time>2011-08-05T11:18:24Z</time>
      </trkpt>
      <trkpt lat="37.07594" lon="-8.11838">
        <ele>13.568</ele>
        <time>2011-08-05T11:18:27Z</time>
      </trkpt>
      <trkpt lat="37.0757" lon="-8.11846">
        <ele>12.247</ele>
        <time>2011-08-05T11:18:31Z</time>
      </trkpt>
      <trkpt lat="37.07485" lon="-8.11863">
        <ele>10.479</ele>
        <time>2011-08-05T11:18:44Z</time>
      </trkpt>
      <trkpt lat="37.07437" lon="-8.11832">
        <ele>8.056</ele>
        <time>2011-08-05T11:18:53Z</time>
      </trkpt>
      <trkpt lat="37.07434" lon="-8.11819">
        <ele>7.908</ele>
        <time>2011-08-05T11:18:55Z</time>
      </trkpt>
      <trkpt lat="37.07432" lon="-8.11804">
        <ele>8.333</ele>
        <time>2011-08-05T11:18:58Z</time>
      </trkpt>
      <trkpt lat="37.07414" lon="-8.11799">
        <ele>7.378</ele>
        <time>2011-08-05T11:19:03Z</time>
      </trkpt>
      <trkpt lat="37.07366" lon="-8.1182">
        <ele>6.755</ele>
        <time>2011-08-05T11:19:16Z</time>
      </trkpt>
      <trkpt lat="37.07321" lon="-8.11839">
        <ele>5.976</ele>
        <time>2011-08-05T11:19:26Z</time>
      </trkpt>
      <trkpt lat="37.07294" lon="-8.11851">
        <ele>8.052</ele>
        <time>2011-08-05T11:19:34Z</time>
      </trkpt>
      <trkpt lat="37.07283" lon="-8.11862">
        <ele>7.016</ele>
        <time>2011-08-05T11:19:40Z</time>
      </trkpt>
      <trkpt lat="37.07282" lon="-8.1186">
        <ele>6.858</ele>
        <time>2011-08-05T11:19:42Z</time>
      </trkpt>
      <trkpt lat="37.07288" lon="-8.11852">
        <ele>7.352</ele>
        <time>2011-08-05T11:19:48Z</time>
      </trkpt>
      <trkpt lat="37.07294" lon="-8.11851">
        <ele>7.908</ele>
        <time>2011-08-05T11:19:50Z</time>
      </trkpt>
      <trkpt lat="37.07364" lon="-8.11821">
        <ele>1.471</ele>
        <time>2011-08-05T11:20:01Z</time>
      </trkpt>
      <trkpt lat="37.07409" lon="-8.11801">
        <ele>-1.428</ele>
        <time>2011-08-05T11:20:12Z</time>
      </trkpt>
      <trkpt lat="37.07417" lon="-8.11797">
        <ele>-1.732</ele>
        <time>2011-08-05T11:20:28Z</time>
      </trkpt>
      <trkpt lat="37.07424" lon="-8.11794">
        <ele>1.569</ele>
        <time>2011-08-05T11:20:39Z</time>
      </trkpt>
      <trkpt lat="37.07431" lon="-8.11791">
        <ele>1.531</ele>
        <time>2011-08-05T11:20:46Z</time>
      </trkpt>
      <trkpt lat="37.07434" lon="-8.11715">
        <ele>1.608</ele>
        <time>2011-08-05T11:20:56Z</time>
      </trkpt>
      <trkpt lat="37.07447" lon="-8.11636">
        <ele>2.177</ele>
        <time>2011-08-05T11:21:05Z</time>
      </trkpt>
      <trkpt lat="37.07495" lon="-8.11542">
        <ele>5.66</ele>
        <time>2011-08-05T11:21:18Z</time>
      </trkpt>
      <trkpt lat="37.0754" lon="-8.11502">
        <ele>4.182</ele>
        <time>2011-08-05T11:21:29Z</time>
      </trkpt>
      <trkpt lat="37.07571" lon="-8.1148">
        <ele>2.432</ele>
        <time>2011-08-05T11:21:36Z</time>
      </trkpt>
      <trkpt lat="37.07622" lon="-8.11469">
        <ele>2.552</ele>
        <time>2011-08-05T11:21:47Z</time>
      </trkpt>
      <trkpt lat="37.07643" lon="-8.11469">
        <ele>3.632</ele>
        <time>2011-08-05T11:21:57Z</time>
      </trkpt>
      <trkpt lat="37.07657" lon="-8.11472">
        <ele>10.101</ele>
        <time>2011-08-05T11:22:07Z</time>
      </trkpt>
      <trkpt lat="37.07709" lon="-8.11488">
        <ele>2.795</ele>
        <time>2011-08-05T11:22:16Z</time>
      </trkpt>
      <trkpt lat="37.07804" lon="-8.11538">
        <ele>3.614</ele>
        <time>2011-08-05T11:22:30Z</time>
      </trkpt>
      <trkpt lat="37.07804" lon="-8.11538">
        <ele>4</ele>
        <time>2011-08-05T11:22:31Z</time>
      </trkpt>
      <trkpt lat="37.07836" lon="-8.11526">
        <ele>4.84</ele>
        <time>2011-08-05T11:22:36Z</time>
      </trkpt>
      <trkpt lat="37.07867" lon="-8.1144">
        <ele>5.624</ele>
        <time>2011-08-05T11:22:45Z</time>
      </trkpt>
      <trkpt lat="37.07853" lon="-8.11366">
        <ele>6.125</ele>
        <time>2011-08-05T11:22:52Z</time>
      </trkpt>
      <trkpt lat="37.07845" lon="-8.11346">
        <ele>6.041</ele>
        <time>2011-08-05T11:22:54Z</time>
      </trkpt>
      <trkpt lat="37.07839" lon="-8.11301">
        <ele>5.943</ele>
        <time>2011-08-05T11:22:58Z</time>
      </trkpt>
      <trkpt lat="37.07849" lon="-8.11165">
        <ele>6.757</ele>
        <time>2011-08-05T11:23:09Z</time>
      </trkpt>
      <trkpt lat="37.07883" lon="-8.11103">
        <ele>8.24</ele>
        <time>2011-08-05T11:23:16Z</time>
      </trkpt>
      <trkpt lat="37.079" lon="-8.11086">
        <ele>7.737</ele>
        <time>2011-08-05T11:23:19Z</time>
      </trkpt>
      <trkpt lat="37.07912" lon="-8.11026">
        <ele>7.854</ele>
        <time>2011-08-05T11:23:26Z</time>
      </trkpt>
      <trkpt lat="37.07895" lon="-8.10982">
        <ele>8.611</ele>
        <time>2011-08-05T11:23:30Z</time>
      </trkpt>
      <trkpt lat="37.07841" lon="-8.10925">
        <ele>6.817</ele>
        <time>2011-08-05T11:23:37Z</time>
      </trkpt>
      <trkpt lat="37.07707" lon="-8.1085">
        <ele>4.406</ele>
        <time>2011-08-05T11:23:51Z</time>
      </trkpt>
      <trkpt lat="37.07694" lon="-8.10841">
        <ele>3.899</ele>
        <time>2011-08-05T11:23:58Z</time>
      </trkpt>
      <trkpt lat="37.07661" lon="-8.10819">
        <ele>5.973</ele>
        <time>2011-08-05T11:24:06Z</time>
      </trkpt>
      <trkpt lat="37.07631" lon="-8.10799">
        <ele>9.722</ele>
        <time>2011-08-05T11:24:17Z</time>
      </trkpt>
      <trkpt lat="37.07605" lon="-8.10784">
        <ele>10.456</ele>
        <time>2011-08-05T11:24:44Z</time>
      </trkpt>
      <trkpt lat="37.0759" lon="-8.10774">
        <ele>9.986</ele>
        <time>2011-08-05T11:24:46Z</time>
      </trkpt>
      <trkpt lat="37.07562" lon="-8.10686">
        <ele>9.633</ele>
        <time>2011-08-05T11:24:54Z</time>
      </trkpt>
      <trkpt lat="37.07576" lon="-8.10615">
        <ele>9.641</ele>
        <time>2011-08-05T11:25:00Z</time>
      </trkpt>
      <trkpt lat="37.07616" lon="-8.10572">
        <ele>9.287</ele>
        <time>2011-08-05T11:25:05Z</time>
      </trkpt>
      <trkpt lat="37.07768" lon="-8.10515">
        <ele>9.364</ele>
        <time>2011-08-05T11:25:18Z</time>
      </trkpt>
      <trkpt lat="37.07788" lon="-8.10502">
        <ele>9.597</ele>
        <time>2011-08-05T11:25:20Z</time>
      </trkpt>
      <trkpt lat="37.07826" lon="-8.10421">
        <ele>11.073</ele>
        <time>2011-08-05T11:25:27Z</time>
      </trkpt>
      <trkpt lat="37.07826" lon="-8.10395">
        <ele>11.951</ele>
        <time>2011-08-05T11:25:29Z</time>
      </trkpt>
      <trkpt lat="37.07814" lon="-8.10326">
        <ele>16.545</ele>
        <time>2011-08-05T11:25:34Z</time>
      </trkpt>
      <trkpt lat="37.07799" lon="-8.10262">
        <ele>17.256</ele>
        <time>2011-08-05T11:25:39Z</time>
      </trkpt>
      <trkpt lat="37.07806" lon="-8.10097">
        <ele>20.268</ele>
        <time>2011-08-05T11:25:50Z</time>
      </trkpt>
      <trkpt lat="37.07809" lon="-8.10036">
        <ele>20.31</ele>
        <time>2011-08-05T11:25:54Z</time>
      </trkpt>
      <trkpt lat="37.07798" lon="-8.09977">
        <ele>21.035</ele>
        <time>2011-08-05T11:25:58Z</time>
      </trkpt>
      <trkpt lat="37.07747" lon="-8.09877">
        <ele>21.739</ele>
        <time>2011-08-05T11:26:06Z</time>
      </trkpt>
      <trkpt lat="37.07744" lon="-8.09822">
        <ele>22.205</ele>
        <time>2011-08-05T11:26:10Z</time>
      </trkpt>
      <trkpt lat="37.07744" lon="-8.09785">
        <ele>21.671</ele>
        <time>2011-08-05T11:26:13Z</time>
      </trkpt>
      <trkpt lat="37.07738" lon="-8.09761">
        <ele>21.212</ele>
        <time>2011-08-05T11:26:16Z</time>
      </trkpt>
      <trkpt lat="37.07757" lon="-8.09744">
        <ele>16.693</ele>
        <time>2011-08-05T11:26:22Z</time>
      </trkpt>
      <trkpt lat="37.07759" lon="-8.09749">
        <ele>17.153</ele>
        <time>2011-08-05T11:26:23Z</time>
      </trkpt>
      <trkpt lat="37.07857" lon="-8.09804">
        <ele>23.518</ele>
        <time>2011-08-05T11:26:33Z</time>
      </trkpt>
      <trkpt lat="37.08009" lon="-8.09882">
        <ele>34.083</ele>
        <time>2011-08-05T11:26:46Z</time>
      </trkpt>
      <trkpt lat="37.08202" lon="-8.09972">
        <ele>40.212</ele>
        <time>2011-08-05T11:27:01Z</time>
      </trkpt>
      <trkpt lat="37.08373" lon="-8.10042">
        <ele>41.296</ele>
        <time>2011-08-05T11:27:14Z</time>
      </trkpt>
      <trkpt lat="37.08473" lon="-8.10073">
        <ele>44.406</ele>
        <time>2011-08-05T11:27:22Z</time>
      </trkpt>
      <trkpt lat="37.08694" lon="-8.10114">
        <ele>49.165</ele>
        <time>2011-08-05T11:27:39Z</time>
      </trkpt>
      <trkpt lat="37.08895" lon="-8.10155">
        <ele>53.814</ele>
        <time>2011-08-05T11:27:54Z</time>
      </trkpt>
      <trkpt lat="37.08965" lon="-8.10168">
        <ele>54.049</ele>
        <time>2011-08-05T11:28:00Z</time>
      </trkpt>
      <trkpt lat="37.09116" lon="-8.10242">
        <ele>47.63</ele>
        <time>2011-08-05T11:28:12Z</time>
      </trkpt>
      <trkpt lat="37.09208" lon="-8.10282">
        <ele>48.249</ele>
        <time>2011-08-05T11:28:19Z</time>
      </trkpt>
      <trkpt lat="37.09281" lon="-8.10264">
        <ele>53.844</ele>
        <time>2011-08-05T11:28:26Z</time>
      </trkpt>
      <trkpt lat="37.09332" lon="-8.1022">
        <ele>57.765</ele>
        <time>2011-08-05T11:28:31Z</time>
      </trkpt>
      <trkpt lat="37.09386" lon="-8.10107">
        <ele>62.265</ele>
        <time>2011-08-05T11:28:39Z</time>
      </trkpt>
      <trkpt lat="37.09393" lon="-8.1003">
        <ele>64.496</ele>
        <time>2011-08-05T11:28:44Z</time>
      </trkpt>
      <trkpt lat="37.09381" lon="-8.09823">
        <ele>60.167</ele>
        <time>2011-08-05T11:28:59Z</time>
      </trkpt>
      <trkpt lat="37.09384" lon="-8.09817">
        <ele>60.037</ele>
        <time>2011-08-05T11:29:00Z</time>
      </trkpt>
      <trkpt lat="37.0939" lon="-8.09766">
        <ele>60.39</ele>
        <time>2011-08-05T11:29:08Z</time>
      </trkpt>
      <trkpt lat="37.09392" lon="-8.09772">
        <ele>60.591</ele>
        <time>2011-08-05T11:29:09Z</time>
      </trkpt>
      <trkpt lat="37.09401" lon="-8.09792">
        <ele>58.848</ele>
        <time>2011-08-05T11:29:12Z</time>
      </trkpt>
      <trkpt lat="37.09426" lon="-8.09795">
        <ele>56.361</ele>
        <time>2011-08-05T11:29:16Z</time>
      </trkpt>
      <trkpt lat="37.09535" lon="-8.09771">
        <ele>57.048</ele>
        <time>2011-08-05T11:29:26Z</time>
      </trkpt>
      <trkpt lat="37.09716" lon="-8.0975">
        <ele>50.189</ele>
        <time>2011-08-05T11:29:40Z</time>
      </trkpt>
      <trkpt lat="37.09773" lon="-8.09723">
        <ele>48.386</ele>
        <time>2011-08-05T11:29:45Z</time>
      </trkpt>
      <trkpt lat="37.09895" lon="-8.09655">
        <ele>45.68</ele>
        <time>2011-08-05T11:29:55Z</time>
      </trkpt>
      <trkpt lat="37.0996" lon="-8.0967">
        <ele>43.606</ele>
        <time>2011-08-05T11:30:00Z</time>
      </trkpt>
      <trkpt lat="37.09998" lon="-8.09697">
        <ele>40.62</ele>
        <time>2011-08-05T11:30:03Z</time>
      </trkpt>
      <trkpt lat="37.10047" lon="-8.097">
        <ele>41.19</ele>
        <time>2011-08-05T11:30:07Z</time>
      </trkpt>
      <trkpt lat="37.101" lon="-8.09692">
        <ele>41.464</ele>
        <time>2011-08-05T11:30:11Z</time>
      </trkpt>
      <trkpt lat="37.10152" lon="-8.09703">
        <ele>39.765</ele>
        <time>2011-08-05T11:30:15Z</time>
      </trkpt>
      <trkpt lat="37.10218" lon="-8.09727">
        <ele>39.099</ele>
        <time>2011-08-05T11:30:20Z</time>
      </trkpt>
      <trkpt lat="37.10267" lon="-8.09717">
        <ele>41.991</ele>
        <time>2011-08-05T11:30:24Z</time>
      </trkpt>
      <trkpt lat="37.10291" lon="-8.09704">
        <ele>42.522</ele>
        <time>2011-08-05T11:30:26Z</time>
      </trkpt>
      <trkpt lat="37.10339" lon="-8.09707">
        <ele>43.145</ele>
        <time>2011-08-05T11:30:30Z</time>
      </trkpt>
      <trkpt lat="37.10361" lon="-8.09712">
        <ele>43.472</ele>
        <time>2011-08-05T11:30:32Z</time>
      </trkpt>
      <trkpt lat="37.10451" lon="-8.09682">
        <ele>47.646</ele>
        <time>2011-08-05T11:30:40Z</time>
      </trkpt>
      <trkpt lat="37.10492" lon="-8.09652">
        <ele>49.042</ele>
        <time>2011-08-05T11:30:44Z</time>
      </trkpt>
      <trkpt lat="37.10537" lon="-8.0964">
        <ele>49.386</ele>
        <time>2011-08-05T11:30:48Z</time>
      </trkpt>
      <trkpt lat="37.10715" lon="-8.09646">
        <ele>43.466</ele>
        <time>2011-08-05T11:31:01Z</time>
      </trkpt>
      <trkpt lat="37.10895" lon="-8.09663">
        <ele>39.857</ele>
        <time>2011-08-05T11:31:14Z</time>
      </trkpt>
      <trkpt lat="37.1098" lon="-8.09671">
        <ele>40.614</ele>
        <time>2011-08-05T11:31:22Z</time>
      </trkpt>
      <trkpt lat="37.11001" lon="-8.09671">
        <ele>40.851</ele>
        <time>2011-08-05T11:31:29Z</time>
      </trkpt>
      <trkpt lat="37.11007" lon="-8.0967">
        <ele>39.882</ele>
        <time>2011-08-05T11:31:41Z</time>
      </trkpt>
      <trkpt lat="37.11009" lon="-8.09668">
        <ele>39.96</ele>
        <time>2011-08-05T11:31:43Z</time>
      </trkpt>
      <trkpt lat="37.11033" lon="-8.09724">
        <ele>38.817</ele>
        <time>2011-08-05T11:31:50Z</time>
      </trkpt>
      <trkpt lat="37.11069" lon="-8.09895">
        <ele>36.884</ele>
        <time>2011-08-05T11:32:01Z</time>
      </trkpt>
      <trkpt lat="37.11133" lon="-8.10201">
        <ele>33.388</ele>
        <time>2011-08-05T11:32:18Z</time>
      </trkpt>
      <trkpt lat="37.1123" lon="-8.10621">
        <ele>25.718</ele>
        <time>2011-08-05T11:32:41Z</time>
      </trkpt>
      <trkpt lat="37.11289" lon="-8.10885">
        <ele>23.112</ele>
        <time>2011-08-05T11:32:54Z</time>
      </trkpt>
      <trkpt lat="37.11373" lon="-8.11165">
        <ele>22.676</ele>
        <time>2011-08-05T11:33:08Z</time>
      </trkpt>
      <trkpt lat="37.11471" lon="-8.11489">
        <ele>22.335</ele>
        <time>2011-08-05T11:33:26Z</time>
      </trkpt>
      <trkpt lat="37.11522" lon="-8.11656">
        <ele>22.599</ele>
        <time>2011-08-05T11:33:37Z</time>
      </trkpt>
      <trkpt lat="37.11553" lon="-8.11755">
        <ele>23.262</ele>
        <time>2011-08-05T11:33:48Z</time>
      </trkpt>
      <trkpt lat="37.11556" lon="-8.11765">
        <ele>23.479</ele>
        <time>2011-08-05T11:33:56Z</time>
      </trkpt>
      <trkpt lat="37.11568" lon="-8.11798">
        <ele>24.324</ele>
        <time>2011-08-05T11:34:24Z</time>
      </trkpt>
      <trkpt lat="37.11606" lon="-8.11917">
        <ele>25.501</ele>
        <time>2011-08-05T11:34:34Z</time>
      </trkpt>
      <trkpt lat="37.11661" lon="-8.12152">
        <ele>27.283</ele>
        <time>2011-08-05T11:34:51Z</time>
      </trkpt>
      <trkpt lat="37.11703" lon="-8.12485">
        <ele>26.784</ele>
        <time>2011-08-05T11:35:12Z</time>
      </trkpt>
      <trkpt lat="37.11734" lon="-8.12728">
        <ele>26.952</ele>
        <time>2011-08-05T11:35:27Z</time>
      </trkpt>
      <trkpt lat="37.11783" lon="-8.13152">
        <ele>32.393</ele>
        <time>2011-08-05T11:35:52Z</time>
      </trkpt>
      <trkpt lat="37.11823" lon="-8.13464">
        <ele>33.16</ele>
        <time>2011-08-05T11:36:09Z</time>
      </trkpt>
      <trkpt lat="37.11862" lon="-8.138">
        <ele>33.022</ele>
        <time>2011-08-05T11:36:27Z</time>
      </trkpt>
      <trkpt lat="37.11867" lon="-8.13842">
        <ele>33.242</ele>
        <time>2011-08-05T11:36:33Z</time>
      </trkpt>
      <trkpt lat="37.11868" lon="-8.13853">
        <ele>33.044</ele>
        <time>2011-08-05T11:36:42Z</time>
      </trkpt>
      <trkpt lat="37.1184" lon="-8.13862">
        <ele>34.165</ele>
        <time>2011-08-05T11:36:47Z</time>
      </trkpt>
      <trkpt lat="37.11808" lon="-8.13916">
        <ele>34.671</ele>
        <time>2011-08-05T11:36:54Z</time>
      </trkpt>
      <trkpt lat="37.11808" lon="-8.14061">
        <ele>36.994</ele>
        <time>2011-08-05T11:37:06Z</time>
      </trkpt>
      <trkpt lat="37.11817" lon="-8.14273">
        <ele>38.407</ele>
        <time>2011-08-05T11:37:20Z</time>
      </trkpt>
      <trkpt lat="37.11847" lon="-8.1451">
        <ele>35.183</ele>
        <time>2011-08-05T11:37:35Z</time>
      </trkpt>
      <trkpt lat="37.11847" lon="-8.14522">
        <ele>35.425</ele>
        <time>2011-08-05T11:37:36Z</time>
      </trkpt>
      <trkpt lat="37.11812" lon="-8.1457">
        <ele>35.518</ele>
        <time>2011-08-05T11:37:42Z</time>
      </trkpt>
      <trkpt lat="37.11747" lon="-8.14602">
        <ele>33.584</ele>
        <time>2011-08-05T11:37:48Z</time>
      </trkpt>
      <trkpt lat="37.11657" lon="-8.14701">
        <ele>31.809</ele>
        <time>2011-08-05T11:37:57Z</time>
      </trkpt>
      <trkpt lat="37.11628" lon="-8.14737">
        <ele>31.524</ele>
        <time>2011-08-05T11:38:00Z</time>
      </trkpt>
      <trkpt lat="37.11611" lon="-8.14798">
        <ele>29.042</ele>
        <time>2011-08-05T11:38:04Z</time>
      </trkpt>
      <trkpt lat="37.11604" lon="-8.14879">
        <ele>28.13</ele>
        <time>2011-08-05T11:38:09Z</time>
      </trkpt>
      <trkpt lat="37.11556" lon="-8.15004">
        <ele>21.705</ele>
        <time>2011-08-05T11:38:18Z</time>
      </trkpt>
      <trkpt lat="37.11476" lon="-8.15183">
        <ele>16.305</ele>
        <time>2011-08-05T11:38:30Z</time>
      </trkpt>
      <trkpt lat="37.11389" lon="-8.1531">
        <ele>17.791</ele>
        <time>2011-08-05T11:38:39Z</time>
      </trkpt>
      <trkpt lat="37.11194" lon="-8.15528">
        <ele>15.054</ele>
        <time>2011-08-05T11:38:56Z</time>
      </trkpt>
      <trkpt lat="37.11037" lon="-8.15711">
        <ele>10.583</ele>
        <time>2011-08-05T11:39:09Z</time>
      </trkpt>
      <trkpt lat="37.10961" lon="-8.15884">
        <ele>10.217</ele>
        <time>2011-08-05T11:39:19Z</time>
      </trkpt>
      <trkpt lat="37.10934" lon="-8.15952">
        <ele>9.774</ele>
        <time>2011-08-05T11:39:23Z</time>
      </trkpt>
      <trkpt lat="37.10842" lon="-8.16095">
        <ele>9.713</ele>
        <time>2011-08-05T11:39:33Z</time>
      </trkpt>
      <trkpt lat="37.10835" lon="-8.16104">
        <ele>9.725</ele>
        <time>2011-08-05T11:39:34Z</time>
      </trkpt>
      <trkpt lat="37.1082" lon="-8.16184">
        <ele>10.19</ele>
        <time>2011-08-05T11:39:41Z</time>
      </trkpt>
      <trkpt lat="37.10813" lon="-8.16365">
        <ele>11.732</ele>
        <time>2011-08-05T11:39:52Z</time>
      </trkpt>
      <trkpt lat="37.10822" lon="-8.16617">
        <ele>18.145</ele>
        <time>2011-08-05T11:40:05Z</time>
      </trkpt>
      <trkpt lat="37.10836" lon="-8.1686">
        <ele>23.126</ele>
        <time>2011-08-05T11:40:18Z</time>
      </trkpt>
      <trkpt lat="37.10859" lon="-8.17034">
        <ele>25.802</ele>
        <time>2011-08-05T11:40:28Z</time>
      </trkpt>
      <trkpt lat="37.10921" lon="-8.17314">
        <ele>30.995</ele>
        <time>2011-08-05T11:40:47Z</time>
      </trkpt>
      <trkpt lat="37.10911" lon="-8.17456">
        <ele>34.285</ele>
        <time>2011-08-05T11:40:56Z</time>
      </trkpt>
      <trkpt lat="37.10874" lon="-8.17773">
        <ele>41.613</ele>
        <time>2011-08-05T11:41:16Z</time>
      </trkpt>
      <trkpt lat="37.10849" lon="-8.17973">
        <ele>46.499</ele>
        <time>2011-08-05T11:41:29Z</time>
      </trkpt>
      <trkpt lat="37.10827" lon="-8.18065">
        <ele>46.656</ele>
        <time>2011-08-05T11:41:38Z</time>
      </trkpt>
      <trkpt lat="37.10823" lon="-8.18079">
        <ele>46.599</ele>
        <time>2011-08-05T11:41:45Z</time>
      </trkpt>
      <trkpt lat="37.10792" lon="-8.1816">
        <ele>45.716</ele>
        <time>2011-08-05T11:41:55Z</time>
      </trkpt>
      <trkpt lat="37.10709" lon="-8.18384">
        <ele>46.701</ele>
        <time>2011-08-05T11:42:16Z</time>
      </trkpt>
      <trkpt lat="37.10614" lon="-8.1864">
        <ele>50.078</ele>
        <time>2011-08-05T11:42:38Z</time>
      </trkpt>
      <trkpt lat="37.10604" lon="-8.18669">
        <ele>50.188</ele>
        <time>2011-08-05T11:42:41Z</time>
      </trkpt>
      <trkpt lat="37.10586" lon="-8.18735">
        <ele>49.885</ele>
        <time>2011-08-05T11:42:48Z</time>
      </trkpt>
      <trkpt lat="37.10568" lon="-8.18757">
        <ele>50.673</ele>
        <time>2011-08-05T11:42:50Z</time>
      </trkpt>
      <trkpt lat="37.105" lon="-8.18942">
        <ele>53.788</ele>
        <time>2011-08-05T11:43:03Z</time>
      </trkpt>
      <trkpt lat="37.10402" lon="-8.19241">
        <ele>54.795</ele>
        <time>2011-08-05T11:43:24Z</time>
      </trkpt>
      <trkpt lat="37.10399" lon="-8.19381">
        <ele>55.769</ele>
        <time>2011-08-05T11:43:34Z</time>
      </trkpt>
      <trkpt lat="37.10413" lon="-8.19626">
        <ele>53.387</ele>
        <time>2011-08-05T11:43:52Z</time>
      </trkpt>
      <trkpt lat="37.10438" lon="-8.19688">
        <ele>51.86</ele>
        <time>2011-08-05T11:43:57Z</time>
      </trkpt>
      <trkpt lat="37.10474" lon="-8.19749">
        <ele>51.108</ele>
        <time>2011-08-05T11:44:05Z</time>
      </trkpt>
      <trkpt lat="37.10503" lon="-8.19798">
        <ele>50.496</ele>
        <time>2011-08-05T11:44:14Z</time>
      </trkpt>
      <trkpt lat="37.10584" lon="-8.19926">
        <ele>56.167</ele>
        <time>2011-08-05T11:44:26Z</time>
      </trkpt>
      <trkpt lat="37.10598" lon="-8.19949">
        <ele>56.986</ele>
        <time>2011-08-05T11:44:28Z</time>
      </trkpt>
      <trkpt lat="37.10644" lon="-8.19988">
        <ele>58.386</ele>
        <time>2011-08-05T11:44:33Z</time>
      </trkpt>
      <trkpt lat="37.1073" lon="-8.20039">
        <ele>62.661</ele>
        <time>2011-08-05T11:44:41Z</time>
      </trkpt>
      <trkpt lat="37.10771" lon="-8.20094">
        <ele>65.386</ele>
        <time>2011-08-05T11:44:46Z</time>
      </trkpt>
      <trkpt lat="37.1088" lon="-8.20306">
        <ele>66.851</ele>
        <time>2011-08-05T11:45:01Z</time>
      </trkpt>
      <trkpt lat="37.1088" lon="-8.20377">
        <ele>65.911</ele>
        <time>2011-08-05T11:45:06Z</time>
      </trkpt>
      <trkpt lat="37.10845" lon="-8.2057">
        <ele>67.996</ele>
        <time>2011-08-05T11:45:18Z</time>
      </trkpt>
      <trkpt lat="37.10835" lon="-8.20803">
        <ele>67.834</ele>
        <time>2011-08-05T11:45:32Z</time>
      </trkpt>
      <trkpt lat="37.10843" lon="-8.20918">
        <ele>66.889</ele>
        <time>2011-08-05T11:45:39Z</time>
      </trkpt>
      <trkpt lat="37.10816" lon="-8.21021">
        <ele>67.483</ele>
        <time>2011-08-05T11:45:46Z</time>
      </trkpt>
      <trkpt lat="37.10768" lon="-8.21114">
        <ele>69.549</ele>
        <time>2011-08-05T11:45:55Z</time>
      </trkpt>
      <trkpt lat="37.10738" lon="-8.21222">
        <ele>69.659</ele>
        <time>2011-08-05T11:46:07Z</time>
      </trkpt>
      <trkpt lat="37.10719" lon="-8.21317">
        <ele>68.532</ele>
        <time>2011-08-05T11:46:16Z</time>
      </trkpt>
      <trkpt lat="37.10694" lon="-8.21358">
        <ele>66.348</ele>
        <time>2011-08-05T11:46:21Z</time>
      </trkpt>
      <trkpt lat="37.10677" lon="-8.21369">
        <ele>65.411</ele>
        <time>2011-08-05T11:46:30Z</time>
      </trkpt>
      <trkpt lat="37.10677" lon="-8.21369">
        <ele>65.794</ele>
        <time>2011-08-05T11:47:01Z</time>
      </trkpt>
      <trkpt lat="37.10677" lon="-8.21369">
        <ele>65.823</ele>
        <time>2011-08-05T11:47:04Z</time>
      </trkpt>
      <trkpt lat="37.10677" lon="-8.21369">
        <ele>72.604</ele>
        <time>2011-08-05T11:47:18Z</time>
      </trkpt>
      <trkpt lat="37.10677" lon="-8.21369">
        <ele>74.143</ele>
        <time>2011-08-05T11:47:56Z</time>
      </trkpt>
      <trkpt lat="37.10677" lon="-8.21369">
        <ele>73.495</ele>
        <time>2011-08-05T11:48:44Z</time>
      </trkpt>
      <trkpt lat="37.10677" lon="-8.21369">
        <ele>74.107</ele>
        <time>2011-08-05T11:50:11Z</time>
      </trkpt>
      <trkpt lat="37.10677" lon="-8.21369">
        <ele>73.745</ele>
        <time>2011-08-05T11:50:29Z</time>
      </trkpt>
      <trkpt lat="37.10677" lon="-8.21369">
        <ele>73.492</ele>
        <time>2011-08-05T11:50:54Z</time>
      </trkpt>
      <trkpt lat="37.10677" lon="-8.21369">
        <ele>73.488</ele>
        <time>2011-08-05T11:51:17Z</time>
      </trkpt>
      <trkpt lat="37.10677" lon="-8.21369">
        <ele>74.574</ele>
        <time>2011-08-05T11:51:40Z</time>
      </trkpt>
      <trkpt lat="37.10677" lon="-8.21369">
        <ele>75.184</ele>
        <time>2011-08-05T11:52:17Z</time>
      </trkpt>
      <trkpt lat="37.10677" lon="-8.21369">
        <ele>72.555</ele>
        <time>2011-08-05T11:53:40Z</time>
      </trkpt>
      <trkpt lat="37.10677" lon="-8.21369">
        <ele>74.048</ele>
        <time>2011-08-05T11:53:55Z</time>
      </trkpt>
      <trkpt lat="37.10677" lon="-8.21369">
        <ele>72.843</ele>
        <time>2011-08-05T11:55:02Z</time>
      </trkpt>
      <trkpt lat="37.10677" lon="-8.21369">
        <ele>73.955</ele>
        <time>2011-08-05T11:55:41Z</time>
      </trkpt>
      <trkpt lat="37.10677" lon="-8.21369">
        <ele>73.557</ele>
        <time>2011-08-05T11:55:56Z</time>
      </trkpt>
      <trkpt lat="37.10677" lon="-8.21369">
        <ele>72.11</ele>
        <time>2011-08-05T11:56:13Z</time>
      </trkpt>
      <trkpt lat="37.10677" lon="-8.21369">
        <ele>70.003</ele>
        <time>2011-08-05T11:56:35Z</time>
      </trkpt>
      <trkpt lat="37.10677" lon="-8.21369">
        <ele>72.21</ele>
        <time>2011-08-05T11:56:54Z</time>
      </trkpt>
      <trkpt lat="37.10671" lon="-8.21373">
        <ele>76.347</ele>
        <time>2011-08-05T11:57:07Z</time>
      </trkpt>
      <trkpt lat="37.10671" lon="-8.21373">
        <ele>84.769</ele>
        <time>2011-08-05T11:57:25Z</time>
      </trkpt>
      <trkpt lat="37.10671" lon="-8.21373">
        <ele>87.253</ele>
        <time>2011-08-05T11:57:52Z</time>
      </trkpt>
      <trkpt lat="37.10671" lon="-8.21373">
        <ele>87.631</ele>
        <time>2011-08-05T11:58:25Z</time>
      </trkpt>
      <trkpt lat="37.10671" lon="-8.21373">
        <ele>88.036</ele>
        <time>2011-08-05T11:58:29Z</time>
      </trkpt>
      <trkpt lat="37.10647" lon="-8.21387">
        <ele>88.263</ele>
        <time>2011-08-05T11:58:32Z</time>
      </trkpt>
      <trkpt lat="37.10581" lon="-8.21425">
        <ele>88.571</ele>
        <time>2011-08-05T11:58:39Z</time>
      </trkpt>
      <trkpt lat="37.10569" lon="-8.21433">
        <ele>88.716</ele>
        <time>2011-08-05T11:58:40Z</time>
      </trkpt>
      <trkpt lat="37.10451" lon="-8.21469">
        <ele>88.66</ele>
        <time>2011-08-05T11:58:49Z</time>
      </trkpt>
      <trkpt lat="37.10398" lon="-8.21465">
        <ele>88.463</ele>
        <time>2011-08-05T11:58:53Z</time>
      </trkpt>
      <trkpt lat="37.10365" lon="-8.21466">
        <ele>88.421</ele>
        <time>2011-08-05T11:58:55Z</time>
      </trkpt>
      <trkpt lat="37.10341" lon="-8.21471">
        <ele>88.299</ele>
        <time>2011-08-05T11:58:57Z</time>
      </trkpt>
      <trkpt lat="37.10265" lon="-8.21528">
        <ele>86.19</ele>
        <time>2011-08-05T11:59:07Z</time>
      </trkpt>
      <trkpt lat="37.10222" lon="-8.2156">
        <ele>82.669</ele>
        <time>2011-08-05T11:59:18Z</time>
      </trkpt>
      <trkpt lat="37.10149" lon="-8.21638">
        <ele>76.194</ele>
        <time>2011-08-05T11:59:29Z</time>
      </trkpt>
      <trkpt lat="37.10123" lon="-8.2166">
        <ele>74.382</ele>
        <time>2011-08-05T11:59:32Z</time>
      </trkpt>
      <trkpt lat="37.10085" lon="-8.21673">
        <ele>71.818</ele>
        <time>2011-08-05T11:59:36Z</time>
      </trkpt>
      <trkpt lat="37.09977" lon="-8.21699">
        <ele>66.535</ele>
        <time>2011-08-05T11:59:47Z</time>
      </trkpt>
      <trkpt lat="37.09941" lon="-8.21719">
        <ele>64.208</ele>
        <time>2011-08-05T11:59:52Z</time>
      </trkpt>
      <trkpt lat="37.09926" lon="-8.21737">
        <ele>63.237</ele>
        <time>2011-08-05T11:59:55Z</time>
      </trkpt>
      <trkpt lat="37.09908" lon="-8.21759">
        <ele>61.543</ele>
        <time>2011-08-05T12:00:00Z</time>
      </trkpt>
      <trkpt lat="37.09899" lon="-8.21768">
        <ele>60.539</ele>
        <time>2011-08-05T12:00:02Z</time>
      </trkpt>
      <trkpt lat="37.09871" lon="-8.21798">
        <ele>58.851</ele>
        <time>2011-08-05T12:00:07Z</time>
      </trkpt>
      <trkpt lat="37.09858" lon="-8.21815">
        <ele>56.452</ele>
        <time>2011-08-05T12:00:09Z</time>
      </trkpt>
      <trkpt lat="37.0979" lon="-8.21905">
        <ele>51.102</ele>
        <time>2011-08-05T12:00:19Z</time>
      </trkpt>
      <trkpt lat="37.09727" lon="-8.2204">
        <ele>35.769</ele>
        <time>2011-08-05T12:00:29Z</time>
      </trkpt>
      <trkpt lat="37.09634" lon="-8.22289">
        <ele>36.152</ele>
        <time>2011-08-05T12:00:47Z</time>
      </trkpt>
      <trkpt lat="37.09598" lon="-8.22381">
        <ele>42.701</ele>
        <time>2011-08-05T12:00:58Z</time>
      </trkpt>
      <trkpt lat="37.09583" lon="-8.22419">
        <ele>46.467</ele>
        <time>2011-08-05T12:01:07Z</time>
      </trkpt>
      <trkpt lat="37.0959" lon="-8.22425">
        <ele>46.859</ele>
        <time>2011-08-05T12:01:23Z</time>
      </trkpt>
      <trkpt lat="37.0959" lon="-8.2243">
        <ele>46.849</ele>
        <time>2011-08-05T12:01:24Z</time>
      </trkpt>
      <trkpt lat="37.09559" lon="-8.22475">
        <ele>48.375</ele>
        <time>2011-08-05T12:01:30Z</time>
      </trkpt>
      <trkpt lat="37.095" lon="-8.22654">
        <ele>51.937</ele>
        <time>2011-08-05T12:01:45Z</time>
      </trkpt>
      <trkpt lat="37.09449" lon="-8.22798">
        <ele>47.215</ele>
        <time>2011-08-05T12:01:58Z</time>
      </trkpt>
      <trkpt lat="37.09446" lon="-8.22806">
        <ele>47.315</ele>
        <time>2011-08-05T12:02:05Z</time>
      </trkpt>
      <trkpt lat="37.09435" lon="-8.22833">
        <ele>47.194</ele>
        <time>2011-08-05T12:02:35Z</time>
      </trkpt>
      <trkpt lat="37.09422" lon="-8.22929">
        <ele>46.825</ele>
        <time>2011-08-05T12:02:44Z</time>
      </trkpt>
      <trkpt lat="37.0941" lon="-8.23144">
        <ele>43.939</ele>
        <time>2011-08-05T12:03:00Z</time>
      </trkpt>
      <trkpt lat="37.09391" lon="-8.23279">
        <ele>38.537</ele>
        <time>2011-08-05T12:03:12Z</time>
      </trkpt>
      <trkpt lat="37.09392" lon="-8.23279">
        <ele>38.055</ele>
        <time>2011-08-05T12:03:14Z</time>
      </trkpt>
      <trkpt lat="37.09384" lon="-8.23309">
        <ele>36.971</ele>
        <time>2011-08-05T12:03:20Z</time>
      </trkpt>
      <trkpt lat="37.09377" lon="-8.23322">
        <ele>36.612</ele>
        <time>2011-08-05T12:03:22Z</time>
      </trkpt>
      <trkpt lat="37.09316" lon="-8.23433">
        <ele>33.88</ele>
        <time>2011-08-05T12:03:32Z</time>
      </trkpt>
      <trkpt lat="37.09278" lon="-8.23601">
        <ele>32.35</ele>
        <time>2011-08-05T12:03:43Z</time>
      </trkpt>
      <trkpt lat="37.09235" lon="-8.23829">
        <ele>40.616</ele>
        <time>2011-08-05T12:03:59Z</time>
      </trkpt>
      <trkpt lat="37.09204" lon="-8.23954">
        <ele>43.052</ele>
        <time>2011-08-05T12:04:10Z</time>
      </trkpt>
      <trkpt lat="37.092" lon="-8.23975">
        <ele>42.913</ele>
        <time>2011-08-05T12:04:17Z</time>
      </trkpt>
      <trkpt lat="37.09203" lon="-8.23988">
        <ele>43.009</ele>
        <time>2011-08-05T12:04:21Z</time>
      </trkpt>
      <trkpt lat="37.09193" lon="-8.24013">
        <ele>43.211</ele>
        <time>2011-08-05T12:04:25Z</time>
      </trkpt>
      <trkpt lat="37.09186" lon="-8.24028">
        <ele>43.023</ele>
        <time>2011-08-05T12:04:27Z</time>
      </trkpt>
      <trkpt lat="37.09143" lon="-8.24173">
        <ele>42.186</ele>
        <time>2011-08-05T12:04:42Z</time>
      </trkpt>
      <trkpt lat="37.09118" lon="-8.24274">
        <ele>41.42</ele>
        <time>2011-08-05T12:04:53Z</time>
      </trkpt>
      <trkpt lat="37.09114" lon="-8.24295">
        <ele>41.099</ele>
        <time>2011-08-05T12:05:02Z</time>
      </trkpt>
      <trkpt lat="37.09109" lon="-8.24375">
        <ele>39.003</ele>
        <time>2011-08-05T12:05:10Z</time>
      </trkpt>
      <trkpt lat="37.0911" lon="-8.24426">
        <ele>37.709</ele>
        <time>2011-08-05T12:05:18Z</time>
      </trkpt>
      <trkpt lat="37.09112" lon="-8.24454">
        <ele>37.247</ele>
        <time>2011-08-05T12:05:25Z</time>
      </trkpt>
      <trkpt lat="37.09146" lon="-8.24543">
        <ele>37.238</ele>
        <time>2011-08-05T12:05:35Z</time>
      </trkpt>
      <trkpt lat="37.09216" lon="-8.24652">
        <ele>41.683</ele>
        <time>2011-08-05T12:05:45Z</time>
      </trkpt>
      <trkpt lat="37.09348" lon="-8.24801">
        <ele>51.131</ele>
        <time>2011-08-05T12:06:01Z</time>
      </trkpt>
      <trkpt lat="37.09419" lon="-8.24879">
        <ele>54.204</ele>
        <time>2011-08-05T12:06:12Z</time>
      </trkpt>
      <trkpt lat="37.09447" lon="-8.24906">
        <ele>53.871</ele>
        <time>2011-08-05T12:06:20Z</time>
      </trkpt>
      <trkpt lat="37.09454" lon="-8.24906">
        <ele>52.859</ele>
        <time>2011-08-05T12:06:26Z</time>
      </trkpt>
      <trkpt lat="37.09459" lon="-8.24909">
        <ele>52.672</ele>
        <time>2011-08-05T12:06:28Z</time>
      </trkpt>
      <trkpt lat="37.09487" lon="-8.24974">
        <ele>50.977</ele>
        <time>2011-08-05T12:06:36Z</time>
      </trkpt>
      <trkpt lat="37.09512" lon="-8.25083">
        <ele>45.974</ele>
        <time>2011-08-05T12:06:45Z</time>
      </trkpt>
      <trkpt lat="37.09492" lon="-8.2519">
        <ele>39.203</ele>
        <time>2011-08-05T12:06:53Z</time>
      </trkpt>
      <trkpt lat="37.09425" lon="-8.25303">
        <ele>31.127</ele>
        <time>2011-08-05T12:07:03Z</time>
      </trkpt>
      <trkpt lat="37.09401" lon="-8.25339">
        <ele>28.107</ele>
        <time>2011-08-05T12:07:11Z</time>
      </trkpt>
      <trkpt lat="37.09388" lon="-8.25359">
        <ele>26.913</ele>
        <time>2011-08-05T12:07:19Z</time>
      </trkpt>
      <trkpt lat="37.09383" lon="-8.25378">
        <ele>24.74</ele>
        <time>2011-08-05T12:07:23Z</time>
      </trkpt>
      <trkpt lat="37.09362" lon="-8.254">
        <ele>23.957</ele>
        <time>2011-08-05T12:07:28Z</time>
      </trkpt>
      <trkpt lat="37.09286" lon="-8.25518">
        <ele>24.246</ele>
        <time>2011-08-05T12:07:38Z</time>
      </trkpt>
      <trkpt lat="37.09206" lon="-8.25581">
        <ele>29.636</ele>
        <time>2011-08-05T12:07:45Z</time>
      </trkpt>
      <trkpt lat="37.091" lon="-8.25602">
        <ele>36.285</ele>
        <time>2011-08-05T12:07:53Z</time>
      </trkpt>
      <trkpt lat="37.09064" lon="-8.25608">
        <ele>39.367</ele>
        <time>2011-08-05T12:07:56Z</time>
      </trkpt>
      <trkpt lat="37.09026" lon="-8.25628">
        <ele>42.112</ele>
        <time>2011-08-05T12:08:00Z</time>
      </trkpt>
      <trkpt lat="37.08997" lon="-8.25686">
        <ele>46.226</ele>
        <time>2011-08-05T12:08:08Z</time>
      </trkpt>
      <trkpt lat="37.08996" lon="-8.25691">
        <ele>46.383</ele>
        <time>2011-08-05T12:08:09Z</time>
      </trkpt>
      <trkpt lat="37.08996" lon="-8.25699">
        <ele>46.523</ele>
        <time>2011-08-05T12:08:18Z</time>
      </trkpt>
      <trkpt lat="37.08994" lon="-8.25721">
        <ele>47.206</ele>
        <time>2011-08-05T12:08:59Z</time>
      </trkpt>
      <trkpt lat="37.08972" lon="-8.25737">
        <ele>47.581</ele>
        <time>2011-08-05T12:09:05Z</time>
      </trkpt>
      <trkpt lat="37.08878" lon="-8.25722">
        <ele>43.266</ele>
        <time>2011-08-05T12:09:16Z</time>
      </trkpt>
      <trkpt lat="37.08853" lon="-8.25717">
        <ele>43.084</ele>
        <time>2011-08-05T12:09:25Z</time>
      </trkpt>
      <trkpt lat="37.08849" lon="-8.25716">
        <ele>42.956</ele>
        <time>2011-08-05T12:09:29Z</time>
      </trkpt>
      <trkpt lat="37.08833" lon="-8.25712">
        <ele>42.481</ele>
        <time>2011-08-05T12:09:32Z</time>
      </trkpt>
      <trkpt lat="37.08816" lon="-8.25696">
        <ele>42.904</ele>
        <time>2011-08-05T12:09:41Z</time>
      </trkpt>
      <trkpt lat="37.08817" lon="-8.25697">
        <ele>42.759</ele>
        <time>2011-08-05T12:09:42Z</time>
      </trkpt>
      <trkpt lat="37.0883" lon="-8.25712">
        <ele>43.755</ele>
        <time>2011-08-05T12:09:45Z</time>
      </trkpt>
      <trkpt lat="37.08865" lon="-8.2572">
        <ele>46.251</ele>
        <time>2011-08-05T12:09:54Z</time>
      </trkpt>
      <trkpt lat="37.0887" lon="-8.2569">
        <ele>47.825</ele>
        <time>2011-08-05T12:10:00Z</time>
      </trkpt>
      <trkpt lat="37.08864" lon="-8.25623">
        <ele>41.51</ele>
        <time>2011-08-05T12:10:15Z</time>
      </trkpt>
      <trkpt lat="37.08864" lon="-8.25632">
        <ele>40.094</ele>
        <time>2011-08-05T12:10:20Z</time>
      </trkpt>
      <trkpt lat="37.08865" lon="-8.25644">
        <ele>39.265</ele>
        <time>2011-08-05T12:10:23Z</time>
      </trkpt>
      <trkpt lat="37.08865" lon="-8.25651">
        <ele>38.594</ele>
        <time>2011-08-05T12:10:27Z</time>
      </trkpt>
    </trkseg>
  </trk>
  <trk>
    <name><![CDATA[ACTIVE LOG141415]]></name>
    <trkseg>
      <trkpt lat="37.08863" lon="-8.25611">
        <ele>46.074</ele>
        <time>2011-08-05T12:14:15Z</time>
      </trkpt>
      <trkpt lat="37.08862" lon="-8.2561">
        <ele>46.397</ele>
        <time>2011-08-05T12:14:21Z</time>
      </trkpt>
      <trkpt lat="37.08866" lon="-8.25606">
        <ele>44.294</ele>
        <time>2011-08-05T12:14:24Z</time>
      </trkpt>
      <trkpt lat="37.08866" lon="-8.25592">
        <ele>38.401</ele>
        <time>2011-08-05T12:14:40Z</time>
      </trkpt>
      <trkpt lat="37.08866" lon="-8.25592">
        <ele>37.249</ele>
        <time>2011-08-05T12:14:42Z</time>
      </trkpt>
      <trkpt lat="37.08866" lon="-8.25592">
        <ele>33.468</ele>
        <time>2011-08-05T12:14:58Z</time>
      </trkpt>
    </trkseg>
  </trk>
  <trk>
    <name><![CDATA[ACTIVE LOG164836]]></name>
    <trkseg>
      <trkpt lat="37.08971" lon="-8.25359">
        <ele>257.731</ele>
        <time>2011-08-05T14:48:35Z</time>
      </trkpt>
      <trkpt lat="37.0899" lon="-8.25374">
        <ele>214.761</ele>
        <time>2011-08-05T14:49:06Z</time>
      </trkpt>
      <trkpt lat="37.08994" lon="-8.25375">
        <ele>191.709</ele>
        <time>2011-08-05T14:50:53Z</time>
      </trkpt>
      <trkpt lat="37.08997" lon="-8.25376">
        <ele>191.463</ele>
        <time>2011-08-05T14:51:39Z</time>
      </trkpt>
      <trkpt lat="37.08999" lon="-8.25373">
        <ele>188.156</ele>
        <time>2011-08-05T14:52:34Z</time>
      </trkpt>
      <trkpt lat="37.09003" lon="-8.25375">
        <ele>186.96</ele>
        <time>2011-08-05T14:53:00Z</time>
      </trkpt>
      <trkpt lat="37.09" lon="-8.25372">
        <ele>187.269</ele>
        <time>2011-08-05T14:54:15Z</time>
      </trkpt>
      <trkpt lat="37.08996" lon="-8.25365">
        <ele>186.166</ele>
        <time>2011-08-05T14:54:21Z</time>
      </trkpt>
      <trkpt lat="37.08978" lon="-8.25355">
        <ele>183.943</ele>
        <time>2011-08-05T14:54:30Z</time>
      </trkpt>
      <trkpt lat="37.08971" lon="-8.25348">
        <ele>183.318</ele>
        <time>2011-08-05T14:54:43Z</time>
      </trkpt>
      <trkpt lat="37.08971" lon="-8.2535">
        <ele>178.472</ele>
        <time>2011-08-05T14:54:56Z</time>
      </trkpt>
      <trkpt lat="37.0897" lon="-8.25352">
        <ele>176.615</ele>
        <time>2011-08-05T14:55:20Z</time>
      </trkpt>
      <trkpt lat="37.08975" lon="-8.25349">
        <ele>175.003</ele>
        <time>2011-08-05T14:55:29Z</time>
      </trkpt>
      <trkpt lat="37.08974" lon="-8.25346">
        <ele>173.857</ele>
        <time>2011-08-05T14:55:33Z</time>
      </trkpt>
      <trkpt lat="37.08973" lon="-8.25346">
        <ele>173.713</ele>
        <time>2011-08-05T14:55:52Z</time>
      </trkpt>
      <trkpt lat="37.08975" lon="-8.25348">
        <ele>173.379</ele>
        <time>2011-08-05T14:55:55Z</time>
      </trkpt>
      <trkpt lat="37.0897" lon="-8.2536">
        <ele>172.921</ele>
        <time>2011-08-05T14:56:12Z</time>
      </trkpt>
      <trkpt lat="37.08975" lon="-8.25372">
        <ele>171.251</ele>
        <time>2011-08-05T14:56:32Z</time>
      </trkpt>
      <trkpt lat="37.08964" lon="-8.25377">
        <ele>170.536</ele>
        <time>2011-08-05T14:56:43Z</time>
      </trkpt>
      <trkpt lat="37.08959" lon="-8.25375">
        <ele>169.212</ele>
        <time>2011-08-05T14:56:48Z</time>
      </trkpt>
      <trkpt lat="37.08956" lon="-8.25372">
        <ele>168.079</ele>
        <time>2011-08-05T14:56:51Z</time>
      </trkpt>
      <trkpt lat="37.08947" lon="-8.25371">
        <ele>166.05</ele>
        <time>2011-08-05T14:57:03Z</time>
      </trkpt>
      <trkpt lat="37.08931" lon="-8.25364">
        <ele>166.422</ele>
        <time>2011-08-05T14:57:12Z</time>
      </trkpt>
      <trkpt lat="37.08924" lon="-8.25363">
        <ele>166.052</ele>
        <time>2011-08-05T14:57:22Z</time>
      </trkpt>
      <trkpt lat="37.0892" lon="-8.25359">
        <ele>166.006</ele>
        <time>2011-08-05T14:57:27Z</time>
      </trkpt>
      <trkpt lat="37.08906" lon="-8.25369">
        <ele>162.496</ele>
        <time>2011-08-05T14:57:34Z</time>
      </trkpt>
      <trkpt lat="37.089" lon="-8.25367">
        <ele>160.167</ele>
        <time>2011-08-05T14:57:45Z</time>
      </trkpt>
      <trkpt lat="37.08896" lon="-8.25363">
        <ele>159.336</ele>
        <time>2011-08-05T14:57:50Z</time>
      </trkpt>
      <trkpt lat="37.08888" lon="-8.25356">
        <ele>158.315</ele>
        <time>2011-08-05T14:57:56Z</time>
      </trkpt>
      <trkpt lat="37.08882" lon="-8.25353">
        <ele>158.225</ele>
        <time>2011-08-05T14:58:01Z</time>
      </trkpt>
      <trkpt lat="37.08876" lon="-8.25354">
        <ele>158.263</ele>
        <time>2011-08-05T14:58:15Z</time>
      </trkpt>
      <trkpt lat="37.08871" lon="-8.25359">
        <ele>159.148</ele>
        <time>2011-08-05T14:58:25Z</time>
      </trkpt>
      <trkpt lat="37.08869" lon="-8.25379">
        <ele>157.377</ele>
        <time>2011-08-05T14:58:41Z</time>
      </trkpt>
      <trkpt lat="37.0886" lon="-8.25397">
        <ele>157.125</ele>
        <time>2011-08-05T14:58:56Z</time>
      </trkpt>
      <trkpt lat="37.08851" lon="-8.25412">
        <ele>156.998</ele>
        <time>2011-08-05T14:59:08Z</time>
      </trkpt>
      <trkpt lat="37.08836" lon="-8.25426">
        <ele>156.787</ele>
        <time>2011-08-05T14:59:26Z</time>
      </trkpt>
      <trkpt lat="37.08826" lon="-8.25448">
        <ele>156.727</ele>
        <time>2011-08-05T14:59:44Z</time>
      </trkpt>
      <trkpt lat="37.08819" lon="-8.25477">
        <ele>156.196</ele>
        <time>2011-08-05T14:59:56Z</time>
      </trkpt>
      <trkpt lat="37.08835" lon="-8.2549">
        <ele>156.408</ele>
        <time>2011-08-05T15:00:07Z</time>
      </trkpt>
      <trkpt lat="37.0884" lon="-8.25511">
        <ele>158.84</ele>
        <time>2011-08-05T15:00:23Z</time>
      </trkpt>
      <trkpt lat="37.08842" lon="-8.25528">
        <ele>157.251</ele>
        <time>2011-08-05T15:00:35Z</time>
      </trkpt>
      <trkpt lat="37.08841" lon="-8.25534">
        <ele>157.792</ele>
        <time>2011-08-05T15:00:39Z</time>
      </trkpt>
      <trkpt lat="37.08841" lon="-8.25547">
        <ele>156.454</ele>
        <time>2011-08-05T15:00:47Z</time>
      </trkpt>
      <trkpt lat="37.0884" lon="-8.25555">
        <ele>151.074</ele>
        <time>2011-08-05T15:00:51Z</time>
      </trkpt>
      <trkpt lat="37.08842" lon="-8.25562">
        <ele>150.741</ele>
        <time>2011-08-05T15:00:55Z</time>
      </trkpt>
      <trkpt lat="37.08833" lon="-8.2558">
        <ele>127.566</ele>
        <time>2011-08-05T15:01:07Z</time>
      </trkpt>
      <trkpt lat="37.08831" lon="-8.25618">
        <ele>98.087</ele>
        <time>2011-08-05T15:01:30Z</time>
      </trkpt>
      <trkpt lat="37.08833" lon="-8.25636">
        <ele>92.084</ele>
        <time>2011-08-05T15:01:45Z</time>
      </trkpt>
      <trkpt lat="37.0884" lon="-8.25648">
        <ele>80.357</ele>
        <time>2011-08-05T15:01:58Z</time>
      </trkpt>
      <trkpt lat="37.08851" lon="-8.25653">
        <ele>69.714</ele>
        <time>2011-08-05T15:02:43Z</time>
      </trkpt>
      <trkpt lat="37.0885" lon="-8.25653">
        <ele>68.873</ele>
        <time>2011-08-05T15:02:54Z</time>
      </trkpt>
      <trkpt lat="37.08854" lon="-8.25665">
        <ele>69.708</ele>
        <time>2011-08-05T15:02:58Z</time>
      </trkpt>
      <trkpt lat="37.08854" lon="-8.25665">
        <ele>71.123</ele>
        <time>2011-08-05T15:03:02Z</time>
      </trkpt>
      <trkpt lat="37.08864" lon="-8.2564">
        <ele>75.662</ele>
        <time>2011-08-05T15:03:13Z</time>
      </trkpt>
      <trkpt lat="37.08864" lon="-8.2562">
        <ele>81.393</ele>
        <time>2011-08-05T15:03:28Z</time>
      </trkpt>
      <trkpt lat="37.08864" lon="-8.2562">
        <ele>85.493</ele>
        <time>2011-08-05T15:03:41Z</time>
      </trkpt>
      <trkpt lat="37.08847" lon="-8.25618">
        <ele>87.731</ele>
        <time>2011-08-05T15:03:47Z</time>
      </trkpt>
      <trkpt lat="37.08851" lon="-8.25618">
        <ele>88.482</ele>
        <time>2011-08-05T15:03:58Z</time>
      </trkpt>
      <trkpt lat="37.08857" lon="-8.25618">
        <ele>87.891</ele>
        <time>2011-08-05T15:04:01Z</time>
      </trkpt>
      <trkpt lat="37.08864" lon="-8.25629">
        <ele>83.754</ele>
        <time>2011-08-05T15:04:05Z</time>
      </trkpt>
      <trkpt lat="37.08871" lon="-8.257">
        <ele>75.394</ele>
        <time>2011-08-05T15:04:16Z</time>
      </trkpt>
      <trkpt lat="37.08871" lon="-8.25721">
        <ele>71.803</ele>
        <time>2011-08-05T15:04:26Z</time>
      </trkpt>
      <trkpt lat="37.0893" lon="-8.2573">
        <ele>67.348</ele>
        <time>2011-08-05T15:04:36Z</time>
      </trkpt>
      <trkpt lat="37.0896" lon="-8.25735">
        <ele>67.228</ele>
        <time>2011-08-05T15:04:44Z</time>
      </trkpt>
      <trkpt lat="37.08969" lon="-8.25737">
        <ele>67.301</ele>
        <time>2011-08-05T15:05:03Z</time>
      </trkpt>
      <trkpt lat="37.08998" lon="-8.2576">
        <ele>67.583</ele>
        <time>2011-08-05T15:05:09Z</time>
      </trkpt>
      <trkpt lat="37.09029" lon="-8.25888">
        <ele>71.882</ele>
        <time>2011-08-05T15:05:20Z</time>
      </trkpt>
      <trkpt lat="37.0904" lon="-8.26012">
        <ele>80.343</ele>
        <time>2011-08-05T15:05:30Z</time>
      </trkpt>
      <trkpt lat="37.09045" lon="-8.2604">
        <ele>81.605</ele>
        <time>2011-08-05T15:05:33Z</time>
      </trkpt>
      <trkpt lat="37.09053" lon="-8.2606">
        <ele>82.207</ele>
        <time>2011-08-05T15:05:38Z</time>
      </trkpt>
      <trkpt lat="37.0916" lon="-8.26119">
        <ele>87.903</ele>
        <time>2011-08-05T15:05:49Z</time>
      </trkpt>
      <trkpt lat="37.09184" lon="-8.26162">
        <ele>90.906</ele>
        <time>2011-08-05T15:05:54Z</time>
      </trkpt>
      <trkpt lat="37.092" lon="-8.26212">
        <ele>94.171</ele>
        <time>2011-08-05T15:05:59Z</time>
      </trkpt>
      <trkpt lat="37.09233" lon="-8.26264">
        <ele>97.711</ele>
        <time>2011-08-05T15:06:05Z</time>
      </trkpt>
      <trkpt lat="37.09242" lon="-8.26275">
        <ele>98.319</ele>
        <time>2011-08-05T15:06:08Z</time>
      </trkpt>
      <trkpt lat="37.09263" lon="-8.2634">
        <ele>99.235</ele>
        <time>2011-08-05T15:06:13Z</time>
      </trkpt>
      <trkpt lat="37.09275" lon="-8.26468">
        <ele>101.103</ele>
        <time>2011-08-05T15:06:25Z</time>
      </trkpt>
      <trkpt lat="37.09295" lon="-8.26611">
        <ele>104.282</ele>
        <time>2011-08-05T15:06:37Z</time>
      </trkpt>
      <trkpt lat="37.09329" lon="-8.26821">
        <ele>105</ele>
        <time>2011-08-05T15:06:54Z</time>
      </trkpt>
      <trkpt lat="37.09367" lon="-8.26931">
        <ele>106.207</ele>
        <time>2011-08-05T15:07:03Z</time>
      </trkpt>
      <trkpt lat="37.09399" lon="-8.26967">
        <ele>107.635</ele>
        <time>2011-08-05T15:07:08Z</time>
      </trkpt>
      <trkpt lat="37.09531" lon="-8.27036">
        <ele>109.438</ele>
        <time>2011-08-05T15:07:21Z</time>
      </trkpt>
      <trkpt lat="37.09572" lon="-8.27077">
        <ele>107.538</ele>
        <time>2011-08-05T15:07:25Z</time>
      </trkpt>
      <trkpt lat="37.0965" lon="-8.27106">
        <ele>101.437</ele>
        <time>2011-08-05T15:07:31Z</time>
      </trkpt>
      <trkpt lat="37.09709" lon="-8.27145">
        <ele>98.305</ele>
        <time>2011-08-05T15:07:36Z</time>
      </trkpt>
      <trkpt lat="37.09816" lon="-8.27143">
        <ele>97.317</ele>
        <time>2011-08-05T15:07:44Z</time>
      </trkpt>
      <trkpt lat="37.09934" lon="-8.27134">
        <ele>95.346</ele>
        <time>2011-08-05T15:07:54Z</time>
      </trkpt>
      <trkpt lat="37.09943" lon="-8.27136">
        <ele>95.147</ele>
        <time>2011-08-05T15:07:55Z</time>
      </trkpt>
      <trkpt lat="37.09963" lon="-8.27144">
        <ele>93.993</ele>
        <time>2011-08-05T15:07:58Z</time>
      </trkpt>
      <trkpt lat="37.09977" lon="-8.27158">
        <ele>92.793</ele>
        <time>2011-08-05T15:08:03Z</time>
      </trkpt>
      <trkpt lat="37.10003" lon="-8.27216">
        <ele>90.034</ele>
        <time>2011-08-05T15:08:12Z</time>
      </trkpt>
      <trkpt lat="37.10047" lon="-8.27347">
        <ele>88.071</ele>
        <time>2011-08-05T15:08:21Z</time>
      </trkpt>
      <trkpt lat="37.10139" lon="-8.27542">
        <ele>83.34</ele>
        <time>2011-08-05T15:08:34Z</time>
      </trkpt>
      <trkpt lat="37.10154" lon="-8.27569">
        <ele>82.717</ele>
        <time>2011-08-05T15:08:36Z</time>
      </trkpt>
      <trkpt lat="37.10195" lon="-8.27604">
        <ele>81.566</ele>
        <time>2011-08-05T15:08:40Z</time>
      </trkpt>
      <trkpt lat="37.10286" lon="-8.27702">
        <ele>77.129</ele>
        <time>2011-08-05T15:08:49Z</time>
      </trkpt>
      <trkpt lat="37.10394" lon="-8.2784">
        <ele>72.374</ele>
        <time>2011-08-05T15:09:01Z</time>
      </trkpt>
      <trkpt lat="37.10511" lon="-8.27907">
        <ele>70.471</ele>
        <time>2011-08-05T15:09:11Z</time>
      </trkpt>
      <trkpt lat="37.10702" lon="-8.28006">
        <ele>64.436</ele>
        <time>2011-08-05T15:09:26Z</time>
      </trkpt>
      <trkpt lat="37.1081" lon="-8.28029">
        <ele>61.59</ele>
        <time>2011-08-05T15:09:35Z</time>
      </trkpt>
      <trkpt lat="37.10958" lon="-8.28034">
        <ele>63.19</ele>
        <time>2011-08-05T15:09:47Z</time>
      </trkpt>
      <trkpt lat="37.10999" lon="-8.28061">
        <ele>66.431</ele>
        <time>2011-08-05T15:09:51Z</time>
      </trkpt>
      <trkpt lat="37.11142" lon="-8.282">
        <ele>75.564</ele>
        <time>2011-08-05T15:10:06Z</time>
      </trkpt>
      <trkpt lat="37.11318" lon="-8.28397">
        <ele>76.572</ele>
        <time>2011-08-05T15:10:23Z</time>
      </trkpt>
      <trkpt lat="37.1142" lon="-8.28522">
        <ele>77.602</ele>
        <time>2011-08-05T15:10:33Z</time>
      </trkpt>
      <trkpt lat="37.11517" lon="-8.28637">
        <ele>79.619</ele>
        <time>2011-08-05T15:10:43Z</time>
      </trkpt>
      <trkpt lat="37.11525" lon="-8.28649">
        <ele>79.267</ele>
        <time>2011-08-05T15:10:44Z</time>
      </trkpt>
      <trkpt lat="37.1158" lon="-8.28687">
        <ele>76.749</ele>
        <time>2011-08-05T15:10:49Z</time>
      </trkpt>
      <trkpt lat="37.11731" lon="-8.28745">
        <ele>67.061</ele>
        <time>2011-08-05T15:11:00Z</time>
      </trkpt>
      <trkpt lat="37.11911" lon="-8.28831">
        <ele>63.074</ele>
        <time>2011-08-05T15:11:13Z</time>
      </trkpt>
      <trkpt lat="37.11938" lon="-8.28842">
        <ele>62.523</ele>
        <time>2011-08-05T15:11:15Z</time>
      </trkpt>
      <trkpt lat="37.12012" lon="-8.28925">
        <ele>61.845</ele>
        <time>2011-08-05T15:11:22Z</time>
      </trkpt>
      <trkpt lat="37.12176" lon="-8.29169">
        <ele>67.546</ele>
        <time>2011-08-05T15:11:39Z</time>
      </trkpt>
      <trkpt lat="37.1227" lon="-8.29355">
        <ele>76.903</ele>
        <time>2011-08-05T15:11:53Z</time>
      </trkpt>
      <trkpt lat="37.12323" lon="-8.29456">
        <ele>79.135</ele>
        <time>2011-08-05T15:12:01Z</time>
      </trkpt>
      <trkpt lat="37.12358" lon="-8.29494">
        <ele>78.768</ele>
        <time>2011-08-05T15:12:05Z</time>
      </trkpt>
      <trkpt lat="37.12405" lon="-8.29542">
        <ele>73.347</ele>
        <time>2011-08-05T15:12:10Z</time>
      </trkpt>
      <trkpt lat="37.12451" lon="-8.29674">
        <ele>66.149</ele>
        <time>2011-08-05T15:12:19Z</time>
      </trkpt>
      <trkpt lat="37.12463" lon="-8.29707">
        <ele>65.569</ele>
        <time>2011-08-05T15:12:23Z</time>
      </trkpt>
      <trkpt lat="37.12484" lon="-8.29713">
        <ele>66.524</ele>
        <time>2011-08-05T15:12:25Z</time>
      </trkpt>
      <trkpt lat="37.12467" lon="-8.29745">
        <ele>65.034</ele>
        <time>2011-08-05T15:12:29Z</time>
      </trkpt>
      <trkpt lat="37.1246" lon="-8.29869">
        <ele>60.357</ele>
        <time>2011-08-05T15:12:40Z</time>
      </trkpt>
      <trkpt lat="37.12444" lon="-8.29985">
        <ele>58.898</ele>
        <time>2011-08-05T15:12:49Z</time>
      </trkpt>
      <trkpt lat="37.1245" lon="-8.30028">
        <ele>58.753</ele>
        <time>2011-08-05T15:12:53Z</time>
      </trkpt>
      <trkpt lat="37.12456" lon="-8.30062">
        <ele>57.828</ele>
        <time>2011-08-05T15:12:56Z</time>
      </trkpt>
      <trkpt lat="37.125" lon="-8.3013">
        <ele>52.982</ele>
        <time>2011-08-05T15:13:03Z</time>
      </trkpt>
      <trkpt lat="37.12537" lon="-8.3015">
        <ele>50.204</ele>
        <time>2011-08-05T15:13:08Z</time>
      </trkpt>
      <trkpt lat="37.12552" lon="-8.30153">
        <ele>50.403</ele>
        <time>2011-08-05T15:13:16Z</time>
      </trkpt>
      <trkpt lat="37.12563" lon="-8.30154">
        <ele>51.482</ele>
        <time>2011-08-05T15:13:33Z</time>
      </trkpt>
      <trkpt lat="37.12623" lon="-8.30132">
        <ele>52.046</ele>
        <time>2011-08-05T15:13:42Z</time>
      </trkpt>
      <trkpt lat="37.12705" lon="-8.30102">
        <ele>51.754</ele>
        <time>2011-08-05T15:13:53Z</time>
      </trkpt>
      <trkpt lat="37.12774" lon="-8.30099">
        <ele>54.051</ele>
        <time>2011-08-05T15:14:02Z</time>
      </trkpt>
      <trkpt lat="37.12782" lon="-8.30099">
        <ele>55.505</ele>
        <time>2011-08-05T15:14:10Z</time>
      </trkpt>
      <trkpt lat="37.12799" lon="-8.30084">
        <ele>55.59</ele>
        <time>2011-08-05T15:14:21Z</time>
      </trkpt>
      <trkpt lat="37.12825" lon="-8.30089">
        <ele>54.676</ele>
        <time>2011-08-05T15:14:27Z</time>
      </trkpt>
      <trkpt lat="37.12821" lon="-8.30107">
        <ele>53.763</ele>
        <time>2011-08-05T15:14:30Z</time>
      </trkpt>
      <trkpt lat="37.12813" lon="-8.30125">
        <ele>52.79</ele>
        <time>2011-08-05T15:14:32Z</time>
      </trkpt>
      <trkpt lat="37.12819" lon="-8.30256">
        <ele>49.804</ele>
        <time>2011-08-05T15:14:43Z</time>
      </trkpt>
      <trkpt lat="37.1283" lon="-8.30523">
        <ele>44.429</ele>
        <time>2011-08-05T15:14:59Z</time>
      </trkpt>
      <trkpt lat="37.12816" lon="-8.3069">
        <ele>42.464</ele>
        <time>2011-08-05T15:15:08Z</time>
      </trkpt>
      <trkpt lat="37.12758" lon="-8.30985">
        <ele>41.065</ele>
        <time>2011-08-05T15:15:22Z</time>
      </trkpt>
      <trkpt lat="37.12737" lon="-8.31214">
        <ele>37.621</ele>
        <time>2011-08-05T15:15:32Z</time>
      </trkpt>
      <trkpt lat="37.12755" lon="-8.3141">
        <ele>33.5</ele>
        <time>2011-08-05T15:15:41Z</time>
      </trkpt>
      <trkpt lat="37.12761" lon="-8.31498">
        <ele>31.816</ele>
        <time>2011-08-05T15:15:49Z</time>
      </trkpt>
      <trkpt lat="37.12769" lon="-8.31584">
        <ele>33.787</ele>
        <time>2011-08-05T15:15:52Z</time>
      </trkpt>
      <trkpt lat="37.12734" lon="-8.31601">
        <ele>35.119</ele>
        <time>2011-08-05T15:15:56Z</time>
      </trkpt>
      <trkpt lat="37.12598" lon="-8.3169">
        <ele>32.873</ele>
        <time>2011-08-05T15:16:06Z</time>
      </trkpt>
      <trkpt lat="37.12517" lon="-8.31746">
        <ele>31.613</ele>
        <time>2011-08-05T15:16:11Z</time>
      </trkpt>
      <trkpt lat="37.12444" lon="-8.31854">
        <ele>35.316</ele>
        <time>2011-08-05T15:16:17Z</time>
      </trkpt>
      <trkpt lat="37.12437" lon="-8.319">
        <ele>36.531</ele>
        <time>2011-08-05T15:16:19Z</time>
      </trkpt>
      <trkpt lat="37.12427" lon="-8.32241">
        <ele>50.37</ele>
        <time>2011-08-05T15:16:33Z</time>
      </trkpt>
      <trkpt lat="37.12423" lon="-8.3261">
        <ele>52.901</ele>
        <time>2011-08-05T15:16:48Z</time>
      </trkpt>
      <trkpt lat="37.12417" lon="-8.33055">
        <ele>53.559</ele>
        <time>2011-08-05T15:17:06Z</time>
      </trkpt>
      <trkpt lat="37.12413" lon="-8.33297">
        <ele>52.047</ele>
        <time>2011-08-05T15:17:18Z</time>
      </trkpt>
      <trkpt lat="37.12413" lon="-8.33462">
        <ele>52.405</ele>
        <time>2011-08-05T15:17:29Z</time>
      </trkpt>
      <trkpt lat="37.12409" lon="-8.33699">
        <ele>54.437</ele>
        <time>2011-08-05T15:17:46Z</time>
      </trkpt>
      <trkpt lat="37.12378" lon="-8.33879">
        <ele>51.306</ele>
        <time>2011-08-05T15:17:58Z</time>
      </trkpt>
      <trkpt lat="37.12328" lon="-8.34176">
        <ele>44.809</ele>
        <time>2011-08-05T15:18:15Z</time>
      </trkpt>
      <trkpt lat="37.12356" lon="-8.3433">
        <ele>37.179</ele>
        <time>2011-08-05T15:18:23Z</time>
      </trkpt>
      <trkpt lat="37.12425" lon="-8.34443">
        <ele>29.563</ele>
        <time>2011-08-05T15:18:30Z</time>
      </trkpt>
      <trkpt lat="37.12547" lon="-8.34545">
        <ele>21.699</ele>
        <time>2011-08-05T15:18:39Z</time>
      </trkpt>
      <trkpt lat="37.12614" lon="-8.34585">
        <ele>21.836</ele>
        <time>2011-08-05T15:18:45Z</time>
      </trkpt>
      <trkpt lat="37.12669" lon="-8.34611">
        <ele>21.226</ele>
        <time>2011-08-05T15:18:52Z</time>
      </trkpt>
      <trkpt lat="37.12688" lon="-8.34617">
        <ele>21.19</ele>
        <time>2011-08-05T15:18:54Z</time>
      </trkpt>
      <trkpt lat="37.12854" lon="-8.3466">
        <ele>23.746</ele>
        <time>2011-08-05T15:19:09Z</time>
      </trkpt>
      <trkpt lat="37.12995" lon="-8.34744">
        <ele>28.82</ele>
        <time>2011-08-05T15:19:22Z</time>
      </trkpt>
      <trkpt lat="37.13093" lon="-8.34806">
        <ele>35.282</ele>
        <time>2011-08-05T15:19:32Z</time>
      </trkpt>
      <trkpt lat="37.13106" lon="-8.34809">
        <ele>37.159</ele>
        <time>2011-08-05T15:19:34Z</time>
      </trkpt>
      <trkpt lat="37.13111" lon="-8.34862">
        <ele>38.67</ele>
        <time>2011-08-05T15:19:39Z</time>
      </trkpt>
      <trkpt lat="37.13158" lon="-8.35005">
        <ele>44.531</ele>
        <time>2011-08-05T15:19:49Z</time>
      </trkpt>
      <trkpt lat="37.13198" lon="-8.35166">
        <ele>48.018</ele>
        <time>2011-08-05T15:19:58Z</time>
      </trkpt>
      <trkpt lat="37.1324" lon="-8.35408">
        <ele>56.668</ele>
        <time>2011-08-05T15:20:11Z</time>
      </trkpt>
      <trkpt lat="37.13276" lon="-8.35611">
        <ele>57.37</ele>
        <time>2011-08-05T15:20:25Z</time>
      </trkpt>
      <trkpt lat="37.13309" lon="-8.35767">
        <ele>51.18</ele>
        <time>2011-08-05T15:20:37Z</time>
      </trkpt>
      <trkpt lat="37.13333" lon="-8.35815">
        <ele>49.954</ele>
        <time>2011-08-05T15:20:44Z</time>
      </trkpt>
      <trkpt lat="37.13354" lon="-8.35818">
        <ele>49.606</ele>
        <time>2011-08-05T15:20:47Z</time>
      </trkpt>
      <trkpt lat="37.13379" lon="-8.35883">
        <ele>49.235</ele>
        <time>2011-08-05T15:20:53Z</time>
      </trkpt>
      <trkpt lat="37.13363" lon="-8.35916">
        <ele>46.625</ele>
        <time>2011-08-05T15:20:56Z</time>
      </trkpt>
      <trkpt lat="37.1335" lon="-8.35986">
        <ele>45.499</ele>
        <time>2011-08-05T15:21:01Z</time>
      </trkpt>
      <trkpt lat="37.13385" lon="-8.36204">
        <ele>50.866</ele>
        <time>2011-08-05T15:21:14Z</time>
      </trkpt>
      <trkpt lat="37.13407" lon="-8.3633">
        <ele>52.846</ele>
        <time>2011-08-05T15:21:24Z</time>
      </trkpt>
      <trkpt lat="37.13438" lon="-8.36508">
        <ele>61.188</ele>
        <time>2011-08-05T15:21:37Z</time>
      </trkpt>
      <trkpt lat="37.13473" lon="-8.36706">
        <ele>57.601</ele>
        <time>2011-08-05T15:21:51Z</time>
      </trkpt>
      <trkpt lat="37.13509" lon="-8.36899">
        <ele>51.442</ele>
        <time>2011-08-05T15:22:02Z</time>
      </trkpt>
      <trkpt lat="37.13559" lon="-8.37231">
        <ele>43.717</ele>
        <time>2011-08-05T15:22:17Z</time>
      </trkpt>
      <trkpt lat="37.13543" lon="-8.37409">
        <ele>43.141</ele>
        <time>2011-08-05T15:22:24Z</time>
      </trkpt>
      <trkpt lat="37.1348" lon="-8.37661">
        <ele>51.382</ele>
        <time>2011-08-05T15:22:34Z</time>
      </trkpt>
      <trkpt lat="37.13489" lon="-8.37832">
        <ele>56.936</ele>
        <time>2011-08-05T15:22:41Z</time>
      </trkpt>
      <trkpt lat="37.13535" lon="-8.38252">
        <ele>65.802</ele>
        <time>2011-08-05T15:22:58Z</time>
      </trkpt>
      <trkpt lat="37.13559" lon="-8.38505">
        <ele>73.364</ele>
        <time>2011-08-05T15:23:08Z</time>
      </trkpt>
      <trkpt lat="37.1355" lon="-8.38602">
        <ele>75.701</ele>
        <time>2011-08-05T15:23:12Z</time>
      </trkpt>
      <trkpt lat="37.13465" lon="-8.38978">
        <ele>71.706</ele>
        <time>2011-08-05T15:23:27Z</time>
      </trkpt>
      <trkpt lat="37.13436" lon="-8.39069">
        <ele>70.524</ele>
        <time>2011-08-05T15:23:31Z</time>
      </trkpt>
      <trkpt lat="37.13383" lon="-8.39146">
        <ele>67.543</ele>
        <time>2011-08-05T15:23:35Z</time>
      </trkpt>
      <trkpt lat="37.1315" lon="-8.39422">
        <ele>66.048</ele>
        <time>2011-08-05T15:23:50Z</time>
      </trkpt>
      <trkpt lat="37.12938" lon="-8.39665">
        <ele>67.052</ele>
        <time>2011-08-05T15:24:04Z</time>
      </trkpt>
      <trkpt lat="37.12741" lon="-8.39895">
        <ele>77.913</ele>
        <time>2011-08-05T15:24:18Z</time>
      </trkpt>
      <trkpt lat="37.12704" lon="-8.39991">
        <ele>80.654</ele>
        <time>2011-08-05T15:24:23Z</time>
      </trkpt>
      <trkpt lat="37.12679" lon="-8.4015">
        <ele>87.607</ele>
        <time>2011-08-05T15:24:32Z</time>
      </trkpt>
      <trkpt lat="37.12689" lon="-8.40189">
        <ele>88.476</ele>
        <time>2011-08-05T15:24:35Z</time>
      </trkpt>
      <trkpt lat="37.12668" lon="-8.40237">
        <ele>91.492</ele>
        <time>2011-08-05T15:24:40Z</time>
      </trkpt>
      <trkpt lat="37.12644" lon="-8.40414">
        <ele>92.961</ele>
        <time>2011-08-05T15:24:54Z</time>
      </trkpt>
      <trkpt lat="37.12626" lon="-8.40561">
        <ele>91.822</ele>
        <time>2011-08-05T15:25:03Z</time>
      </trkpt>
      <trkpt lat="37.12634" lon="-8.40741">
        <ele>91.255</ele>
        <time>2011-08-05T15:25:12Z</time>
      </trkpt>
      <trkpt lat="37.12672" lon="-8.4107">
        <ele>89.279</ele>
        <time>2011-08-05T15:25:28Z</time>
      </trkpt>
      <trkpt lat="37.12684" lon="-8.41283">
        <ele>94.544</ele>
        <time>2011-08-05T15:25:38Z</time>
      </trkpt>
      <trkpt lat="37.12684" lon="-8.41363">
        <ele>95.584</ele>
        <time>2011-08-05T15:25:42Z</time>
      </trkpt>
      <trkpt lat="37.12719" lon="-8.41451">
        <ele>96.489</ele>
        <time>2011-08-05T15:25:47Z</time>
      </trkpt>
      <trkpt lat="37.12835" lon="-8.41661">
        <ele>94.942</ele>
        <time>2011-08-05T15:25:59Z</time>
      </trkpt>
      <trkpt lat="37.12849" lon="-8.41779">
        <ele>90.793</ele>
        <time>2011-08-05T15:26:05Z</time>
      </trkpt>
      <trkpt lat="37.12837" lon="-8.41913">
        <ele>86.465</ele>
        <time>2011-08-05T15:26:13Z</time>
      </trkpt>
      <trkpt lat="37.12828" lon="-8.42021">
        <ele>84.2</ele>
        <time>2011-08-05T15:26:23Z</time>
      </trkpt>
      <trkpt lat="37.12824" lon="-8.4206">
        <ele>82.902</ele>
        <time>2011-08-05T15:26:33Z</time>
      </trkpt>
      <trkpt lat="37.1282" lon="-8.42109">
        <ele>81.176</ele>
        <time>2011-08-05T15:26:41Z</time>
      </trkpt>
      <trkpt lat="37.12809" lon="-8.42246">
        <ele>75.445</ele>
        <time>2011-08-05T15:26:52Z</time>
      </trkpt>
      <trkpt lat="37.12802" lon="-8.42335">
        <ele>71.85</ele>
        <time>2011-08-05T15:26:59Z</time>
      </trkpt>
      <trkpt lat="37.12802" lon="-8.42335">
        <ele>69.577</ele>
        <time>2011-08-05T15:27:15Z</time>
      </trkpt>
      <trkpt lat="37.12802" lon="-8.42335">
        <ele>69.546</ele>
        <time>2011-08-05T15:27:16Z</time>
      </trkpt>
      <trkpt lat="37.12796" lon="-8.42399">
        <ele>66.67</ele>
        <time>2011-08-05T15:27:24Z</time>
      </trkpt>
      <trkpt lat="37.12785" lon="-8.42518">
        <ele>62.969</ele>
        <time>2011-08-05T15:27:31Z</time>
      </trkpt>
      <trkpt lat="37.12762" lon="-8.42768">
        <ele>61.325</ele>
        <time>2011-08-05T15:27:42Z</time>
      </trkpt>
      <trkpt lat="37.12745" lon="-8.43084">
        <ele>57.66</ele>
        <time>2011-08-05T15:27:55Z</time>
      </trkpt>
      <trkpt lat="37.12803" lon="-8.43314">
        <ele>53.884</ele>
        <time>2011-08-05T15:28:05Z</time>
      </trkpt>
      <trkpt lat="37.12896" lon="-8.43655">
        <ele>53.844</ele>
        <time>2011-08-05T15:28:20Z</time>
      </trkpt>
      <trkpt lat="37.1291" lon="-8.4384">
        <ele>53.578</ele>
        <time>2011-08-05T15:28:28Z</time>
      </trkpt>
      <trkpt lat="37.1298" lon="-8.44087">
        <ele>52.198</ele>
        <time>2011-08-05T15:28:40Z</time>
      </trkpt>
      <trkpt lat="37.13043" lon="-8.4431">
        <ele>56.847</ele>
        <time>2011-08-05T15:28:53Z</time>
      </trkpt>
      <trkpt lat="37.13086" lon="-8.44488">
        <ele>52.207</ele>
        <time>2011-08-05T15:29:05Z</time>
      </trkpt>
      <trkpt lat="37.13124" lon="-8.44628">
        <ele>49.902</ele>
        <time>2011-08-05T15:29:17Z</time>
      </trkpt>
      <trkpt lat="37.13135" lon="-8.44657">
        <ele>49.821</ele>
        <time>2011-08-05T15:29:24Z</time>
      </trkpt>
      <trkpt lat="37.13147" lon="-8.44688">
        <ele>49.183</ele>
        <time>2011-08-05T15:29:53Z</time>
      </trkpt>
      <trkpt lat="37.13175" lon="-8.44781">
        <ele>47.669</ele>
        <time>2011-08-05T15:30:05Z</time>
      </trkpt>
      <trkpt lat="37.13192" lon="-8.44898">
        <ele>50.564</ele>
        <time>2011-08-05T15:30:18Z</time>
      </trkpt>
      <trkpt lat="37.13213" lon="-8.45027">
        <ele>51.912</ele>
        <time>2011-08-05T15:30:31Z</time>
      </trkpt>
      <trkpt lat="37.13235" lon="-8.45168">
        <ele>50.341</ele>
        <time>2011-08-05T15:30:42Z</time>
      </trkpt>
      <trkpt lat="37.13253" lon="-8.45284">
        <ele>50.457</ele>
        <time>2011-08-05T15:30:51Z</time>
      </trkpt>
      <trkpt lat="37.13274" lon="-8.4545">
        <ele>53.371</ele>
        <time>2011-08-05T15:31:00Z</time>
      </trkpt>
      <trkpt lat="37.13323" lon="-8.45626">
        <ele>58.342</ele>
        <time>2011-08-05T15:31:09Z</time>
      </trkpt>
      <trkpt lat="37.13421" lon="-8.45806">
        <ele>64.754</ele>
        <time>2011-08-05T15:31:20Z</time>
      </trkpt>
      <trkpt lat="37.13476" lon="-8.45904">
        <ele>62.965</ele>
        <time>2011-08-05T15:31:28Z</time>
      </trkpt>
      <trkpt lat="37.13506" lon="-8.45908">
        <ele>62.766</ele>
        <time>2011-08-05T15:31:32Z</time>
      </trkpt>
      <trkpt lat="37.13506" lon="-8.45959">
        <ele>61.785</ele>
        <time>2011-08-05T15:31:36Z</time>
      </trkpt>
      <trkpt lat="37.13595" lon="-8.46107">
        <ele>57.706</ele>
        <time>2011-08-05T15:31:46Z</time>
      </trkpt>
      <trkpt lat="37.13725" lon="-8.46355">
        <ele>56.766</ele>
        <time>2011-08-05T15:31:58Z</time>
      </trkpt>
      <trkpt lat="37.13856" lon="-8.46663">
        <ele>62.353</ele>
        <time>2011-08-05T15:32:12Z</time>
      </trkpt>
      <trkpt lat="37.13993" lon="-8.47012">
        <ele>64.704</ele>
        <time>2011-08-05T15:32:27Z</time>
      </trkpt>
      <trkpt lat="37.14171" lon="-8.47388">
        <ele>52.782</ele>
        <time>2011-08-05T15:32:43Z</time>
      </trkpt>
      <trkpt lat="37.14312" lon="-8.47582">
        <ele>44.392</ele>
        <time>2011-08-05T15:32:53Z</time>
      </trkpt>
      <trkpt lat="37.14481" lon="-8.47709">
        <ele>41.202</ele>
        <time>2011-08-05T15:33:03Z</time>
      </trkpt>
      <trkpt lat="37.14711" lon="-8.47842">
        <ele>38.064</ele>
        <time>2011-08-05T15:33:16Z</time>
      </trkpt>
      <trkpt lat="37.14911" lon="-8.47965">
        <ele>31.476</ele>
        <time>2011-08-05T15:33:27Z</time>
      </trkpt>
      <trkpt lat="37.15037" lon="-8.48101">
        <ele>30.495</ele>
        <time>2011-08-05T15:33:36Z</time>
      </trkpt>
      <trkpt lat="37.15135" lon="-8.48259">
        <ele>32.397</ele>
        <time>2011-08-05T15:33:46Z</time>
      </trkpt>
      <trkpt lat="37.15205" lon="-8.48448">
        <ele>34.596</ele>
        <time>2011-08-05T15:33:56Z</time>
      </trkpt>
      <trkpt lat="37.15271" lon="-8.48712">
        <ele>36.155</ele>
        <time>2011-08-05T15:34:07Z</time>
      </trkpt>
      <trkpt lat="37.15327" lon="-8.49034">
        <ele>32.513</ele>
        <time>2011-08-05T15:34:20Z</time>
      </trkpt>
      <trkpt lat="37.15311" lon="-8.49243">
        <ele>25.239</ele>
        <time>2011-08-05T15:34:28Z</time>
      </trkpt>
      <trkpt lat="37.15276" lon="-8.49419">
        <ele>17.703</ele>
        <time>2011-08-05T15:34:35Z</time>
      </trkpt>
      <trkpt lat="37.15097" lon="-8.49839">
        <ele>12.713</ele>
        <time>2011-08-05T15:34:52Z</time>
      </trkpt>
      <trkpt lat="37.15096" lon="-8.49996">
        <ele>13.547</ele>
        <time>2011-08-05T15:34:58Z</time>
      </trkpt>
      <trkpt lat="37.15116" lon="-8.50298">
        <ele>16.692</ele>
        <time>2011-08-05T15:35:11Z</time>
      </trkpt>
      <trkpt lat="37.15146" lon="-8.50677">
        <ele>21.706</ele>
        <time>2011-08-05T15:35:28Z</time>
      </trkpt>
      <trkpt lat="37.15173" lon="-8.51018">
        <ele>17.523</ele>
        <time>2011-08-05T15:35:43Z</time>
      </trkpt>
      <trkpt lat="37.15197" lon="-8.51304">
        <ele>16.093</ele>
        <time>2011-08-05T15:35:56Z</time>
      </trkpt>
      <trkpt lat="37.15229" lon="-8.51707">
        <ele>17.523</ele>
        <time>2011-08-05T15:36:12Z</time>
      </trkpt>
      <trkpt lat="37.15286" lon="-8.52174">
        <ele>18.036</ele>
        <time>2011-08-05T15:36:30Z</time>
      </trkpt>
      <trkpt lat="37.15359" lon="-8.52603">
        <ele>21.978</ele>
        <time>2011-08-05T15:36:47Z</time>
      </trkpt>
      <trkpt lat="37.15475" lon="-8.53117">
        <ele>35.638</ele>
        <time>2011-08-05T15:37:08Z</time>
      </trkpt>
      <trkpt lat="37.15551" lon="-8.53422">
        <ele>38.518</ele>
        <time>2011-08-05T15:37:21Z</time>
      </trkpt>
      <trkpt lat="37.15619" lon="-8.53711">
        <ele>39.365</ele>
        <time>2011-08-05T15:37:34Z</time>
      </trkpt>
      <trkpt lat="37.15648" lon="-8.53807">
        <ele>40.583</ele>
        <time>2011-08-05T15:37:40Z</time>
      </trkpt>
      <trkpt lat="37.15689" lon="-8.53835">
        <ele>37.708</ele>
        <time>2011-08-05T15:37:45Z</time>
      </trkpt>
      <trkpt lat="37.15722" lon="-8.538">
        <ele>35.168</ele>
        <time>2011-08-05T15:37:50Z</time>
      </trkpt>
      <trkpt lat="37.15714" lon="-8.53748">
        <ele>32.93</ele>
        <time>2011-08-05T15:37:54Z</time>
      </trkpt>
      <trkpt lat="37.1567" lon="-8.53738">
        <ele>35.553</ele>
        <time>2011-08-05T15:37:58Z</time>
      </trkpt>
      <trkpt lat="37.15658" lon="-8.53741">
        <ele>35.418</ele>
        <time>2011-08-05T15:37:59Z</time>
      </trkpt>
      <trkpt lat="37.15524" lon="-8.53788">
        <ele>34.925</ele>
        <time>2011-08-05T15:38:08Z</time>
      </trkpt>
      <trkpt lat="37.15416" lon="-8.5381">
        <ele>32.46</ele>
        <time>2011-08-05T15:38:16Z</time>
      </trkpt>
      <trkpt lat="37.15387" lon="-8.53823">
        <ele>32.315</ele>
        <time>2011-08-05T15:38:22Z</time>
      </trkpt>
      <trkpt lat="37.15383" lon="-8.53831">
        <ele>32.384</ele>
        <time>2011-08-05T15:38:24Z</time>
      </trkpt>
      <trkpt lat="37.15362" lon="-8.53835">
        <ele>32.441</ele>
        <time>2011-08-05T15:38:28Z</time>
      </trkpt>
      <trkpt lat="37.15264" lon="-8.53858">
        <ele>30.869</ele>
        <time>2011-08-05T15:38:37Z</time>
      </trkpt>
      <trkpt lat="37.15101" lon="-8.53933">
        <ele>24.194</ele>
        <time>2011-08-05T15:38:49Z</time>
      </trkpt>
      <trkpt lat="37.14917" lon="-8.54003">
        <ele>22.427</ele>
        <time>2011-08-05T15:39:02Z</time>
      </trkpt>
      <trkpt lat="37.14828" lon="-8.54039">
        <ele>22.944</ele>
        <time>2011-08-05T15:39:10Z</time>
      </trkpt>
      <trkpt lat="37.14727" lon="-8.54123">
        <ele>25.033</ele>
        <time>2011-08-05T15:39:21Z</time>
      </trkpt>
      <trkpt lat="37.14651" lon="-8.54197">
        <ele>22.347</ele>
        <time>2011-08-05T15:39:24Z</time>
      </trkpt>
      <trkpt lat="37.14643" lon="-8.54204">
        <ele>21.531</ele>
        <time>2011-08-05T15:39:25Z</time>
      </trkpt>
      <trkpt lat="37.14539" lon="-8.5429">
        <ele>22.281</ele>
        <time>2011-08-05T15:39:32Z</time>
      </trkpt>
      <trkpt lat="37.14378" lon="-8.54414">
        <ele>26.275</ele>
        <time>2011-08-05T15:39:44Z</time>
      </trkpt>
      <trkpt lat="37.14261" lon="-8.54511">
        <ele>29.38</ele>
        <time>2011-08-05T15:39:54Z</time>
      </trkpt>
      <trkpt lat="37.1425" lon="-8.54524">
        <ele>27.551</ele>
        <time>2011-08-05T15:40:00Z</time>
      </trkpt>
      <trkpt lat="37.14241" lon="-8.54545">
        <ele>25.152</ele>
        <time>2011-08-05T15:40:13Z</time>
      </trkpt>
      <trkpt lat="37.14259" lon="-8.54543">
        <ele>24.552</ele>
        <time>2011-08-05T15:41:24Z</time>
      </trkpt>
      <trkpt lat="37.14246" lon="-8.54565">
        <ele>24.66</ele>
        <time>2011-08-05T15:41:28Z</time>
      </trkpt>
      <trkpt lat="37.14236" lon="-8.54586">
        <ele>24.294</ele>
        <time>2011-08-05T15:41:36Z</time>
      </trkpt>
      <trkpt lat="37.14233" lon="-8.5459">
        <ele>24.616</ele>
        <time>2011-08-05T15:42:31Z</time>
      </trkpt>
      <trkpt lat="37.14203" lon="-8.54558">
        <ele>24.918</ele>
        <time>2011-08-05T15:42:39Z</time>
      </trkpt>
      <trkpt lat="37.14202" lon="-8.54544">
        <ele>25.04</ele>
        <time>2011-08-05T15:42:41Z</time>
      </trkpt>
      <trkpt lat="37.14188" lon="-8.54508">
        <ele>25.258</ele>
        <time>2011-08-05T15:42:48Z</time>
      </trkpt>
      <trkpt lat="37.1413" lon="-8.54478">
        <ele>26.511</ele>
        <time>2011-08-05T15:43:02Z</time>
      </trkpt>
      <trkpt lat="37.14124" lon="-8.54475">
        <ele>26.598</ele>
        <time>2011-08-05T15:43:03Z</time>
      </trkpt>
      <trkpt lat="37.14106" lon="-8.54465">
        <ele>26.837</ele>
        <time>2011-08-05T15:43:07Z</time>
      </trkpt>
      <trkpt lat="37.1408" lon="-8.54424">
        <ele>27.098</ele>
        <time>2011-08-05T15:43:12Z</time>
      </trkpt>
      <trkpt lat="37.14085" lon="-8.54401">
        <ele>26.999</ele>
        <time>2011-08-05T15:43:16Z</time>
      </trkpt>
      <trkpt lat="37.14088" lon="-8.54388">
        <ele>26.678</ele>
        <time>2011-08-05T15:43:25Z</time>
      </trkpt>
      <trkpt lat="37.14088" lon="-8.54388">
        <ele>26.319</ele>
        <time>2011-08-05T15:43:41Z</time>
      </trkpt>
      <trkpt lat="37.14098" lon="-8.54342">
        <ele>26.488</ele>
        <time>2011-08-05T15:43:51Z</time>
      </trkpt>
      <trkpt lat="37.14104" lon="-8.54238">
        <ele>27.693</ele>
        <time>2011-08-05T15:44:02Z</time>
      </trkpt>
      <trkpt lat="37.14104" lon="-8.54096">
        <ele>27.622</ele>
        <time>2011-08-05T15:44:16Z</time>
      </trkpt>
      <trkpt lat="37.14104" lon="-8.54089">
        <ele>27.304</ele>
        <time>2011-08-05T15:44:17Z</time>
      </trkpt>
      <trkpt lat="37.14104" lon="-8.54066">
        <ele>26.84</ele>
        <time>2011-08-05T15:44:20Z</time>
      </trkpt>
      <trkpt lat="37.14104" lon="-8.53964">
        <ele>25.052</ele>
        <time>2011-08-05T15:44:32Z</time>
      </trkpt>
      <trkpt lat="37.14099" lon="-8.53959">
        <ele>24.248</ele>
        <time>2011-08-05T15:44:36Z</time>
      </trkpt>
      <trkpt lat="37.14091" lon="-8.53957">
        <ele>24.168</ele>
        <time>2011-08-05T15:44:38Z</time>
      </trkpt>
      <trkpt lat="37.14024" lon="-8.53949">
        <ele>24.755</ele>
        <time>2011-08-05T15:44:49Z</time>
      </trkpt>
      <trkpt lat="37.13965" lon="-8.53947">
        <ele>25.624</ele>
        <time>2011-08-05T15:45:01Z</time>
      </trkpt>
      <trkpt lat="37.13965" lon="-8.53947">
        <ele>26.034</ele>
        <time>2011-08-05T15:45:13Z</time>
      </trkpt>
      <trkpt lat="37.13965" lon="-8.53947">
        <ele>25.846</ele>
        <time>2011-08-05T15:45:35Z</time>
      </trkpt>
      <trkpt lat="37.13965" lon="-8.53947">
        <ele>25.701</ele>
        <time>2011-08-05T15:45:47Z</time>
      </trkpt>
      <trkpt lat="37.13933" lon="-8.5393">
        <ele>25.813</ele>
        <time>2011-08-05T15:45:56Z</time>
      </trkpt>
      <trkpt lat="37.13933" lon="-8.53879">
        <ele>26.572</ele>
        <time>2011-08-05T15:46:09Z</time>
      </trkpt>
      <trkpt lat="37.13933" lon="-8.53879">
        <ele>26.631</ele>
        <time>2011-08-05T15:46:10Z</time>
      </trkpt>
      <trkpt lat="37.13933" lon="-8.53869">
        <ele>26.629</ele>
        <time>2011-08-05T15:46:12Z</time>
      </trkpt>
      <trkpt lat="37.139" lon="-8.53867">
        <ele>26.623</ele>
        <time>2011-08-05T15:46:21Z</time>
      </trkpt>
      <trkpt lat="37.13882" lon="-8.53866">
        <ele>26.252</ele>
        <time>2011-08-05T15:46:25Z</time>
      </trkpt>
      <trkpt lat="37.13872" lon="-8.53865">
        <ele>25.915</ele>
        <time>2011-08-05T15:46:29Z</time>
      </trkpt>
      <trkpt lat="37.13872" lon="-8.53865">
        <ele>25.687</ele>
        <time>2011-08-05T15:46:33Z</time>
      </trkpt>
      <trkpt lat="37.13787" lon="-8.53861">
        <ele>25.222</ele>
        <time>2011-08-05T15:46:44Z</time>
      </trkpt>
      <trkpt lat="37.13772" lon="-8.53861">
        <ele>25.091</ele>
        <time>2011-08-05T15:46:46Z</time>
      </trkpt>
      <trkpt lat="37.13761" lon="-8.53869">
        <ele>25.207</ele>
        <time>2011-08-05T15:46:51Z</time>
      </trkpt>
      <trkpt lat="37.13754" lon="-8.539">
        <ele>24.814</ele>
        <time>2011-08-05T15:46:59Z</time>
      </trkpt>
      <trkpt lat="37.13749" lon="-8.53922">
        <ele>23.139</ele>
        <time>2011-08-05T15:47:05Z</time>
      </trkpt>
      <trkpt lat="37.13776" lon="-8.53927">
        <ele>20.804</ele>
        <time>2011-08-05T15:47:11Z</time>
      </trkpt>
      <trkpt lat="37.13804" lon="-8.53928">
        <ele>14.891</ele>
        <time>2011-08-05T15:47:22Z</time>
      </trkpt>
      <trkpt lat="37.13856" lon="-8.5393">
        <ele>13.094</ele>
        <time>2011-08-05T15:47:29Z</time>
      </trkpt>
      <trkpt lat="37.13893" lon="-8.5393">
        <ele>8.832</ele>
        <time>2011-08-05T15:47:41Z</time>
      </trkpt>
      <trkpt lat="37.13893" lon="-8.5393">
        <ele>5.724</ele>
        <time>2011-08-05T15:48:24Z</time>
      </trkpt>
      <trkpt lat="37.13893" lon="-8.5393">
        <ele>4.445</ele>
        <time>2011-08-05T15:48:56Z</time>
      </trkpt>
      <trkpt lat="37.13933" lon="-8.53913">
        <ele>4.903</ele>
        <time>2011-08-05T15:49:00Z</time>
      </trkpt>
      <trkpt lat="37.13933" lon="-8.53874">
        <ele>8.55</ele>
        <time>2011-08-05T15:49:09Z</time>
      </trkpt>
      <trkpt lat="37.13916" lon="-8.53868">
        <ele>11.262</ele>
        <time>2011-08-05T15:49:13Z</time>
      </trkpt>
      <trkpt lat="37.13882" lon="-8.53866">
        <ele>16.953</ele>
        <time>2011-08-05T15:49:23Z</time>
      </trkpt>
      <trkpt lat="37.13875" lon="-8.53853">
        <ele>23.263</ele>
        <time>2011-08-05T15:49:28Z</time>
      </trkpt>
      <trkpt lat="37.13893" lon="-8.53791">
        <ele>31.643</ele>
        <time>2011-08-05T15:49:44Z</time>
      </trkpt>
      <trkpt lat="37.13894" lon="-8.53749">
        <ele>27.607</ele>
        <time>2011-08-05T15:49:56Z</time>
      </trkpt>
      <trkpt lat="37.13896" lon="-8.53733">
        <ele>26.879</ele>
        <time>2011-08-05T15:50:02Z</time>
      </trkpt>
      <trkpt lat="37.13897" lon="-8.53723">
        <ele>26.654</ele>
        <time>2011-08-05T15:50:16Z</time>
      </trkpt>
      <trkpt lat="37.13897" lon="-8.53672">
        <ele>27.135</ele>
        <time>2011-08-05T15:50:27Z</time>
      </trkpt>
      <trkpt lat="37.13933" lon="-8.53655">
        <ele>29.514</ele>
        <time>2011-08-05T15:50:37Z</time>
      </trkpt>
      <trkpt lat="37.13933" lon="-8.53651">
        <ele>29.484</ele>
        <time>2011-08-05T15:50:39Z</time>
      </trkpt>
      <trkpt lat="37.13935" lon="-8.53597">
        <ele>32.824</ele>
        <time>2011-08-05T15:50:52Z</time>
      </trkpt>
      <trkpt lat="37.13937" lon="-8.53586">
        <ele>33.35</ele>
        <time>2011-08-05T15:50:55Z</time>
      </trkpt>
      <trkpt lat="37.13913" lon="-8.53574">
        <ele>34.542</ele>
        <time>2011-08-05T15:51:05Z</time>
      </trkpt>
      <trkpt lat="37.13904" lon="-8.5357">
        <ele>35.638</ele>
        <time>2011-08-05T15:51:09Z</time>
      </trkpt>
      <trkpt lat="37.13894" lon="-8.53565">
        <ele>37.455</ele>
        <time>2011-08-05T15:51:15Z</time>
      </trkpt>
      <trkpt lat="37.13872" lon="-8.53554">
        <ele>41.276</ele>
        <time>2011-08-05T15:51:26Z</time>
      </trkpt>
      <trkpt lat="37.13849" lon="-8.53539">
        <ele>42.679</ele>
        <time>2011-08-05T15:51:32Z</time>
      </trkpt>
      <trkpt lat="37.13856" lon="-8.53516">
        <ele>44.59</ele>
        <time>2011-08-05T15:51:44Z</time>
      </trkpt>
      <trkpt lat="37.13856" lon="-8.53516">
        <ele>43.308</ele>
        <time>2011-08-05T15:51:57Z</time>
      </trkpt>
      <trkpt lat="37.13856" lon="-8.53516">
        <ele>43.224</ele>
        <time>2011-08-05T15:51:58Z</time>
      </trkpt>
      <trkpt lat="37.13842" lon="-8.53507">
        <ele>42.905</ele>
        <time>2011-08-05T15:52:00Z</time>
      </trkpt>
      <trkpt lat="37.1384" lon="-8.53462">
        <ele>41.181</ele>
        <time>2011-08-05T15:52:13Z</time>
      </trkpt>
      <trkpt lat="37.13844" lon="-8.53401">
        <ele>39.484</ele>
        <time>2011-08-05T15:52:20Z</time>
      </trkpt>
      <trkpt lat="37.13893" lon="-8.53344">
        <ele>37.379</ele>
        <time>2011-08-05T15:52:31Z</time>
      </trkpt>
      <trkpt lat="37.13901" lon="-8.53334">
        <ele>37.628</ele>
        <time>2011-08-05T15:52:34Z</time>
      </trkpt>
      <trkpt lat="37.13911" lon="-8.53322">
        <ele>37.756</ele>
        <time>2011-08-05T15:52:43Z</time>
      </trkpt>
      <trkpt lat="37.13911" lon="-8.53322">
        <ele>35.292</ele>
        <time>2011-08-05T15:57:56Z</time>
      </trkpt>
      <trkpt lat="37.13924" lon="-8.53307">
        <ele>35.642</ele>
        <time>2011-08-05T15:58:04Z</time>
      </trkpt>
      <trkpt lat="37.13926" lon="-8.53305">
        <ele>35.323</ele>
        <time>2011-08-05T15:58:15Z</time>
      </trkpt>
      <trkpt lat="37.13926" lon="-8.53305">
        <ele>35.29</ele>
        <time>2011-08-05T15:58:18Z</time>
      </trkpt>
      <trkpt lat="37.13907" lon="-8.53327">
        <ele>35.646</ele>
        <time>2011-08-05T15:58:23Z</time>
      </trkpt>
      <trkpt lat="37.13875" lon="-8.53364">
        <ele>35.544</ele>
        <time>2011-08-05T15:58:29Z</time>
      </trkpt>
      <trkpt lat="37.13822" lon="-8.53427">
        <ele>36.59</ele>
        <time>2011-08-05T15:58:39Z</time>
      </trkpt>
      <trkpt lat="37.1381" lon="-8.53442">
        <ele>31.556</ele>
        <time>2011-08-05T15:58:48Z</time>
      </trkpt>
      <trkpt lat="37.13804" lon="-8.53449">
        <ele>29.57</ele>
        <time>2011-08-05T15:59:03Z</time>
      </trkpt>
      <trkpt lat="37.13804" lon="-8.53449">
        <ele>27.956</ele>
        <time>2011-08-05T15:59:12Z</time>
      </trkpt>
      <trkpt lat="37.13827" lon="-8.53539">
        <ele>24.799</ele>
        <time>2011-08-05T15:59:21Z</time>
      </trkpt>
      <trkpt lat="37.13826" lon="-8.53541">
        <ele>24.544</ele>
        <time>2011-08-05T15:59:28Z</time>
      </trkpt>
      <trkpt lat="37.13783" lon="-8.53545">
        <ele>22.77</ele>
        <time>2011-08-05T15:59:33Z</time>
      </trkpt>
      <trkpt lat="37.13817" lon="-8.53563">
        <ele>21.417</ele>
        <time>2011-08-05T15:59:44Z</time>
      </trkpt>
      <trkpt lat="37.1382" lon="-8.53567">
        <ele>21.333</ele>
        <time>2011-08-05T15:59:46Z</time>
      </trkpt>
      <trkpt lat="37.13813" lon="-8.53602">
        <ele>20.31</ele>
        <time>2011-08-05T15:59:54Z</time>
      </trkpt>
      <trkpt lat="37.13812" lon="-8.53606">
        <ele>20.123</ele>
        <time>2011-08-05T15:59:56Z</time>
      </trkpt>
      <trkpt lat="37.13808" lon="-8.53619">
        <ele>19.092</ele>
        <time>2011-08-05T16:00:01Z</time>
      </trkpt>
      <trkpt lat="37.13805" lon="-8.53631">
        <ele>18.586</ele>
        <time>2011-08-05T16:00:03Z</time>
      </trkpt>
      <trkpt lat="37.13796" lon="-8.53673">
        <ele>15.619</ele>
        <time>2011-08-05T16:00:10Z</time>
      </trkpt>
      <trkpt lat="37.13783" lon="-8.53736">
        <ele>12.943</ele>
        <time>2011-08-05T16:00:21Z</time>
      </trkpt>
      <trkpt lat="37.13773" lon="-8.53799">
        <ele>12.177</ele>
        <time>2011-08-05T16:00:31Z</time>
      </trkpt>
      <trkpt lat="37.13765" lon="-8.53858">
        <ele>12.628</ele>
        <time>2011-08-05T16:00:43Z</time>
      </trkpt>
      <trkpt lat="37.13757" lon="-8.53886">
        <ele>12.573</ele>
        <time>2011-08-05T16:00:49Z</time>
      </trkpt>
      <trkpt lat="37.13747" lon="-8.53932">
        <ele>13.347</ele>
        <time>2011-08-05T16:00:57Z</time>
      </trkpt>
      <trkpt lat="37.13735" lon="-8.54009">
        <ele>14.973</ele>
        <time>2011-08-05T16:01:06Z</time>
      </trkpt>
      <trkpt lat="37.13711" lon="-8.54026">
        <ele>16.232</ele>
        <time>2011-08-05T16:01:13Z</time>
      </trkpt>
      <trkpt lat="37.13651" lon="-8.54005">
        <ele>15.791</ele>
        <time>2011-08-05T16:01:24Z</time>
      </trkpt>
      <trkpt lat="37.13654" lon="-8.53985">
        <ele>13.701</ele>
        <time>2011-08-05T16:01:29Z</time>
      </trkpt>
      <trkpt lat="37.13628" lon="-8.53939">
        <ele>14.808</ele>
        <time>2011-08-05T16:01:36Z</time>
      </trkpt>
      <trkpt lat="37.13541" lon="-8.53919">
        <ele>14.798</ele>
        <time>2011-08-05T16:01:48Z</time>
      </trkpt>
      <trkpt lat="37.13469" lon="-8.53903">
        <ele>17.274</ele>
        <time>2011-08-05T16:01:58Z</time>
      </trkpt>
      <trkpt lat="37.13428" lon="-8.53894">
        <ele>20.156</ele>
        <time>2011-08-05T16:02:04Z</time>
      </trkpt>
      <trkpt lat="37.13409" lon="-8.5389">
        <ele>25.143</ele>
        <time>2011-08-05T16:02:13Z</time>
      </trkpt>
      <trkpt lat="37.13394" lon="-8.53887">
        <ele>26.758</ele>
        <time>2011-08-05T16:02:21Z</time>
      </trkpt>
      <trkpt lat="37.13394" lon="-8.53887">
        <ele>29.521</ele>
        <time>2011-08-05T16:02:39Z</time>
      </trkpt>
      <trkpt lat="37.13385" lon="-8.53834">
        <ele>28.25</ele>
        <time>2011-08-05T16:02:47Z</time>
      </trkpt>
      <trkpt lat="37.13377" lon="-8.53768">
        <ele>27.405</ele>
        <time>2011-08-05T16:02:55Z</time>
      </trkpt>
      <trkpt lat="37.13373" lon="-8.53738">
        <ele>25.319</ele>
        <time>2011-08-05T16:02:59Z</time>
      </trkpt>
      <trkpt lat="37.1337" lon="-8.53702">
        <ele>23.785</ele>
        <time>2011-08-05T16:03:07Z</time>
      </trkpt>
      <trkpt lat="37.1337" lon="-8.53651">
        <ele>22.632</ele>
        <time>2011-08-05T16:03:13Z</time>
      </trkpt>
      <trkpt lat="37.13327" lon="-8.53693">
        <ele>20.417</ele>
        <time>2011-08-05T16:03:20Z</time>
      </trkpt>
      <trkpt lat="37.13259" lon="-8.53678">
        <ele>21.252</ele>
        <time>2011-08-05T16:03:31Z</time>
      </trkpt>
      <trkpt lat="37.13219" lon="-8.53668">
        <ele>21.723</ele>
        <time>2011-08-05T16:03:37Z</time>
      </trkpt>
      <trkpt lat="37.1314" lon="-8.53613">
        <ele>23.272</ele>
        <time>2011-08-05T16:03:46Z</time>
      </trkpt>
      <trkpt lat="37.13147" lon="-8.53582">
        <ele>23.112</ele>
        <time>2011-08-05T16:03:50Z</time>
      </trkpt>
      <trkpt lat="37.13105" lon="-8.53557">
        <ele>21.551</ele>
        <time>2011-08-05T16:03:54Z</time>
      </trkpt>
      <trkpt lat="37.13092" lon="-8.53532">
        <ele>20.131</ele>
        <time>2011-08-05T16:03:57Z</time>
      </trkpt>
      <trkpt lat="37.13058" lon="-8.53477">
        <ele>17.971</ele>
        <time>2011-08-05T16:04:06Z</time>
      </trkpt>
      <trkpt lat="37.1304" lon="-8.53454">
        <ele>17.74</ele>
        <time>2011-08-05T16:04:09Z</time>
      </trkpt>
      <trkpt lat="37.1301" lon="-8.53429">
        <ele>17.945</ele>
        <time>2011-08-05T16:04:15Z</time>
      </trkpt>
      <trkpt lat="37.12971" lon="-8.53397">
        <ele>17.394</ele>
        <time>2011-08-05T16:04:23Z</time>
      </trkpt>
      <trkpt lat="37.12948" lon="-8.53369">
        <ele>17.151</ele>
        <time>2011-08-05T16:04:27Z</time>
      </trkpt>
      <trkpt lat="37.12913" lon="-8.53347">
        <ele>17.782</ele>
        <time>2011-08-05T16:04:32Z</time>
      </trkpt>
      <trkpt lat="37.12891" lon="-8.5335">
        <ele>18.202</ele>
        <time>2011-08-05T16:04:34Z</time>
      </trkpt>
      <trkpt lat="37.12851" lon="-8.53355">
        <ele>19.173</ele>
        <time>2011-08-05T16:04:38Z</time>
      </trkpt>
      <trkpt lat="37.12801" lon="-8.53329">
        <ele>19.017</ele>
        <time>2011-08-05T16:04:44Z</time>
      </trkpt>
      <trkpt lat="37.12766" lon="-8.53355">
        <ele>17.872</ele>
        <time>2011-08-05T16:04:49Z</time>
      </trkpt>
      <trkpt lat="37.1269" lon="-8.5343">
        <ele>15.795</ele>
        <time>2011-08-05T16:04:57Z</time>
      </trkpt>
      <trkpt lat="37.12578" lon="-8.53452">
        <ele>14.207</ele>
        <time>2011-08-05T16:05:06Z</time>
      </trkpt>
      <trkpt lat="37.12459" lon="-8.53466">
        <ele>13.587</ele>
        <time>2011-08-05T16:05:15Z</time>
      </trkpt>
      <trkpt lat="37.12403" lon="-8.53475">
        <ele>13.185</ele>
        <time>2011-08-05T16:05:20Z</time>
      </trkpt>
      <trkpt lat="37.12311" lon="-8.53503">
        <ele>12.417</ele>
        <time>2011-08-05T16:05:30Z</time>
      </trkpt>
      <trkpt lat="37.12236" lon="-8.53521">
        <ele>12.857</ele>
        <time>2011-08-05T16:05:41Z</time>
      </trkpt>
      <trkpt lat="37.12231" lon="-8.53522">
        <ele>12.919</ele>
        <time>2011-08-05T16:05:42Z</time>
      </trkpt>
      <trkpt lat="37.12219" lon="-8.53524">
        <ele>16.307</ele>
        <time>2011-08-05T16:05:45Z</time>
      </trkpt>
      <trkpt lat="37.12201" lon="-8.53568">
        <ele>13.74</ele>
        <time>2011-08-05T16:05:50Z</time>
      </trkpt>
      <trkpt lat="37.12158" lon="-8.53576">
        <ele>16.362</ele>
        <time>2011-08-05T16:05:57Z</time>
      </trkpt>
      <trkpt lat="37.12148" lon="-8.53563">
        <ele>16.49</ele>
        <time>2011-08-05T16:06:00Z</time>
      </trkpt>
      <trkpt lat="37.12104" lon="-8.53562">
        <ele>19.844</ele>
        <time>2011-08-05T16:06:06Z</time>
      </trkpt>
      <trkpt lat="37.12028" lon="-8.53589">
        <ele>29.274</ele>
        <time>2011-08-05T16:06:21Z</time>
      </trkpt>
      <trkpt lat="37.12008" lon="-8.53596">
        <ele>30.313</ele>
        <time>2011-08-05T16:06:25Z</time>
      </trkpt>
      <trkpt lat="37.11968" lon="-8.5361">
        <ele>35.816</ele>
        <time>2011-08-05T16:06:34Z</time>
      </trkpt>
      <trkpt lat="37.11935" lon="-8.53621">
        <ele>41.408</ele>
        <time>2011-08-05T16:06:44Z</time>
      </trkpt>
      <trkpt lat="37.11915" lon="-8.53628">
        <ele>45.887</ele>
        <time>2011-08-05T16:06:54Z</time>
      </trkpt>
      <trkpt lat="37.11905" lon="-8.53631">
        <ele>44.392</ele>
        <time>2011-08-05T16:06:59Z</time>
      </trkpt>
      <trkpt lat="37.11888" lon="-8.53585">
        <ele>36.688</ele>
        <time>2011-08-05T16:07:14Z</time>
      </trkpt>
      <trkpt lat="37.11883" lon="-8.53562">
        <ele>35.847</ele>
        <time>2011-08-05T16:07:25Z</time>
      </trkpt>
      <trkpt lat="37.11868" lon="-8.53515">
        <ele>35.675</ele>
        <time>2011-08-05T16:07:35Z</time>
      </trkpt>
      <trkpt lat="37.11848" lon="-8.53453">
        <ele>34.359</ele>
        <time>2011-08-05T16:07:45Z</time>
      </trkpt>
      <trkpt lat="37.11838" lon="-8.53423">
        <ele>33.847</ele>
        <time>2011-08-05T16:07:49Z</time>
      </trkpt>
      <trkpt lat="37.11822" lon="-8.53375">
        <ele>31.749</ele>
        <time>2011-08-05T16:07:56Z</time>
      </trkpt>
      <trkpt lat="37.11816" lon="-8.53357">
        <ele>30.982</ele>
        <time>2011-08-05T16:07:59Z</time>
      </trkpt>
      <trkpt lat="37.11783" lon="-8.53253">
        <ele>31.764</ele>
        <time>2011-08-05T16:08:14Z</time>
      </trkpt>
      <trkpt lat="37.11741" lon="-8.53129">
        <ele>32.234</ele>
        <time>2011-08-05T16:08:33Z</time>
      </trkpt>
      <trkpt lat="37.11711" lon="-8.53043">
        <ele>32.382</ele>
        <time>2011-08-05T16:08:47Z</time>
      </trkpt>
      <trkpt lat="37.1169" lon="-8.52996">
        <ele>30.358</ele>
        <time>2011-08-05T16:08:58Z</time>
      </trkpt>
      <trkpt lat="37.11695" lon="-8.52988">
        <ele>30.357</ele>
        <time>2011-08-05T16:08:59Z</time>
      </trkpt>
      <trkpt lat="37.11713" lon="-8.52985">
        <ele>30.028</ele>
        <time>2011-08-05T16:09:06Z</time>
      </trkpt>
      <trkpt lat="37.11729" lon="-8.52999">
        <ele>30.532</ele>
        <time>2011-08-05T16:09:11Z</time>
      </trkpt>
      <trkpt lat="37.11738" lon="-8.53005">
        <ele>30.562</ele>
        <time>2011-08-05T16:09:13Z</time>
      </trkpt>
      <trkpt lat="37.11787" lon="-8.53041">
        <ele>32.599</ele>
        <time>2011-08-05T16:09:23Z</time>
      </trkpt>
      <trkpt lat="37.11824" lon="-8.53103">
        <ele>33.453</ele>
        <time>2011-08-05T16:09:37Z</time>
      </trkpt>
      <trkpt lat="37.1183" lon="-8.53113">
        <ele>33.274</ele>
        <time>2011-08-05T16:09:39Z</time>
      </trkpt>
      <trkpt lat="37.11838" lon="-8.53127">
        <ele>35.387</ele>
        <time>2011-08-05T16:09:44Z</time>
      </trkpt>
      <trkpt lat="37.11831" lon="-8.5315">
        <ele>34.066</ele>
        <time>2011-08-05T16:09:47Z</time>
      </trkpt>
      <trkpt lat="37.11834" lon="-8.53203">
        <ele>28.015</ele>
        <time>2011-08-05T16:09:58Z</time>
      </trkpt>
      <trkpt lat="37.11857" lon="-8.53274">
        <ele>21.774</ele>
        <time>2011-08-05T16:10:11Z</time>
      </trkpt>
      <trkpt lat="37.11869" lon="-8.533">
        <ele>18.078</ele>
        <time>2011-08-05T16:10:21Z</time>
      </trkpt>
      <trkpt lat="37.11877" lon="-8.5332">
        <ele>11.551</ele>
        <time>2011-08-05T16:10:34Z</time>
      </trkpt>
      <trkpt lat="37.11896" lon="-8.53388">
        <ele>12.529</ele>
        <time>2011-08-05T16:10:46Z</time>
      </trkpt>
      <trkpt lat="37.11925" lon="-8.53445">
        <ele>13.638</ele>
        <time>2011-08-05T16:11:00Z</time>
      </trkpt>
      <trkpt lat="37.11932" lon="-8.5346">
        <ele>14.274</ele>
        <time>2011-08-05T16:11:04Z</time>
      </trkpt>
      <trkpt lat="37.1194" lon="-8.53496">
        <ele>18.229</ele>
        <time>2011-08-05T16:11:15Z</time>
      </trkpt>
      <trkpt lat="37.11941" lon="-8.535">
        <ele>20.59</ele>
        <time>2011-08-05T16:11:29Z</time>
      </trkpt>
    </trkseg>
  </trk>
  <trk>
    <name><![CDATA[ACTIVE LOG185550]]></name>
    <trkseg>
      <trkpt lat="37.11981" lon="-8.53543">
        <ele>36.664</ele>
        <time>2011-08-05T16:55:49Z</time>
      </trkpt>
      <trkpt lat="37.11952" lon="-8.53508">
        <ele>27.937</ele>
        <time>2011-08-05T16:57:37Z</time>
      </trkpt>
      <trkpt lat="37.11937" lon="-8.53508">
        <ele>32.156</ele>
        <time>2011-08-05T16:57:59Z</time>
      </trkpt>
      <trkpt lat="37.11938" lon="-8.53506">
        <ele>31.242</ele>
        <time>2011-08-05T16:58:21Z</time>
      </trkpt>
      <trkpt lat="37.11943" lon="-8.53506">
        <ele>31.016</ele>
        <time>2011-08-05T16:58:36Z</time>
      </trkpt>
      <trkpt lat="37.11944" lon="-8.5352">
        <ele>30.616</ele>
        <time>2011-08-05T16:58:42Z</time>
      </trkpt>
      <trkpt lat="37.11949" lon="-8.53543">
        <ele>31.13</ele>
        <time>2011-08-05T16:58:47Z</time>
      </trkpt>
      <trkpt lat="37.11951" lon="-8.53554">
        <ele>31.024</ele>
        <time>2011-08-05T16:58:49Z</time>
      </trkpt>
      <trkpt lat="37.11968" lon="-8.5361">
        <ele>28.131</ele>
        <time>2011-08-05T16:59:02Z</time>
      </trkpt>
      <trkpt lat="37.11971" lon="-8.53609">
        <ele>28.013</ele>
        <time>2011-08-05T16:59:04Z</time>
      </trkpt>
      <trkpt lat="37.11998" lon="-8.536">
        <ele>35.552</ele>
        <time>2011-08-05T16:59:12Z</time>
      </trkpt>
      <trkpt lat="37.12089" lon="-8.53568">
        <ele>32.988</ele>
        <time>2011-08-05T16:59:22Z</time>
      </trkpt>
      <trkpt lat="37.12118" lon="-8.53557">
        <ele>30.813</ele>
        <time>2011-08-05T16:59:26Z</time>
      </trkpt>
      <trkpt lat="37.12147" lon="-8.53534">
        <ele>24.71</ele>
        <time>2011-08-05T16:59:30Z</time>
      </trkpt>
      <trkpt lat="37.12192" lon="-8.5351">
        <ele>19.773</ele>
        <time>2011-08-05T16:59:38Z</time>
      </trkpt>
      <trkpt lat="37.12205" lon="-8.53558">
        <ele>18.49</ele>
        <time>2011-08-05T16:59:44Z</time>
      </trkpt>
      <trkpt lat="37.12196" lon="-8.5364">
        <ele>17.695</ele>
        <time>2011-08-05T16:59:51Z</time>
      </trkpt>
      <trkpt lat="37.12167" lon="-8.53827">
        <ele>17.928</ele>
        <time>2011-08-05T17:00:03Z</time>
      </trkpt>
      <trkpt lat="37.12131" lon="-8.53984">
        <ele>21.38</ele>
        <time>2011-08-05T17:00:13Z</time>
      </trkpt>
      <trkpt lat="37.12112" lon="-8.54049">
        <ele>22.577</ele>
        <time>2011-08-05T17:00:19Z</time>
      </trkpt>
      <trkpt lat="37.12087" lon="-8.54127">
        <ele>22.665</ele>
        <time>2011-08-05T17:00:28Z</time>
      </trkpt>
      <trkpt lat="37.12034" lon="-8.54286">
        <ele>22.9</ele>
        <time>2011-08-05T17:00:40Z</time>
      </trkpt>
      <trkpt lat="37.12005" lon="-8.5435">
        <ele>23.581</ele>
        <time>2011-08-05T17:00:48Z</time>
      </trkpt>
      <trkpt lat="37.12" lon="-8.54361">
        <ele>24.124</ele>
        <time>2011-08-05T17:00:50Z</time>
      </trkpt>
      <trkpt lat="37.1199" lon="-8.54383">
        <ele>24.23</ele>
        <time>2011-08-05T17:00:53Z</time>
      </trkpt>
      <trkpt lat="37.11977" lon="-8.54415">
        <ele>25.32</ele>
        <time>2011-08-05T17:00:57Z</time>
      </trkpt>
      <trkpt lat="37.11952" lon="-8.54485">
        <ele>25.757</ele>
        <time>2011-08-05T17:01:06Z</time>
      </trkpt>
      <trkpt lat="37.11941" lon="-8.54526">
        <ele>25.738</ele>
        <time>2011-08-05T17:01:10Z</time>
      </trkpt>
      <trkpt lat="37.11915" lon="-8.54685">
        <ele>26.972</ele>
        <time>2011-08-05T17:01:21Z</time>
      </trkpt>
      <trkpt lat="37.11915" lon="-8.54863">
        <ele>25.353</ele>
        <time>2011-08-05T17:01:33Z</time>
      </trkpt>
      <trkpt lat="37.1193" lon="-8.5495">
        <ele>25.261</ele>
        <time>2011-08-05T17:01:43Z</time>
      </trkpt>
      <trkpt lat="37.11934" lon="-8.54971">
        <ele>25.754</ele>
        <time>2011-08-05T17:01:46Z</time>
      </trkpt>
      <trkpt lat="37.11951" lon="-8.55007">
        <ele>26.602</ele>
        <time>2011-08-05T17:01:51Z</time>
      </trkpt>
      <trkpt lat="37.12014" lon="-8.55027">
        <ele>26.635</ele>
        <time>2011-08-05T17:02:01Z</time>
      </trkpt>
      <trkpt lat="37.12024" lon="-8.55025">
        <ele>26.632</ele>
        <time>2011-08-05T17:02:02Z</time>
      </trkpt>
      <trkpt lat="37.12175" lon="-8.54965">
        <ele>30.934</ele>
        <time>2011-08-05T17:02:16Z</time>
      </trkpt>
      <trkpt lat="37.12266" lon="-8.54931">
        <ele>34.532</ele>
        <time>2011-08-05T17:02:25Z</time>
      </trkpt>
      <trkpt lat="37.12432" lon="-8.54869">
        <ele>43.144</ele>
        <time>2011-08-05T17:02:38Z</time>
      </trkpt>
      <trkpt lat="37.12462" lon="-8.54858">
        <ele>45.327</ele>
        <time>2011-08-05T17:02:41Z</time>
      </trkpt>
      <trkpt lat="37.12499" lon="-8.54829">
        <ele>47.609</ele>
        <time>2011-08-05T17:02:45Z</time>
      </trkpt>
      <trkpt lat="37.12508" lon="-8.54814">
        <ele>46.111</ele>
        <time>2011-08-05T17:02:47Z</time>
      </trkpt>
      <trkpt lat="37.12558" lon="-8.54826">
        <ele>47.085</ele>
        <time>2011-08-05T17:02:52Z</time>
      </trkpt>
      <trkpt lat="37.12672" lon="-8.5478">
        <ele>47.049</ele>
        <time>2011-08-05T17:03:01Z</time>
      </trkpt>
      <trkpt lat="37.12842" lon="-8.54707">
        <ele>46.964</ele>
        <time>2011-08-05T17:03:14Z</time>
      </trkpt>
      <trkpt lat="37.12968" lon="-8.54623">
        <ele>45.813</ele>
        <time>2011-08-05T17:03:25Z</time>
      </trkpt>
      <trkpt lat="37.13019" lon="-8.54587">
        <ele>48.606</ele>
        <time>2011-08-05T17:03:32Z</time>
      </trkpt>
      <trkpt lat="37.13024" lon="-8.54584">
        <ele>48.546</ele>
        <time>2011-08-05T17:03:40Z</time>
      </trkpt>
      <trkpt lat="37.13044" lon="-8.54571">
        <ele>48.621</ele>
        <time>2011-08-05T17:04:17Z</time>
      </trkpt>
      <trkpt lat="37.13077" lon="-8.54551">
        <ele>49.943</ele>
        <time>2011-08-05T17:04:32Z</time>
      </trkpt>
      <trkpt lat="37.131" lon="-8.54541">
        <ele>41.19</ele>
        <time>2011-08-05T17:04:43Z</time>
      </trkpt>
      <trkpt lat="37.13118" lon="-8.54533">
        <ele>35.612</ele>
        <time>2011-08-05T17:04:58Z</time>
      </trkpt>
      <trkpt lat="37.13149" lon="-8.54523">
        <ele>33.844</ele>
        <time>2011-08-05T17:05:14Z</time>
      </trkpt>
      <trkpt lat="37.13165" lon="-8.5452">
        <ele>39.925</ele>
        <time>2011-08-05T17:05:27Z</time>
      </trkpt>
      <trkpt lat="37.13191" lon="-8.54515">
        <ele>31.485</ele>
        <time>2011-08-05T17:05:41Z</time>
      </trkpt>
      <trkpt lat="37.13208" lon="-8.54512">
        <ele>30.654</ele>
        <time>2011-08-05T17:05:59Z</time>
      </trkpt>
      <trkpt lat="37.13213" lon="-8.54511">
        <ele>28.257</ele>
        <time>2011-08-05T17:06:11Z</time>
      </trkpt>
      <trkpt lat="37.13218" lon="-8.5451">
        <ele>28.615</ele>
        <time>2011-08-05T17:06:26Z</time>
      </trkpt>
      <trkpt lat="37.13218" lon="-8.5451">
        <ele>27.028</ele>
        <time>2011-08-05T17:06:58Z</time>
      </trkpt>
      <trkpt lat="37.13218" lon="-8.5451">
        <ele>24.063</ele>
        <time>2011-08-05T17:07:12Z</time>
      </trkpt>
      <trkpt lat="37.13277" lon="-8.54504">
        <ele>23.482</ele>
        <time>2011-08-05T17:07:17Z</time>
      </trkpt>
      <trkpt lat="37.13302" lon="-8.54505">
        <ele>23.413</ele>
        <time>2011-08-05T17:07:19Z</time>
      </trkpt>
      <trkpt lat="37.13453" lon="-8.54539">
        <ele>24.758</ele>
        <time>2011-08-05T17:07:34Z</time>
      </trkpt>
      <trkpt lat="37.136" lon="-8.54568">
        <ele>26.184</ele>
        <time>2011-08-05T17:07:46Z</time>
      </trkpt>
      <trkpt lat="37.13699" lon="-8.54593">
        <ele>27.296</ele>
        <time>2011-08-05T17:07:55Z</time>
      </trkpt>
      <trkpt lat="37.13833" lon="-8.54618">
        <ele>25.252</ele>
        <time>2011-08-05T17:08:08Z</time>
      </trkpt>
      <trkpt lat="37.13898" lon="-8.54633">
        <ele>23.641</ele>
        <time>2011-08-05T17:08:18Z</time>
      </trkpt>
      <trkpt lat="37.13905" lon="-8.54636">
        <ele>21.868</ele>
        <time>2011-08-05T17:08:26Z</time>
      </trkpt>
      <trkpt lat="37.13918" lon="-8.54617">
        <ele>22.62</ele>
        <time>2011-08-05T17:08:29Z</time>
      </trkpt>
      <trkpt lat="37.13942" lon="-8.54634">
        <ele>25.038</ele>
        <time>2011-08-05T17:08:35Z</time>
      </trkpt>
      <trkpt lat="37.13951" lon="-8.54649">
        <ele>26.173</ele>
        <time>2011-08-05T17:08:38Z</time>
      </trkpt>
      <trkpt lat="37.14021" lon="-8.54681">
        <ele>21.906</ele>
        <time>2011-08-05T17:08:47Z</time>
      </trkpt>
      <trkpt lat="37.14134" lon="-8.5471">
        <ele>16.188</ele>
        <time>2011-08-05T17:08:57Z</time>
      </trkpt>
      <trkpt lat="37.14287" lon="-8.54814">
        <ele>17.239</ele>
        <time>2011-08-05T17:09:12Z</time>
      </trkpt>
      <trkpt lat="37.14315" lon="-8.54829">
        <ele>18.665</ele>
        <time>2011-08-05T17:09:20Z</time>
      </trkpt>
      <trkpt lat="37.14334" lon="-8.54838">
        <ele>20.361</ele>
        <time>2011-08-05T17:09:28Z</time>
      </trkpt>
      <trkpt lat="37.1439" lon="-8.54851">
        <ele>21.794</ele>
        <time>2011-08-05T17:09:42Z</time>
      </trkpt>
      <trkpt lat="37.14482" lon="-8.54894">
        <ele>24.439</ele>
        <time>2011-08-05T17:09:53Z</time>
      </trkpt>
      <trkpt lat="37.14595" lon="-8.54903">
        <ele>24.843</ele>
        <time>2011-08-05T17:10:04Z</time>
      </trkpt>
      <trkpt lat="37.14709" lon="-8.54875">
        <ele>23.565</ele>
        <time>2011-08-05T17:10:15Z</time>
      </trkpt>
      <trkpt lat="37.14753" lon="-8.54854">
        <ele>21.384</ele>
        <time>2011-08-05T17:10:21Z</time>
      </trkpt>
      <trkpt lat="37.14796" lon="-8.54831">
        <ele>19.558</ele>
        <time>2011-08-05T17:10:27Z</time>
      </trkpt>
      <trkpt lat="37.14825" lon="-8.54812">
        <ele>18.125</ele>
        <time>2011-08-05T17:10:35Z</time>
      </trkpt>
      <trkpt lat="37.14827" lon="-8.54809">
        <ele>17.803</ele>
        <time>2011-08-05T17:10:36Z</time>
      </trkpt>
      <trkpt lat="37.1484" lon="-8.54788">
        <ele>16.641</ele>
        <time>2011-08-05T17:10:40Z</time>
      </trkpt>
      <trkpt lat="37.14861" lon="-8.54791">
        <ele>16.616</ele>
        <time>2011-08-05T17:10:46Z</time>
      </trkpt>
      <trkpt lat="37.14911" lon="-8.54862">
        <ele>19.404</ele>
        <time>2011-08-05T17:10:54Z</time>
      </trkpt>
      <trkpt lat="37.14958" lon="-8.54937">
        <ele>22.535</ele>
        <time>2011-08-05T17:11:03Z</time>
      </trkpt>
      <trkpt lat="37.14991" lon="-8.54998">
        <ele>24.604</ele>
        <time>2011-08-05T17:11:15Z</time>
      </trkpt>
      <trkpt lat="37.15017" lon="-8.55049">
        <ele>27.368</ele>
        <time>2011-08-05T17:11:26Z</time>
      </trkpt>
      <trkpt lat="37.15044" lon="-8.55102">
        <ele>30.377</ele>
        <time>2011-08-05T17:11:36Z</time>
      </trkpt>
      <trkpt lat="37.15089" lon="-8.55199">
        <ele>32.633</ele>
        <time>2011-08-05T17:11:48Z</time>
      </trkpt>
      <trkpt lat="37.15113" lon="-8.55268">
        <ele>32.029</ele>
        <time>2011-08-05T17:11:58Z</time>
      </trkpt>
      <trkpt lat="37.15136" lon="-8.55342">
        <ele>31.844</ele>
        <time>2011-08-05T17:12:11Z</time>
      </trkpt>
      <trkpt lat="37.15145" lon="-8.5537">
        <ele>31.84</ele>
        <time>2011-08-05T17:12:16Z</time>
      </trkpt>
      <trkpt lat="37.15173" lon="-8.55461">
        <ele>31.315</ele>
        <time>2011-08-05T17:12:29Z</time>
      </trkpt>
      <trkpt lat="37.15175" lon="-8.55467">
        <ele>31.106</ele>
        <time>2011-08-05T17:12:30Z</time>
      </trkpt>
      <trkpt lat="37.15201" lon="-8.5556">
        <ele>31.767</ele>
        <time>2011-08-05T17:12:45Z</time>
      </trkpt>
      <trkpt lat="37.15216" lon="-8.55641">
        <ele>29.758</ele>
        <time>2011-08-05T17:12:56Z</time>
      </trkpt>
      <trkpt lat="37.15221" lon="-8.55739">
        <ele>31.099</ele>
        <time>2011-08-05T17:13:06Z</time>
      </trkpt>
      <trkpt lat="37.15239" lon="-8.55829">
        <ele>29.56</ele>
        <time>2011-08-05T17:13:16Z</time>
      </trkpt>
      <trkpt lat="37.1529" lon="-8.55933">
        <ele>29.871</ele>
        <time>2011-08-05T17:13:24Z</time>
      </trkpt>
      <trkpt lat="37.15388" lon="-8.55998">
        <ele>31.852</ele>
        <time>2011-08-05T17:13:33Z</time>
      </trkpt>
      <trkpt lat="37.15429" lon="-8.56013">
        <ele>33.553</ele>
        <time>2011-08-05T17:13:39Z</time>
      </trkpt>
      <trkpt lat="37.15514" lon="-8.5604">
        <ele>38.585</ele>
        <time>2011-08-05T17:13:47Z</time>
      </trkpt>
      <trkpt lat="37.15597" lon="-8.56073">
        <ele>42.677</ele>
        <time>2011-08-05T17:13:54Z</time>
      </trkpt>
      <trkpt lat="37.15687" lon="-8.56154">
        <ele>45.594</ele>
        <time>2011-08-05T17:14:04Z</time>
      </trkpt>
      <trkpt lat="37.15813" lon="-8.5627">
        <ele>37.526</ele>
        <time>2011-08-05T17:14:16Z</time>
      </trkpt>
      <trkpt lat="37.15852" lon="-8.56366">
        <ele>33.497</ele>
        <time>2011-08-05T17:14:22Z</time>
      </trkpt>
      <trkpt lat="37.1585" lon="-8.56478">
        <ele>31.002</ele>
        <time>2011-08-05T17:14:28Z</time>
      </trkpt>
      <trkpt lat="37.15804" lon="-8.56569">
        <ele>30.292</ele>
        <time>2011-08-05T17:14:33Z</time>
      </trkpt>
      <trkpt lat="37.15685" lon="-8.56739">
        <ele>27.291</ele>
        <time>2011-08-05T17:14:42Z</time>
      </trkpt>
      <trkpt lat="37.15658" lon="-8.5687">
        <ele>23.024</ele>
        <time>2011-08-05T17:14:48Z</time>
      </trkpt>
      <trkpt lat="37.15698" lon="-8.56978">
        <ele>16.136</ele>
        <time>2011-08-05T17:14:53Z</time>
      </trkpt>
      <trkpt lat="37.15711" lon="-8.56997">
        <ele>14.114</ele>
        <time>2011-08-05T17:14:54Z</time>
      </trkpt>
      <trkpt lat="37.15812" lon="-8.57107">
        <ele>2.15</ele>
        <time>2011-08-05T17:15:02Z</time>
      </trkpt>
      <trkpt lat="37.15836" lon="-8.57134">
        <ele>-0.389</ele>
        <time>2011-08-05T17:15:05Z</time>
      </trkpt>
      <trkpt lat="37.15863" lon="-8.57143">
        <ele>0.588</ele>
        <time>2011-08-05T17:15:10Z</time>
      </trkpt>
      <trkpt lat="37.15864" lon="-8.57139">
        <ele>7.053</ele>
        <time>2011-08-05T17:15:19Z</time>
      </trkpt>
      <trkpt lat="37.15917" lon="-8.57099">
        <ele>6.478</ele>
        <time>2011-08-05T17:15:26Z</time>
      </trkpt>
      <trkpt lat="37.1602" lon="-8.57014">
        <ele>5.531</ele>
        <time>2011-08-05T17:15:36Z</time>
      </trkpt>
      <trkpt lat="37.1604" lon="-8.56978">
        <ele>6.517</ele>
        <time>2011-08-05T17:15:40Z</time>
      </trkpt>
      <trkpt lat="37.16044" lon="-8.56948">
        <ele>7.981</ele>
        <time>2011-08-05T17:15:43Z</time>
      </trkpt>
      <trkpt lat="37.16097" lon="-8.56946">
        <ele>5.782</ele>
        <time>2011-08-05T17:15:49Z</time>
      </trkpt>
      <trkpt lat="37.16117" lon="-8.56934">
        <ele>5.16</ele>
        <time>2011-08-05T17:15:51Z</time>
      </trkpt>
      <trkpt lat="37.16149" lon="-8.56916">
        <ele>4.136</ele>
        <time>2011-08-05T17:15:54Z</time>
      </trkpt>
      <trkpt lat="37.16203" lon="-8.56912">
        <ele>2.412</ele>
        <time>2011-08-05T17:15:59Z</time>
      </trkpt>
      <trkpt lat="37.16222" lon="-8.56924">
        <ele>3.257</ele>
        <time>2011-08-05T17:16:01Z</time>
      </trkpt>
      <trkpt lat="37.16263" lon="-8.56922">
        <ele>2.764</ele>
        <time>2011-08-05T17:16:05Z</time>
      </trkpt>
      <trkpt lat="37.1628" lon="-8.56947">
        <ele>-1.834</ele>
        <time>2011-08-05T17:16:10Z</time>
      </trkpt>
      <trkpt lat="37.16418" lon="-8.56972">
        <ele>0.997</ele>
        <time>2011-08-05T17:16:18Z</time>
      </trkpt>
      <trkpt lat="37.16616" lon="-8.56998">
        <ele>15.995</ele>
        <time>2011-08-05T17:16:31Z</time>
      </trkpt>
      <trkpt lat="37.16754" lon="-8.56954">
        <ele>25.586</ele>
        <time>2011-08-05T17:16:40Z</time>
      </trkpt>
      <trkpt lat="37.16897" lon="-8.56847">
        <ele>34.924</ele>
        <time>2011-08-05T17:16:50Z</time>
      </trkpt>
      <trkpt lat="37.17067" lon="-8.56749">
        <ele>39.418</ele>
        <time>2011-08-05T17:17:01Z</time>
      </trkpt>
      <trkpt lat="37.17259" lon="-8.56715">
        <ele>42.325</ele>
        <time>2011-08-05T17:17:12Z</time>
      </trkpt>
      <trkpt lat="37.17437" lon="-8.56735">
        <ele>43.649</ele>
        <time>2011-08-05T17:17:22Z</time>
      </trkpt>
      <trkpt lat="37.17574" lon="-8.56773">
        <ele>39.948</ele>
        <time>2011-08-05T17:17:30Z</time>
      </trkpt>
      <trkpt lat="37.17633" lon="-8.56791">
        <ele>39.093</ele>
        <time>2011-08-05T17:17:34Z</time>
      </trkpt>
      <trkpt lat="37.17679" lon="-8.56767">
        <ele>43.373</ele>
        <time>2011-08-05T17:17:39Z</time>
      </trkpt>
      <trkpt lat="37.17684" lon="-8.5671">
        <ele>47.728</ele>
        <time>2011-08-05T17:17:44Z</time>
      </trkpt>
      <trkpt lat="37.17637" lon="-8.56687">
        <ele>51.947</ele>
        <time>2011-08-05T17:17:49Z</time>
      </trkpt>
      <trkpt lat="37.17602" lon="-8.56728">
        <ele>54.475</ele>
        <time>2011-08-05T17:17:53Z</time>
      </trkpt>
      <trkpt lat="37.17602" lon="-8.56728">
        <ele>54.385</ele>
        <time>2011-08-05T17:17:54Z</time>
      </trkpt>
      <trkpt lat="37.1757" lon="-8.56956">
        <ele>52.669</ele>
        <time>2011-08-05T17:18:03Z</time>
      </trkpt>
      <trkpt lat="37.17578" lon="-8.57166">
        <ele>44.101</ele>
        <time>2011-08-05T17:18:10Z</time>
      </trkpt>
      <trkpt lat="37.17628" lon="-8.57416">
        <ele>38.394</ele>
        <time>2011-08-05T17:18:18Z</time>
      </trkpt>
      <trkpt lat="37.17709" lon="-8.57625">
        <ele>30.904</ele>
        <time>2011-08-05T17:18:25Z</time>
      </trkpt>
      <trkpt lat="37.17882" lon="-8.57965">
        <ele>21.808</ele>
        <time>2011-08-05T17:18:36Z</time>
      </trkpt>
      <trkpt lat="37.18164" lon="-8.58523">
        <ele>32.275</ele>
        <time>2011-08-05T17:18:54Z</time>
      </trkpt>
      <trkpt lat="37.18291" lon="-8.58854">
        <ele>35.717</ele>
        <time>2011-08-05T17:19:04Z</time>
      </trkpt>
      <trkpt lat="37.18338" lon="-8.59106">
        <ele>34.097</ele>
        <time>2011-08-05T17:19:11Z</time>
      </trkpt>
      <trkpt lat="37.18348" lon="-8.59405">
        <ele>30.481</ele>
        <time>2011-08-05T17:19:19Z</time>
      </trkpt>
      <trkpt lat="37.1831" lon="-8.59698">
        <ele>32.82</ele>
        <time>2011-08-05T17:19:27Z</time>
      </trkpt>
      <trkpt lat="37.1823" lon="-8.59966">
        <ele>40.737</ele>
        <time>2011-08-05T17:19:35Z</time>
      </trkpt>
      <trkpt lat="37.18023" lon="-8.60549">
        <ele>36.73</ele>
        <time>2011-08-05T17:19:53Z</time>
      </trkpt>
      <trkpt lat="37.1789" lon="-8.61002">
        <ele>28.782</ele>
        <time>2011-08-05T17:20:06Z</time>
      </trkpt>
      <trkpt lat="37.17813" lon="-8.61427">
        <ele>30.235</ele>
        <time>2011-08-05T17:20:18Z</time>
      </trkpt>
      <trkpt lat="37.17721" lon="-8.61974">
        <ele>43.442</ele>
        <time>2011-08-05T17:20:34Z</time>
      </trkpt>
      <trkpt lat="37.17615" lon="-8.62293">
        <ele>55.02</ele>
        <time>2011-08-05T17:20:44Z</time>
      </trkpt>
      <trkpt lat="37.17419" lon="-8.62753">
        <ele>62.681</ele>
        <time>2011-08-05T17:20:59Z</time>
      </trkpt>
      <trkpt lat="37.17335" lon="-8.63043">
        <ele>70.195</ele>
        <time>2011-08-05T17:21:08Z</time>
      </trkpt>
      <trkpt lat="37.1728" lon="-8.63418">
        <ele>71.386</ele>
        <time>2011-08-05T17:21:19Z</time>
      </trkpt>
      <trkpt lat="37.17212" lon="-8.63987">
        <ele>55.921</ele>
        <time>2011-08-05T17:21:35Z</time>
      </trkpt>
      <trkpt lat="37.17145" lon="-8.64555">
        <ele>40.784</ele>
        <time>2011-08-05T17:21:51Z</time>
      </trkpt>
      <trkpt lat="37.17062" lon="-8.65307">
        <ele>36.764</ele>
        <time>2011-08-05T17:22:12Z</time>
      </trkpt>
      <trkpt lat="37.16982" lon="-8.65972">
        <ele>53.797</ele>
        <time>2011-08-05T17:22:31Z</time>
      </trkpt>
      <trkpt lat="37.16907" lon="-8.66377">
        <ele>64.153</ele>
        <time>2011-08-05T17:22:43Z</time>
      </trkpt>
      <trkpt lat="37.16799" lon="-8.66654">
        <ele>68.827</ele>
        <time>2011-08-05T17:22:52Z</time>
      </trkpt>
      <trkpt lat="37.16646" lon="-8.67034">
        <ele>66.545</ele>
        <time>2011-08-05T17:23:04Z</time>
      </trkpt>
      <trkpt lat="37.16564" lon="-8.67384">
        <ele>59.553</ele>
        <time>2011-08-05T17:23:14Z</time>
      </trkpt>
      <trkpt lat="37.1647" lon="-8.67847">
        <ele>45.346</ele>
        <time>2011-08-05T17:23:27Z</time>
      </trkpt>
      <trkpt lat="37.16359" lon="-8.68143">
        <ele>38.459</ele>
        <time>2011-08-05T17:23:36Z</time>
      </trkpt>
      <trkpt lat="37.16199" lon="-8.68413">
        <ele>30.912</ele>
        <time>2011-08-05T17:23:45Z</time>
      </trkpt>
      <trkpt lat="37.15951" lon="-8.68732">
        <ele>37.19</ele>
        <time>2011-08-05T17:23:57Z</time>
      </trkpt>
      <trkpt lat="37.15542" lon="-8.69262">
        <ele>52.407</ele>
        <time>2011-08-05T17:24:18Z</time>
      </trkpt>
      <trkpt lat="37.15368" lon="-8.69582">
        <ele>50.507</ele>
        <time>2011-08-05T17:24:29Z</time>
      </trkpt>
      <trkpt lat="37.15171" lon="-8.69977">
        <ele>51.301</ele>
        <time>2011-08-05T17:24:42Z</time>
      </trkpt>
      <trkpt lat="37.15012" lon="-8.70176">
        <ele>44.477</ele>
        <time>2011-08-05T17:24:50Z</time>
      </trkpt>
      <trkpt lat="37.14744" lon="-8.705">
        <ele>33.644</ele>
        <time>2011-08-05T17:25:03Z</time>
      </trkpt>
      <trkpt lat="37.1441" lon="-8.70994">
        <ele>24.83</ele>
        <time>2011-08-05T17:25:21Z</time>
      </trkpt>
      <trkpt lat="37.14297" lon="-8.71216">
        <ele>33.899</ele>
        <time>2011-08-05T17:25:29Z</time>
      </trkpt>
      <trkpt lat="37.14227" lon="-8.71427">
        <ele>45.455</ele>
        <time>2011-08-05T17:25:37Z</time>
      </trkpt>
      <trkpt lat="37.14194" lon="-8.71606">
        <ele>51.469</ele>
        <time>2011-08-05T17:25:45Z</time>
      </trkpt>
      <trkpt lat="37.14189" lon="-8.71702">
        <ele>55.83</ele>
        <time>2011-08-05T17:25:51Z</time>
      </trkpt>
      <trkpt lat="37.14233" lon="-8.718">
        <ele>58.954</ele>
        <time>2011-08-05T17:25:59Z</time>
      </trkpt>
      <trkpt lat="37.14241" lon="-8.7181">
        <ele>59.446</ele>
        <time>2011-08-05T17:26:00Z</time>
      </trkpt>
      <trkpt lat="37.14265" lon="-8.7184">
        <ele>60.334</ele>
        <time>2011-08-05T17:26:03Z</time>
      </trkpt>
      <trkpt lat="37.1428" lon="-8.71918">
        <ele>64.706</ele>
        <time>2011-08-05T17:26:09Z</time>
      </trkpt>
      <trkpt lat="37.1423" lon="-8.71956">
        <ele>69.222</ele>
        <time>2011-08-05T17:26:14Z</time>
      </trkpt>
      <trkpt lat="37.14216" lon="-8.71958">
        <ele>69.765</ele>
        <time>2011-08-05T17:26:15Z</time>
      </trkpt>
      <trkpt lat="37.14036" lon="-8.7198">
        <ele>68.92</ele>
        <time>2011-08-05T17:26:29Z</time>
      </trkpt>
      <trkpt lat="37.13847" lon="-8.71993">
        <ele>67.882</ele>
        <time>2011-08-05T17:26:37Z</time>
      </trkpt>
      <trkpt lat="37.13674" lon="-8.71929">
        <ele>62.157</ele>
        <time>2011-08-05T17:26:45Z</time>
      </trkpt>
      <trkpt lat="37.13532" lon="-8.71801">
        <ele>53.784</ele>
        <time>2011-08-05T17:26:52Z</time>
      </trkpt>
      <trkpt lat="37.1342" lon="-8.71615">
        <ele>45.786</ele>
        <time>2011-08-05T17:26:59Z</time>
      </trkpt>
      <trkpt lat="37.13285" lon="-8.71352">
        <ele>41.41</ele>
        <time>2011-08-05T17:27:08Z</time>
      </trkpt>
      <trkpt lat="37.13126" lon="-8.71195">
        <ele>42.055</ele>
        <time>2011-08-05T17:27:15Z</time>
      </trkpt>
      <trkpt lat="37.12957" lon="-8.71105">
        <ele>42.66</ele>
        <time>2011-08-05T17:27:21Z</time>
      </trkpt>
      <trkpt lat="37.12544" lon="-8.70913">
        <ele>45.503</ele>
        <time>2011-08-05T17:27:35Z</time>
      </trkpt>
      <trkpt lat="37.12259" lon="-8.70777">
        <ele>47.744</ele>
        <time>2011-08-05T17:27:46Z</time>
      </trkpt>
      <trkpt lat="37.12043" lon="-8.70635">
        <ele>54.008</ele>
        <time>2011-08-05T17:27:55Z</time>
      </trkpt>
      <trkpt lat="37.1186" lon="-8.70452">
        <ele>65.334</ele>
        <time>2011-08-05T17:28:04Z</time>
      </trkpt>
      <trkpt lat="37.11618" lon="-8.70224">
        <ele>78.637</ele>
        <time>2011-08-05T17:28:16Z</time>
      </trkpt>
      <trkpt lat="37.11416" lon="-8.70109">
        <ele>74.091</ele>
        <time>2011-08-05T17:28:25Z</time>
      </trkpt>
      <trkpt lat="37.11169" lon="-8.69967">
        <ele>61.166</ele>
        <time>2011-08-05T17:28:36Z</time>
      </trkpt>
      <trkpt lat="37.11053" lon="-8.69859">
        <ele>45.519</ele>
        <time>2011-08-05T17:28:43Z</time>
      </trkpt>
      <trkpt lat="37.10922" lon="-8.69754">
        <ele>31.328</ele>
        <time>2011-08-05T17:28:52Z</time>
      </trkpt>
      <trkpt lat="37.10898" lon="-8.69741">
        <ele>30.419</ele>
        <time>2011-08-05T17:28:54Z</time>
      </trkpt>
      <trkpt lat="37.10854" lon="-8.69755">
        <ele>36.022</ele>
        <time>2011-08-05T17:28:59Z</time>
      </trkpt>
      <trkpt lat="37.10805" lon="-8.69704">
        <ele>40.286</ele>
        <time>2011-08-05T17:29:05Z</time>
      </trkpt>
      <trkpt lat="37.1075" lon="-8.69689">
        <ele>42.484</ele>
        <time>2011-08-05T17:29:10Z</time>
      </trkpt>
      <trkpt lat="37.10608" lon="-8.69665">
        <ele>48.665</ele>
        <time>2011-08-05T17:29:19Z</time>
      </trkpt>
      <trkpt lat="37.10467" lon="-8.69618">
        <ele>50.213</ele>
        <time>2011-08-05T17:29:27Z</time>
      </trkpt>
      <trkpt lat="37.10338" lon="-8.69516">
        <ele>51.419</ele>
        <time>2011-08-05T17:29:35Z</time>
      </trkpt>
      <trkpt lat="37.10307" lon="-8.69494">
        <ele>52.558</ele>
        <time>2011-08-05T17:29:37Z</time>
      </trkpt>
      <trkpt lat="37.1025" lon="-8.69469">
        <ele>52.048</ele>
        <time>2011-08-05T17:29:41Z</time>
      </trkpt>
      <trkpt lat="37.1023" lon="-8.69465">
        <ele>51.545</ele>
        <time>2011-08-05T17:29:43Z</time>
      </trkpt>
      <trkpt lat="37.10195" lon="-8.69485">
        <ele>52.88</ele>
        <time>2011-08-05T17:29:48Z</time>
      </trkpt>
      <trkpt lat="37.10143" lon="-8.69483">
        <ele>52.787</ele>
        <time>2011-08-05T17:29:55Z</time>
      </trkpt>
      <trkpt lat="37.10142" lon="-8.6944">
        <ele>49.892</ele>
        <time>2011-08-05T17:30:00Z</time>
      </trkpt>
      <trkpt lat="37.10148" lon="-8.69431">
        <ele>49.568</ele>
        <time>2011-08-05T17:30:01Z</time>
      </trkpt>
      <trkpt lat="37.10164" lon="-8.69404">
        <ele>48.544</ele>
        <time>2011-08-05T17:30:03Z</time>
      </trkpt>
      <trkpt lat="37.10159" lon="-8.69277">
        <ele>44.476</ele>
        <time>2011-08-05T17:30:10Z</time>
      </trkpt>
      <trkpt lat="37.10145" lon="-8.69018">
        <ele>45.347</ele>
        <time>2011-08-05T17:30:24Z</time>
      </trkpt>
      <trkpt lat="37.10142" lon="-8.68971">
        <ele>44.771</ele>
        <time>2011-08-05T17:30:29Z</time>
      </trkpt>
      <trkpt lat="37.10141" lon="-8.68958">
        <ele>44.383</ele>
        <time>2011-08-05T17:30:38Z</time>
      </trkpt>
      <trkpt lat="37.10136" lon="-8.68884">
        <ele>45.788</ele>
        <time>2011-08-05T17:30:50Z</time>
      </trkpt>
      <trkpt lat="37.10135" lon="-8.68871">
        <ele>45.752</ele>
        <time>2011-08-05T17:30:59Z</time>
      </trkpt>
      <trkpt lat="37.10127" lon="-8.68838">
        <ele>45.637</ele>
        <time>2011-08-05T17:31:07Z</time>
      </trkpt>
      <trkpt lat="37.1012" lon="-8.68815">
        <ele>45.123</ele>
        <time>2011-08-05T17:31:15Z</time>
      </trkpt>
      <trkpt lat="37.10116" lon="-8.68802">
        <ele>45.279</ele>
        <time>2011-08-05T17:31:17Z</time>
      </trkpt>
      <trkpt lat="37.10108" lon="-8.68786">
        <ele>45.305</ele>
        <time>2011-08-05T17:31:19Z</time>
      </trkpt>
      <trkpt lat="37.10106" lon="-8.68727">
        <ele>45.349</ele>
        <time>2011-08-05T17:31:25Z</time>
      </trkpt>
      <trkpt lat="37.10084" lon="-8.68571">
        <ele>43.303</ele>
        <time>2011-08-05T17:31:38Z</time>
      </trkpt>
      <trkpt lat="37.10045" lon="-8.68354">
        <ele>37.592</ele>
        <time>2011-08-05T17:31:54Z</time>
      </trkpt>
      <trkpt lat="37.10025" lon="-8.68243">
        <ele>33.861</ele>
        <time>2011-08-05T17:32:06Z</time>
      </trkpt>
      <trkpt lat="37.10024" lon="-8.68236">
        <ele>34.648</ele>
        <time>2011-08-05T17:32:14Z</time>
      </trkpt>
      <trkpt lat="37.10019" lon="-8.68205">
        <ele>34.749</ele>
        <time>2011-08-05T17:32:31Z</time>
      </trkpt>
      <trkpt lat="37.10005" lon="-8.68105">
        <ele>37.106</ele>
        <time>2011-08-05T17:32:40Z</time>
      </trkpt>
      <trkpt lat="37.09981" lon="-8.68042">
        <ele>37.859</ele>
        <time>2011-08-05T17:32:45Z</time>
      </trkpt>
      <trkpt lat="37.09952" lon="-8.67999">
        <ele>38.306</ele>
        <time>2011-08-05T17:32:49Z</time>
      </trkpt>
      <trkpt lat="37.09854" lon="-8.67924">
        <ele>41.17</ele>
        <time>2011-08-05T17:33:00Z</time>
      </trkpt>
      <trkpt lat="37.09802" lon="-8.67889">
        <ele>40.075</ele>
        <time>2011-08-05T17:33:08Z</time>
      </trkpt>
      <trkpt lat="37.09799" lon="-8.67867">
        <ele>40.185</ele>
        <time>2011-08-05T17:33:13Z</time>
      </trkpt>
      <trkpt lat="37.09805" lon="-8.67857">
        <ele>40.2</ele>
        <time>2011-08-05T17:33:15Z</time>
      </trkpt>
      <trkpt lat="37.09866" lon="-8.67755">
        <ele>29.066</ele>
        <time>2011-08-05T17:33:38Z</time>
      </trkpt>
      <trkpt lat="37.0984" lon="-8.67747">
        <ele>27.198</ele>
        <time>2011-08-05T17:33:43Z</time>
      </trkpt>
      <trkpt lat="37.09824" lon="-8.67745">
        <ele>26.259</ele>
        <time>2011-08-05T17:33:47Z</time>
      </trkpt>
      <trkpt lat="37.09825" lon="-8.67745">
        <ele>27.031</ele>
        <time>2011-08-05T17:33:51Z</time>
      </trkpt>
      <trkpt lat="37.09795" lon="-8.67746">
        <ele>26.034</ele>
        <time>2011-08-05T17:34:03Z</time>
      </trkpt>
      <trkpt lat="37.09757" lon="-8.67725">
        <ele>24.814</ele>
        <time>2011-08-05T17:34:13Z</time>
      </trkpt>
      <trkpt lat="37.09752" lon="-8.67721">
        <ele>23.305</ele>
        <time>2011-08-05T17:34:16Z</time>
      </trkpt>
      <trkpt lat="37.09766" lon="-8.67718">
        <ele>22.355</ele>
        <time>2011-08-05T17:34:19Z</time>
      </trkpt>
      <trkpt lat="37.09774" lon="-8.67701">
        <ele>19.37</ele>
        <time>2011-08-05T17:34:26Z</time>
      </trkpt>
      <trkpt lat="37.09738" lon="-8.6767">
        <ele>17.974</ele>
        <time>2011-08-05T17:34:30Z</time>
      </trkpt>
      <trkpt lat="37.09696" lon="-8.6764">
        <ele>15.477</ele>
        <time>2011-08-05T17:34:40Z</time>
      </trkpt>
      <trkpt lat="37.09696" lon="-8.6764">
        <ele>15.159</ele>
        <time>2011-08-05T17:35:03Z</time>
      </trkpt>
      <trkpt lat="37.09696" lon="-8.6764">
        <ele>15.196</ele>
        <time>2011-08-05T17:35:11Z</time>
      </trkpt>
      <trkpt lat="37.09691" lon="-8.67618">
        <ele>15.468</ele>
        <time>2011-08-05T17:35:16Z</time>
      </trkpt>
      <trkpt lat="37.09728" lon="-8.67518">
        <ele>14.214</ele>
        <time>2011-08-05T17:35:28Z</time>
      </trkpt>
      <trkpt lat="37.09729" lon="-8.67505">
        <ele>14.336</ele>
        <time>2011-08-05T17:35:29Z</time>
      </trkpt>
      <trkpt lat="37.09721" lon="-8.67442">
        <ele>13.523</ele>
        <time>2011-08-05T17:35:34Z</time>
      </trkpt>
      <trkpt lat="37.09715" lon="-8.67418">
        <ele>12.868</ele>
        <time>2011-08-05T17:35:37Z</time>
      </trkpt>
      <trkpt lat="37.09708" lon="-8.67374">
        <ele>12.009</ele>
        <time>2011-08-05T17:35:44Z</time>
      </trkpt>
      <trkpt lat="37.09736" lon="-8.67368">
        <ele>10.365</ele>
        <time>2011-08-05T17:35:51Z</time>
      </trkpt>
      <trkpt lat="37.09791" lon="-8.67341">
        <ele>9.358</ele>
        <time>2011-08-05T17:36:01Z</time>
      </trkpt>
      <trkpt lat="37.09799" lon="-8.67337">
        <ele>9.818</ele>
        <time>2011-08-05T17:36:10Z</time>
      </trkpt>
      <trkpt lat="37.09807" lon="-8.67333">
        <ele>10.965</ele>
        <time>2011-08-05T17:36:26Z</time>
      </trkpt>
      <trkpt lat="37.0982" lon="-8.67326">
        <ele>12.424</ele>
        <time>2011-08-05T17:36:37Z</time>
      </trkpt>
      <trkpt lat="37.09826" lon="-8.67322">
        <ele>13.902</ele>
        <time>2011-08-05T17:36:52Z</time>
      </trkpt>
      <trkpt lat="37.09826" lon="-8.67322">
        <ele>13.88</ele>
        <time>2011-08-05T17:36:55Z</time>
      </trkpt>
      <trkpt lat="37.09841" lon="-8.67305">
        <ele>15.117</ele>
        <time>2011-08-05T17:37:07Z</time>
      </trkpt>
      <trkpt lat="37.09846" lon="-8.67298">
        <ele>14.693</ele>
        <time>2011-08-05T17:37:14Z</time>
      </trkpt>
      <trkpt lat="37.09868" lon="-8.67269">
        <ele>14.938</ele>
        <time>2011-08-05T17:37:25Z</time>
      </trkpt>
      <trkpt lat="37.09895" lon="-8.67238">
        <ele>15.94</ele>
        <time>2011-08-05T17:37:38Z</time>
      </trkpt>
      <trkpt lat="37.09895" lon="-8.67238">
        <ele>16.515</ele>
        <time>2011-08-05T17:37:49Z</time>
      </trkpt>
      <trkpt lat="37.0991" lon="-8.67226">
        <ele>16.091</ele>
        <time>2011-08-05T17:38:00Z</time>
      </trkpt>
      <trkpt lat="37.0991" lon="-8.67226">
        <ele>16.028</ele>
        <time>2011-08-05T17:38:01Z</time>
      </trkpt>
      <trkpt lat="37.09907" lon="-8.67225">
        <ele>15.808</ele>
        <time>2011-08-05T17:38:07Z</time>
      </trkpt>
      <trkpt lat="37.09941" lon="-8.67228">
        <ele>14.276</ele>
        <time>2011-08-05T17:38:16Z</time>
      </trkpt>
      <trkpt lat="37.09953" lon="-8.67236">
        <ele>13.618</ele>
        <time>2011-08-05T17:38:28Z</time>
      </trkpt>
      <trkpt lat="37.09953" lon="-8.67236">
        <ele>13.686</ele>
        <time>2011-08-05T17:38:37Z</time>
      </trkpt>
      <trkpt lat="37.09967" lon="-8.67242">
        <ele>13.184</ele>
        <time>2011-08-05T17:38:41Z</time>
      </trkpt>
      <trkpt lat="37.09984" lon="-8.6725">
        <ele>12.905</ele>
        <time>2011-08-05T17:38:49Z</time>
      </trkpt>
      <trkpt lat="37.1001" lon="-8.67276">
        <ele>16.126</ele>
        <time>2011-08-05T17:39:02Z</time>
      </trkpt>
      <trkpt lat="37.10014" lon="-8.67278">
        <ele>16.839</ele>
        <time>2011-08-05T17:39:09Z</time>
      </trkpt>
      <trkpt lat="37.10013" lon="-8.67306">
        <ele>16.876</ele>
        <time>2011-08-05T17:39:22Z</time>
      </trkpt>
      <trkpt lat="37.10014" lon="-8.67336">
        <ele>15.366</ele>
        <time>2011-08-05T17:39:34Z</time>
      </trkpt>
      <trkpt lat="37.10017" lon="-8.67376">
        <ele>14.895</ele>
        <time>2011-08-05T17:39:47Z</time>
      </trkpt>
      <trkpt lat="37.10019" lon="-8.67416">
        <ele>10.563</ele>
        <time>2011-08-05T17:39:59Z</time>
      </trkpt>
      <trkpt lat="37.10019" lon="-8.6745">
        <ele>8.873</ele>
        <time>2011-08-05T17:40:10Z</time>
      </trkpt>
      <trkpt lat="37.10019" lon="-8.67452">
        <ele>9.191</ele>
        <time>2011-08-05T17:40:21Z</time>
      </trkpt>
      <trkpt lat="37.10022" lon="-8.6747">
        <ele>9.309</ele>
        <time>2011-08-05T17:40:29Z</time>
      </trkpt>
      <trkpt lat="37.10025" lon="-8.67504">
        <ele>9.404</ele>
        <time>2011-08-05T17:40:38Z</time>
      </trkpt>
      <trkpt lat="37.10042" lon="-8.67535">
        <ele>9.852</ele>
        <time>2011-08-05T17:40:44Z</time>
      </trkpt>
      <trkpt lat="37.10066" lon="-8.67568">
        <ele>11.042</ele>
        <time>2011-08-05T17:40:51Z</time>
      </trkpt>
      <trkpt lat="37.1007" lon="-8.67568">
        <ele>10.989</ele>
        <time>2011-08-05T17:40:55Z</time>
      </trkpt>
      <trkpt lat="37.10066" lon="-8.67568">
        <ele>11.103</ele>
        <time>2011-08-05T17:40:58Z</time>
      </trkpt>
      <trkpt lat="37.10068" lon="-8.67579">
        <ele>11.311</ele>
        <time>2011-08-05T17:41:02Z</time>
      </trkpt>
      <trkpt lat="37.1007" lon="-8.67591">
        <ele>12.218</ele>
        <time>2011-08-05T17:41:06Z</time>
      </trkpt>
      <trkpt lat="37.10072" lon="-8.67598">
        <ele>13.54</ele>
        <time>2011-08-05T17:41:17Z</time>
      </trkpt>
      <trkpt lat="37.10072" lon="-8.67598">
        <ele>13.546</ele>
        <time>2011-08-05T17:41:18Z</time>
      </trkpt>
      <trkpt lat="37.10078" lon="-8.67568">
        <ele>14.481</ele>
        <time>2011-08-05T17:41:23Z</time>
      </trkpt>
      <trkpt lat="37.10112" lon="-8.67564">
        <ele>15.945</ele>
        <time>2011-08-05T17:41:40Z</time>
      </trkpt>
      <trkpt lat="37.10113" lon="-8.67564">
        <ele>16.231</ele>
        <time>2011-08-05T17:41:44Z</time>
      </trkpt>
      <trkpt lat="37.10113" lon="-8.67564">
        <ele>16.381</ele>
        <time>2011-08-05T17:42:01Z</time>
      </trkpt>
      <trkpt lat="37.10113" lon="-8.67564">
        <ele>16.391</ele>
        <time>2011-08-05T17:43:23Z</time>
      </trkpt>
      <trkpt lat="37.10113" lon="-8.67564">
        <ele>16.392</ele>
        <time>2011-08-05T17:44:08Z</time>
      </trkpt>
      <trkpt lat="37.10113" lon="-8.67564">
        <ele>16.372</ele>
        <time>2011-08-05T17:45:08Z</time>
      </trkpt>
      <trkpt lat="37.10113" lon="-8.67564">
        <ele>16.572</ele>
        <time>2011-08-05T17:45:23Z</time>
      </trkpt>
      <trkpt lat="37.10113" lon="-8.67564">
        <ele>16.42</ele>
        <time>2011-08-05T17:45:32Z</time>
      </trkpt>
      <trkpt lat="37.10113" lon="-8.67564">
        <ele>17.484</ele>
        <time>2011-08-05T17:45:46Z</time>
      </trkpt>
      <trkpt lat="37.10113" lon="-8.67564">
        <ele>17.229</ele>
        <time>2011-08-05T17:45:53Z</time>
      </trkpt>
      <trkpt lat="37.10113" lon="-8.67564">
        <ele>16.982</ele>
        <time>2011-08-05T17:45:56Z</time>
      </trkpt>
      <trkpt lat="37.10113" lon="-8.67564">
        <ele>16.249</ele>
        <time>2011-08-05T17:46:09Z</time>
      </trkpt>
      <trkpt lat="37.10113" lon="-8.67564">
        <ele>15.289</ele>
        <time>2011-08-05T17:46:40Z</time>
      </trkpt>
      <trkpt lat="37.10113" lon="-8.67564">
        <ele>14.631</ele>
        <time>2011-08-05T17:47:00Z</time>
      </trkpt>
      <trkpt lat="37.10113" lon="-8.67564">
        <ele>14.775</ele>
        <time>2011-08-05T17:48:18Z</time>
      </trkpt>
      <trkpt lat="37.10113" lon="-8.67564">
        <ele>15.304</ele>
        <time>2011-08-05T17:48:35Z</time>
      </trkpt>
      <trkpt lat="37.10113" lon="-8.67564">
        <ele>15.542</ele>
        <time>2011-08-05T17:48:54Z</time>
      </trkpt>
      <trkpt lat="37.10113" lon="-8.67564">
        <ele>16.46</ele>
        <time>2011-08-05T17:49:30Z</time>
      </trkpt>
      <trkpt lat="37.10113" lon="-8.67564">
        <ele>15.749</ele>
        <time>2011-08-05T17:49:52Z</time>
      </trkpt>
      <trkpt lat="37.10113" lon="-8.67564">
        <ele>14.342</ele>
        <time>2011-08-05T17:51:02Z</time>
      </trkpt>
      <trkpt lat="37.10113" lon="-8.67564">
        <ele>14.301</ele>
        <time>2011-08-05T17:51:44Z</time>
      </trkpt>
      <trkpt lat="37.10113" lon="-8.67564">
        <ele>14.35</ele>
        <time>2011-08-05T17:52:27Z</time>
      </trkpt>
      <trkpt lat="37.10113" lon="-8.67564">
        <ele>12.657</ele>
        <time>2011-08-05T17:53:10Z</time>
      </trkpt>
      <trkpt lat="37.10079" lon="-8.67568">
        <ele>14.401</ele>
        <time>2011-08-05T17:53:19Z</time>
      </trkpt>
      <trkpt lat="37.10079" lon="-8.67568">
        <ele>12.871</ele>
        <time>2011-08-05T17:53:56Z</time>
      </trkpt>
      <trkpt lat="37.10079" lon="-8.67568">
        <ele>12.595</ele>
        <time>2011-08-05T17:54:21Z</time>
      </trkpt>
      <trkpt lat="37.10079" lon="-8.67568">
        <ele>7.304</ele>
        <time>2011-08-05T17:55:15Z</time>
      </trkpt>
      <trkpt lat="37.10068" lon="-8.67579">
        <ele>9.41</ele>
        <time>2011-08-05T17:55:21Z</time>
      </trkpt>
      <trkpt lat="37.10069" lon="-8.67585">
        <ele>10.158</ele>
        <time>2011-08-05T17:55:24Z</time>
      </trkpt>
      <trkpt lat="37.10079" lon="-8.67568">
        <ele>11.505</ele>
        <time>2011-08-05T17:55:29Z</time>
      </trkpt>
      <trkpt lat="37.10072" lon="-8.67597">
        <ele>13.287</ele>
        <time>2011-08-05T17:55:34Z</time>
      </trkpt>
      <trkpt lat="37.10082" lon="-8.67568">
        <ele>14.05</ele>
        <time>2011-08-05T17:55:38Z</time>
      </trkpt>
      <trkpt lat="37.10086" lon="-8.67567">
        <ele>14.989</ele>
        <time>2011-08-05T17:55:42Z</time>
      </trkpt>
      <trkpt lat="37.10088" lon="-8.67567">
        <ele>13.927</ele>
        <time>2011-08-05T17:55:52Z</time>
      </trkpt>
      <trkpt lat="37.10113" lon="-8.67564">
        <ele>11.366</ele>
        <time>2011-08-05T17:56:10Z</time>
      </trkpt>
      <trkpt lat="37.10113" lon="-8.67564">
        <ele>11.419</ele>
        <time>2011-08-05T17:56:27Z</time>
      </trkpt>
      <trkpt lat="37.10113" lon="-8.67564">
        <ele>11.59</ele>
        <time>2011-08-05T17:56:32Z</time>
      </trkpt>
      <trkpt lat="37.10113" lon="-8.67564">
        <ele>11.996</ele>
        <time>2011-08-05T17:56:43Z</time>
      </trkpt>
      <trkpt lat="37.10113" lon="-8.67564">
        <ele>12.082</ele>
        <time>2011-08-05T17:56:47Z</time>
      </trkpt>
      <trkpt lat="37.10095" lon="-8.67643">
        <ele>11.886</ele>
        <time>2011-08-05T17:57:03Z</time>
      </trkpt>
      <trkpt lat="37.10093" lon="-8.67642">
        <ele>11.924</ele>
        <time>2011-08-05T17:57:08Z</time>
      </trkpt>
      <trkpt lat="37.10093" lon="-8.67642">
        <ele>11.982</ele>
        <time>2011-08-05T17:57:10Z</time>
      </trkpt>
      <trkpt lat="37.10084" lon="-8.67641">
        <ele>12.558</ele>
        <time>2011-08-05T17:57:25Z</time>
      </trkpt>
      <trkpt lat="37.10084" lon="-8.67641">
        <ele>12.673</ele>
        <time>2011-08-05T17:57:27Z</time>
      </trkpt>
      <trkpt lat="37.10083" lon="-8.67641">
        <ele>13.011</ele>
        <time>2011-08-05T17:57:37Z</time>
      </trkpt>
      <trkpt lat="37.10083" lon="-8.67641">
        <ele>13.194</ele>
        <time>2011-08-05T17:57:53Z</time>
      </trkpt>
      <trkpt lat="37.10083" lon="-8.67641">
        <ele>12.73</ele>
        <time>2011-08-05T17:59:18Z</time>
      </trkpt>
      <trkpt lat="37.10083" lon="-8.67641">
        <ele>13.173</ele>
        <time>2011-08-05T17:59:51Z</time>
      </trkpt>
      <trkpt lat="37.10079" lon="-8.67568">
        <ele>14.018</ele>
        <time>2011-08-05T18:00:01Z</time>
      </trkpt>
      <trkpt lat="37.10079" lon="-8.67568">
        <ele>13.652</ele>
        <time>2011-08-05T18:00:45Z</time>
      </trkpt>
      <trkpt lat="37.10079" lon="-8.67568">
        <ele>13.855</ele>
        <time>2011-08-05T18:04:34Z</time>
      </trkpt>
      <trkpt lat="37.10079" lon="-8.67568">
        <ele>13.837</ele>
        <time>2011-08-05T18:05:24Z</time>
      </trkpt>
      <trkpt lat="37.10079" lon="-8.67568">
        <ele>13.119</ele>
        <time>2011-08-05T18:05:28Z</time>
      </trkpt>
      <trkpt lat="37.10079" lon="-8.67568">
        <ele>10.586</ele>
        <time>2011-08-05T18:05:47Z</time>
      </trkpt>
      <trkpt lat="37.10079" lon="-8.67568">
        <ele>9.11</ele>
        <time>2011-08-05T18:05:59Z</time>
      </trkpt>
      <trkpt lat="37.10102" lon="-8.67565">
        <ele>8.269</ele>
        <time>2011-08-05T18:06:18Z</time>
      </trkpt>
      <trkpt lat="37.10102" lon="-8.67565">
        <ele>8.693</ele>
        <time>2011-08-05T18:06:36Z</time>
      </trkpt>
      <trkpt lat="37.10102" lon="-8.67565">
        <ele>8.049</ele>
        <time>2011-08-05T18:07:19Z</time>
      </trkpt>
      <trkpt lat="37.10102" lon="-8.67565">
        <ele>7.965</ele>
        <time>2011-08-05T18:08:20Z</time>
      </trkpt>
      <trkpt lat="37.10139" lon="-8.67547">
        <ele>8.972</ele>
        <time>2011-08-05T18:08:33Z</time>
      </trkpt>
      <trkpt lat="37.10139" lon="-8.67547">
        <ele>7.97</ele>
        <time>2011-08-05T18:08:46Z</time>
      </trkpt>
      <trkpt lat="37.10139" lon="-8.67547">
        <ele>4.254</ele>
        <time>2011-08-05T18:09:20Z</time>
      </trkpt>
      <trkpt lat="37.10139" lon="-8.67547">
        <ele>1.814</ele>
        <time>2011-08-05T18:09:37Z</time>
      </trkpt>
      <trkpt lat="37.10139" lon="-8.67547">
        <ele>0.148</ele>
        <time>2011-08-05T18:10:05Z</time>
      </trkpt>
      <trkpt lat="37.10139" lon="-8.67547">
        <ele>0.272</ele>
        <time>2011-08-05T18:10:09Z</time>
      </trkpt>
      <trkpt lat="37.10124" lon="-8.67481">
        <ele>0.749</ele>
        <time>2011-08-05T18:10:20Z</time>
      </trkpt>
      <trkpt lat="37.10124" lon="-8.67481">
        <ele>1.084</ele>
        <time>2011-08-05T18:14:59Z</time>
      </trkpt>
      <trkpt lat="37.10147" lon="-8.67478">
        <ele>-0.246</ele>
        <time>2011-08-05T18:15:19Z</time>
      </trkpt>
      <trkpt lat="37.10161" lon="-8.67464">
        <ele>-1.487</ele>
        <time>2011-08-05T18:15:38Z</time>
      </trkpt>
      <trkpt lat="37.10179" lon="-8.67442">
        <ele>0.975</ele>
        <time>2011-08-05T18:15:57Z</time>
      </trkpt>
      <trkpt lat="37.10184" lon="-8.67435">
        <ele>0.432</ele>
        <time>2011-08-05T18:16:12Z</time>
      </trkpt>
      <trkpt lat="37.10184" lon="-8.67435">
        <ele>1.088</ele>
        <time>2011-08-05T18:16:27Z</time>
      </trkpt>
      <trkpt lat="37.10177" lon="-8.67443">
        <ele>0.535</ele>
        <time>2011-08-05T18:16:31Z</time>
      </trkpt>
      <trkpt lat="37.10177" lon="-8.67443">
        <ele>-0.121</ele>
        <time>2011-08-05T18:16:56Z</time>
      </trkpt>
      <trkpt lat="37.10147" lon="-8.67413">
        <ele>-0.363</ele>
        <time>2011-08-05T18:17:19Z</time>
      </trkpt>
      <trkpt lat="37.10147" lon="-8.67413">
        <ele>-0.796</ele>
        <time>2011-08-05T18:17:33Z</time>
      </trkpt>
      <trkpt lat="37.10147" lon="-8.67413">
        <ele>-0.027</ele>
        <time>2011-08-05T18:17:37Z</time>
      </trkpt>
      <trkpt lat="37.10157" lon="-8.67398">
        <ele>-2.906</ele>
        <time>2011-08-05T18:17:59Z</time>
      </trkpt>
      <trkpt lat="37.10157" lon="-8.67398">
        <ele>-3.193</ele>
        <time>2011-08-05T18:18:00Z</time>
      </trkpt>
      <trkpt lat="37.1014" lon="-8.67372">
        <ele>-3.85</ele>
        <time>2011-08-05T18:18:04Z</time>
      </trkpt>
      <trkpt lat="37.10127" lon="-8.67364">
        <ele>-6.224</ele>
        <time>2011-08-05T18:18:22Z</time>
      </trkpt>
      <trkpt lat="37.10127" lon="-8.67364">
        <ele>-2.688</ele>
        <time>2011-08-05T18:18:40Z</time>
      </trkpt>
      <trkpt lat="37.10096" lon="-8.67348">
        <ele>0.739</ele>
        <time>2011-08-05T18:19:00Z</time>
      </trkpt>
      <trkpt lat="37.10081" lon="-8.67343">
        <ele>1.652</ele>
        <time>2011-08-05T18:19:09Z</time>
      </trkpt>
      <trkpt lat="37.10081" lon="-8.67343">
        <ele>3.185</ele>
        <time>2011-08-05T18:19:19Z</time>
      </trkpt>
      <trkpt lat="37.10065" lon="-8.67338">
        <ele>3.662</ele>
        <time>2011-08-05T18:19:32Z</time>
      </trkpt>
      <trkpt lat="37.10065" lon="-8.67338">
        <ele>3.098</ele>
        <time>2011-08-05T18:19:34Z</time>
      </trkpt>
      <trkpt lat="37.10065" lon="-8.67338">
        <ele>2.352</ele>
        <time>2011-08-05T18:19:40Z</time>
      </trkpt>
      <trkpt lat="37.10044" lon="-8.67332">
        <ele>1.361</ele>
        <time>2011-08-05T18:19:46Z</time>
      </trkpt>
      <trkpt lat="37.10044" lon="-8.67332">
        <ele>1.083</ele>
        <time>2011-08-05T18:19:50Z</time>
      </trkpt>
      <trkpt lat="37.10014" lon="-8.67323">
        <ele>-1.397</ele>
        <time>2011-08-05T18:20:10Z</time>
      </trkpt>
      <trkpt lat="37.10014" lon="-8.67323">
        <ele>-1.924</ele>
        <time>2011-08-05T18:20:16Z</time>
      </trkpt>
      <trkpt lat="37.10016" lon="-8.67239">
        <ele>-2.421</ele>
        <time>2011-08-05T18:20:23Z</time>
      </trkpt>
      <trkpt lat="37.09986" lon="-8.67229">
        <ele>-4.898</ele>
        <time>2011-08-05T18:20:42Z</time>
      </trkpt>
      <trkpt lat="37.09986" lon="-8.67229">
        <ele>-5.07</ele>
        <time>2011-08-05T18:20:56Z</time>
      </trkpt>
      <trkpt lat="37.09986" lon="-8.67229">
        <ele>-3.982</ele>
        <time>2011-08-05T18:21:12Z</time>
      </trkpt>
      <trkpt lat="37.09986" lon="-8.67229">
        <ele>-3.396</ele>
        <time>2011-08-05T18:21:22Z</time>
      </trkpt>
      <trkpt lat="37.09986" lon="-8.67229">
        <ele>-3.546</ele>
        <time>2011-08-05T18:21:39Z</time>
      </trkpt>
      <trkpt lat="37.09986" lon="-8.67229">
        <ele>-3.077</ele>
        <time>2011-08-05T18:21:55Z</time>
      </trkpt>
      <trkpt lat="37.09986" lon="-8.67229">
        <ele>-2.208</ele>
        <time>2011-08-05T18:22:07Z</time>
      </trkpt>
      <trkpt lat="37.09986" lon="-8.67229">
        <ele>0.774</ele>
        <time>2011-08-05T18:22:29Z</time>
      </trkpt>
      <trkpt lat="37.09986" lon="-8.67229">
        <ele>1.38</ele>
        <time>2011-08-05T18:22:51Z</time>
      </trkpt>
    </trkseg>
  </trk>
  <trk>
    <name><![CDATA[ACTIVE LOG210159]]></name>
    <trkseg>
      <trkpt lat="37.10035" lon="-8.67226">
        <ele>40.906</ele>
        <time>2011-08-05T19:01:59Z</time>
      </trkpt>
    </trkseg>
  </trk>
  <trk>
    <name><![CDATA[ACTIVE LOG210220]]></name>
    <trkseg>
      <trkpt lat="37.10034" lon="-8.67227">
        <ele>42.509</ele>
        <time>2011-08-05T19:02:18Z</time>
      </trkpt>
      <trkpt lat="37.10036" lon="-8.67222">
        <ele>42.17</ele>
        <time>2011-08-05T19:06:22Z</time>
      </trkpt>
      <trkpt lat="37.10045" lon="-8.67216">
        <ele>48.941</ele>
        <time>2011-08-05T19:09:28Z</time>
      </trkpt>
      <trkpt lat="37.10053" lon="-8.67209">
        <ele>60.706</ele>
        <time>2011-08-05T19:10:45Z</time>
      </trkpt>
      <trkpt lat="37.10049" lon="-8.67198">
        <ele>71.398</ele>
        <time>2011-08-05T19:11:39Z</time>
      </trkpt>
      <trkpt lat="37.10046" lon="-8.67191">
        <ele>74.199</ele>
        <time>2011-08-05T19:12:08Z</time>
      </trkpt>
      <trkpt lat="37.10053" lon="-8.67211">
        <ele>84.595</ele>
        <time>2011-08-05T19:12:44Z</time>
      </trkpt>
    </trkseg>
  </trk>
</gpx>